Provisional Data: Conodoguinet Creek near Schlusser, PA


Please select a monitoring station.
Please select start date.
Please select start date.

<
Toggle Unit: C/F Toggle Unit: C/F
Sample Time Temperature (C) Temperature (F) Specific Conductivity (mS/cm) pH   Turbidity (NTU+) DO (mg/L)
10/22/2021 12:00:00 AM 14.46 58.028 8 476.5 70.94 87.6
10/22/2021 12:15:00 AM 14.47 58.046 8 476.4 50.87 87.4
10/22/2021 12:30:00 AM 14.48 58.064 7.99 475.9 70.91 87.4
10/22/2021 12:45:00 AM 14.49 58.082 7.98 475.6 49.91 87.4
10/22/2021 1:00:00 AM 14.5 58.1 7.98 475.1 54.18 87.4
10/22/2021 1:15:00 AM 14.51 58.118 7.98 475 58.65 87.5
10/22/2021 1:30:00 AM 14.51 58.118 7.98 474.8 53.1 87.4
10/22/2021 1:45:00 AM 14.51 58.118 7.98 474.8 59.94 87.4
10/22/2021 2:00:00 AM 14.5 58.1 7.99 475 75.11 87.3
10/22/2021 2:15:00 AM 14.48 58.064 7.99 474.9 68.71 87.3
10/22/2021 2:30:00 AM 14.46 58.028 7.99 475 69.56 87.4
10/22/2021 2:45:00 AM 14.44 57.992 7.99 475.1 73.77 87.3
10/22/2021 3:00:00 AM 14.42 57.956 7.99 475.4 65.12 87.5
10/22/2021 3:15:00 AM 14.4 57.92 7.99 475.5 65.13 87.4
10/22/2021 3:30:00 AM 14.37 57.866 7.98 475.9 59.22 87.1
10/22/2021 3:45:00 AM 14.36 57.848 7.98 476.1 64.92 87.3
10/22/2021 4:00:00 AM 14.34 57.812 7.98 476.4 67.3 87.5
10/22/2021 4:15:00 AM 14.33 57.794 7.99 476.4 57.52 87.7
10/22/2021 4:30:00 AM 14.3 57.74 7.99 476.8 51.73 87.7
10/22/2021 4:45:00 AM 14.29 57.722 7.99 476.8 51.2 87.9
10/22/2021 5:00:00 AM 14.28 57.704 7.99 476.6 56.7 87.9
10/22/2021 5:15:00 AM 14.26 57.668 7.99 476.7 45.56 87.9
10/22/2021 5:30:00 AM 14.24 57.632 8 476.5 48.35 88.3
10/22/2021 5:45:00 AM 14.23 57.614 8 476.3 43.23 88.5
10/22/2021 6:00:00 AM 14.23 57.614 8.01 475.8 80.78 88.6
10/22/2021 6:15:00 AM 14.22 57.596 8.02 475.8 54.77 88.6
10/22/2021 6:30:00 AM 14.23 57.614 8.02 475.3 65.78 89.2
10/22/2021 6:45:00 AM 14.23 57.614 8.02 474.9 71.91 89.3
10/22/2021 7:00:00 AM 14.23 57.614 8.02 474.8 68.5 89.4
10/22/2021 7:15:00 AM 14.22 57.596 8.02 474.6 70.91 89.4
10/22/2021 7:30:00 AM 14.22 57.596 8.03 474.4 61.52 89.5
10/22/2021 7:45:00 AM 14.24 57.632 8.02 474.1 77.1 89.9
10/22/2021 8:00:00 AM 14.23 57.614 8.01 474.2 79.27 90.2
10/22/2021 8:15:00 AM 14.25 57.65 8.03 474 75.03 90.2
10/22/2021 8:30:00 AM 14.28 57.704 8.03 473.9 77.3 91.4
10/22/2021 8:45:00 AM 14.31 57.758 8.02 473.8 72.6 92
10/22/2021 9:00:00 AM 14.39 57.902 8.04 473.5 83.44 93.3
10/22/2021 9:15:00 AM 14.48 58.064 8.05 473.6 76.55 95.2
10/22/2021 9:30:00 AM 14.56 58.208 8.06 473.4 76.55 96.9
10/22/2021 9:45:00 AM 14.66 58.388 8.08 473.5 70.97 99.4
10/22/2021 10:00:00 AM 14.74 58.532 8.09 473.3 67.19 101.3
10/22/2021 10:15:00 AM 14.79 58.622 8.12 473.1 61.71 103.7
10/22/2021 10:30:00 AM 14.84 58.712 8.14 472.7 57.31 105.2
10/22/2021 10:45:00 AM 14.98 58.964 8.16 472.4 85 108
10/22/2021 11:00:00 AM 15.08 59.144 8.17 471.9 88.34 109.8
10/22/2021 11:15:00 AM 15.15 59.27 8.18 471.5 82.38 111.7
10/22/2021 11:30:00 AM 15.17 59.306 8.19 471.4 78.34 112.3
10/22/2021 11:45:00 AM 15.24 59.432 8.21 471.1 85.7 113.4
10/22/2021 12:00:00 PM 15.37 59.666 8.21 470.6 52.57 115.2
10/22/2021 12:15:00 PM 15.42 59.756 8.22 470.7 83.76 116.1
10/22/2021 12:30:00 PM 15.49 59.882 8.22 470.4 84.27 116.7
10/22/2021 12:45:00 PM 15.56 60.008 8.22 470.3 82.78 117.7
10/22/2021 1:00:00 PM 15.67 60.206 8.21 470.2 70.42 118.3
10/22/2021 1:15:00 PM 15.72 60.296 8.22 470.2 79.43 119.1
10/22/2021 1:30:00 PM 15.8 60.44 8.23 470.2 70.63 119.7
10/22/2021 1:45:00 PM 15.79 60.422 8.23 470.4 26.25 119.8
10/22/2021 2:00:00 PM 15.78 60.404 8.24 470.3 26.36 119.8
10/22/2021 2:15:00 PM 15.8 60.44 8.25 470.2 27.44 119.5
10/22/2021 2:30:00 PM 15.94 60.692 8.23 469.7 69.89 120.1
10/22/2021 2:45:00 PM 16.08 60.944 8.21 469.9 54.43 121
10/22/2021 3:00:00 PM 16.08 60.944 8.21 470.2 62.93 121.1
10/22/2021 3:15:00 PM 16.06 60.908 8.22 470.2 29.52 121
10/22/2021 3:30:00 PM 16.04 60.872 8.23 470.2 30.19 120.5
10/22/2021 3:45:00 PM 16.02 60.836 8.24 470.1 29.21 120.2
10/22/2021 4:00:00 PM 15.98 60.764 8.24 470.4 28.88 119.3
10/22/2021 4:15:00 PM 15.94 60.692 8.23 470.5 29.28 118.5
10/22/2021 4:30:00 PM 15.86 60.548 8.23 470.7 30.11 116.9
10/22/2021 4:45:00 PM 15.77 60.386 8.22 471.1 28.86 115
10/22/2021 5:00:00 PM 15.7 60.26 8.21 471.3 34.46 113.4
10/22/2021 5:15:00 PM 15.62 60.116 8.2 471.8 45.76 109.4
10/22/2021 5:30:00 PM 15.53 59.954 8.18 472.5 24.65 108.7
10/22/2021 5:45:00 PM 15.47 59.846 8.17 473.1 39.22 106.4
10/22/2021 6:00:00 PM 15.41 59.738 8.16 473.7 26.06 103.4
10/22/2021 6:15:00 PM 15.34 59.612 8.14 474.3 25.4 101.3
10/22/2021 6:30:00 PM 15.27 59.486 8.12 475.2 40.26 99.3
10/22/2021 6:45:00 PM 15.21 59.378 8.11 475.7 28.64 97.4
10/22/2021 7:00:00 PM 15.13 59.234 8.09 476.2 28.37 95.5
10/22/2021 7:15:00 PM 15.08 59.144 8.08 476.7 30.18 94
10/22/2021 7:30:00 PM 15.03 59.054 8.07 477.1 29.06 92.4
10/22/2021 7:45:00 PM 14.98 58.964 8.05 477.5 25.35 91.4
10/22/2021 8:00:00 PM 14.94 58.892 8.04 477.9 25.72 90.3
10/22/2021 8:15:00 PM 14.9 58.82 8.03 478.4 26.78 89.3
10/22/2021 8:30:00 PM 14.88 58.784 8.02 478.6 12.19 88.8
10/22/2021 8:45:00 PM 14.86 58.748 8.01 478.8 11.42 88.3
10/22/2021 9:00:00 PM 14.85 58.73 8.01 478.8 22.72 87.9
10/22/2021 9:15:00 PM 14.83 58.694 7.99 479.1 11.29 87.6
10/22/2021 9:30:00 PM 14.82 58.676 7.99 479.1 10.88 87.7
10/22/2021 9:45:00 PM 14.81 58.658 7.99 479.3 10.42 87
10/22/2021 10:00:00 PM 14.8 58.64 7.99 479.2 1021 87.1
10/22/2021 10:15:00 PM 14.78 58.604 7.98 479.1 144.7 86.8
10/22/2021 10:30:00 PM 14.78 58.604 7.98 478.7 22.58 86.9
10/22/2021 10:45:00 PM 14.77 58.586 7.97 478.9 316.1 86.3
10/22/2021 11:00:00 PM 14.75 58.55 7.97 478.8 15.49 86.5
10/22/2021 11:15:00 PM 14.74 58.532 7.98 478.5 17.04 86.7
10/22/2021 11:30:00 PM 14.73 58.514 7.97 478.7 95.39 86.3
10/22/2021 11:45:00 PM 14.72 58.496 7.97 479.1 14.3 85.9
10/23/2021 12:00:00 AM 14.7 58.46 7.97 479.3 28.28 86.2
10/23/2021 12:15:00 AM 14.69 58.442 7.97 479.5 13.29 86.1
10/23/2021 12:30:00 AM 14.68 58.424 7.96 479.8 109 86.1
10/23/2021 12:45:00 AM 14.67 58.406 7.96 479.9 21.72 86.1
10/23/2021 1:00:00 AM 14.66 58.388 7.96 480.3 24.44 85.9
10/23/2021 1:15:00 AM 14.65 58.37 7.96 480.6 7.5 85.9
10/23/2021 1:30:00 AM 14.65 58.37 7.95 480.9 7.95 86.1
10/23/2021 1:45:00 AM 14.65 58.37 7.96 481 22.21 86
10/23/2021 2:00:00 AM 14.64 58.352 7.96 481.1 26.39 86.1
10/23/2021 2:15:00 AM 14.63 58.334 7.95 481.4 12.08 85.9
10/23/2021 2:30:00 AM 14.62 58.316 7.95 481.5 38.83 85.9
10/23/2021 2:45:00 AM 14.61 58.298 7.96 481.7 50.11 86.1
10/23/2021 3:00:00 AM 14.6 58.28 7.96 481.9 87.76 86.5
10/23/2021 3:15:00 AM 14.59 58.262 7.96 481.8 33.3 86.3
10/23/2021 3:30:00 AM 14.59 58.262 7.96 481.5 21.06 86
10/23/2021 3:45:00 AM 14.58 58.244 7.96 481.5 61.64 86.6
10/23/2021 4:00:00 AM 14.57 58.226 7.98 481.4 20.19 86.8
10/23/2021 4:15:00 AM 14.57 58.226 7.97 481.4 19.16 86.4
10/23/2021 4:30:00 AM 14.56 58.208 7.97 481.7 26.98 86.7
10/23/2021 4:45:00 AM 14.55 58.19 7.99 481.8 20.43 87.1
10/23/2021 5:00:00 AM 14.55 58.19 8 481.9 15.96 86.6
10/23/2021 5:15:00 AM 14.54 58.172 8 481.7 25.06 86.5
10/23/2021 5:30:00 AM 14.54 58.172 7.98 481.6 17.54 87
10/23/2021 5:45:00 AM 14.52 58.136 7.98 480.9 91.75 87.2
10/23/2021 6:00:00 AM 14.52 58.136 7.98 481 30.49 87.5
10/23/2021 6:15:00 AM 14.52 58.136 7.99 481 62.92 87.6
10/23/2021 6:30:00 AM 14.52 58.136 7.99 481 37.35 87.8
10/23/2021 6:45:00 AM 14.54 58.172 7.99 480.6 68.12 88.1
10/23/2021 7:00:00 AM 14.54 58.172 8 480.2 33.94 88.6
10/23/2021 7:15:00 AM 14.55 58.19 8 480.1 38.61 88.8
10/23/2021 7:30:00 AM 14.54 58.172 8.01 480.2 34.26 88.9
10/23/2021 7:45:00 AM 14.55 58.19 8.01 480 78.2 89.3
10/23/2021 8:00:00 AM 14.56 58.208 8.02 480.1 52.1 89.6
10/23/2021 8:15:00 AM 14.57 58.226 8.02 479.7 33.26 90.2
10/23/2021 8:30:00 AM 14.57 58.226 8.03 479.8 39.73 90.3
10/23/2021 8:45:00 AM 14.59 58.262 8.04 479.9 33.67 91.3
10/23/2021 9:00:00 AM 14.64 58.352 8.04 479.5 23.91 92.7
10/23/2021 9:15:00 AM 14.69 58.442 8.06 479.2 24.32 94.7
10/23/2021 9:30:00 AM 14.73 58.514 8.07 479.2 25.16 96.9
10/23/2021 9:45:00 AM 14.75 58.55 8.09 478.4 35.25 98.5
10/23/2021 10:00:00 AM 14.78 58.604 8.1 478.1 31.47 100.2
10/23/2021 10:15:00 AM 14.81 58.658 8.12 477.5 34.39 102.3
10/23/2021 10:30:00 AM 14.85 58.73 8.14 477.2 37.07 104.6
10/23/2021 10:45:00 AM 14.85 58.73 8.15 476.6 36.88 105.5
10/23/2021 11:00:00 AM 14.88 58.784 8.16 476.3 36.38 106.7
10/23/2021 11:15:00 AM 14.88 58.784 8.17 475.9 38.39 107.6
10/23/2021 11:30:00 AM 14.85 58.73 8.18 475.5 41.71 107
10/23/2021 11:45:00 AM 14.84 58.712 8.19 474.6 47.71 106.2
10/23/2021 12:00:00 PM 14.87 58.766 8.19 474 45.8 106.6
10/23/2021 12:15:00 PM 14.86 58.748 8.2 474 52.58 107
10/23/2021 12:30:00 PM 14.86 58.748 8.2 473.8 45.7 104.6
10/23/2021 12:45:00 PM 14.87 58.766 8.19 473.9 43.77 105.7
10/23/2021 1:00:00 PM 14.86 58.748 8.19 474.2 60.22 106.3
10/23/2021 1:15:00 PM 14.85 58.73 8.19 473.7 48.97 106.8
10/23/2021 1:30:00 PM 14.88 58.784 8.2 473.1 48.25 108.1
10/23/2021 1:45:00 PM 14.88 58.784 8.2 473.1 54.96 108.7
10/23/2021 2:00:00 PM 14.87 58.766 8.2 473 57.17 108.7
10/23/2021 2:15:00 PM 14.87 58.766 8.2 472.5 59.62 108.8
10/23/2021 2:30:00 PM 14.94 58.892 8.2 472.1 41.59 109.8
10/23/2021 2:45:00 PM 14.94 58.892 8.2 472.7 40.69 110
10/23/2021 3:00:00 PM 14.91 58.838 8.19 472.6 75.46 108.4
10/23/2021 3:15:00 PM 15.09 59.162 8.19 471.9 46.96 109.7
10/23/2021 3:30:00 PM 15.2 59.36 8.16 472.7 51.16 111
10/23/2021 3:45:00 PM 15.19 59.342 8.16 472.6 63.85 111.3
10/23/2021 4:00:00 PM 15.15 59.27 8.17 472.9 72.27 110.9
10/23/2021 4:15:00 PM 15.13 59.234 8.17 473.2 63.93 111.3
10/23/2021 4:30:00 PM 15.05 59.09 8.18 473.5 83.67 110.1
10/23/2021 4:45:00 PM 14.98 58.964 8.17 474.1 67.28 107.1
10/23/2021 5:00:00 PM 14.95 58.91 8.17 474.7 75.32 106.3
10/23/2021 5:15:00 PM 14.88 58.784 8.16 475.4 81.16 105.7
10/23/2021 5:30:00 PM 14.82 58.676 8.15 475.9 59.36 104.1
10/23/2021 5:45:00 PM 14.75 58.55 8.14 476.7 41.77 103.1
10/23/2021 6:00:00 PM 14.69 58.442 8.13 477.2 54.1 101.4
10/23/2021 6:15:00 PM 14.61 58.298 8.12 477.8 59.48 99.6
10/23/2021 6:30:00 PM 14.53 58.154 8.11 478.4 73.05 97.9
10/23/2021 6:45:00 PM 14.47 58.046 8.1 478.9 59.34 96.4
10/23/2021 7:00:00 PM 14.43 57.974 8.08 479.3 96.9 94.7
10/23/2021 7:15:00 PM 14.4 57.92 8.07 479.8 81.89 93.3
10/23/2021 7:30:00 PM 14.35 57.83 8.05 480.4 89.13 91.4
10/23/2021 7:45:00 PM 14.28 57.704 8.04 481 98.07 90.8
10/23/2021 8:00:00 PM 14.23 57.614 8.04 481.2 92.16 90.2
10/23/2021 8:15:00 PM 14.19 57.542 8.02 481.5 94.22 89.4
10/23/2021 8:30:00 PM 14.15 57.47 8.02 481.8 88.73 88.8
10/23/2021 8:45:00 PM 14.12 57.416 8.01 482 69.91 88.3
10/23/2021 9:00:00 PM 14.06 57.308 8.01 482.5 58.81 87.6
10/23/2021 9:15:00 PM 14.02 57.236 8.01 482.7 60.01 87.6
10/23/2021 9:30:00 PM 13.98 57.164 8.01 482.7 65.2 87.2
10/23/2021 9:45:00 PM 13.94 57.092 8.01 482.9 65.44 87.1
10/23/2021 10:00:00 PM 13.9 57.02 8 483.1 64.11 86.8
10/23/2021 10:15:00 PM 13.85 56.93 8 483.3 54.23 86.8
10/23/2021 10:30:00 PM 13.81 56.858 8 483.4 56.06 86.8
10/23/2021 10:45:00 PM 13.77 56.786 8 483.4 50.62 86.5
10/23/2021 11:00:00 PM 13.74 56.732 8 483.5 58.5 86.2
10/23/2021 11:15:00 PM 13.7 56.66 7.99 483.8 49.73 86.5
10/23/2021 11:30:00 PM 13.64 56.552 7.98 484.1 52.73 86.2
10/23/2021 11:45:00 PM 13.61 56.498 7.98 484.2 53.66 86
10/24/2021 12:00:00 AM 13.58 56.444 7.98 484.2 76.45 86
10/24/2021 12:15:00 AM 13.54 56.372 7.98 484.6 54.24 86.2
10/24/2021 12:30:00 AM 13.51 56.318 7.98 484.7 71.63 86
10/24/2021 12:45:00 AM 13.46 56.228 7.97 484.9 58.02 85.8
10/24/2021 1:00:00 AM 13.45 56.21 7.98 484.7 71.39 85.8
10/24/2021 1:15:00 AM 13.4 56.12 7.97 484.8 55.43 85.8
10/24/2021 1:30:00 AM 13.37 56.066 7.98 484.7 60.97 85.8
10/24/2021 1:45:00 AM 13.33 55.994 7.98 484.9 53.49 86
10/24/2021 2:00:00 AM 13.31 55.958 7.97 484.9 54.56 85.8
10/24/2021 2:15:00 AM 13.28 55.904 7.97 485.3 54.05 85.6
10/24/2021 2:30:00 AM 13.28 55.904 7.97 485.4 49.41 85.7
10/24/2021 2:45:00 AM 13.29 55.922 7.96 485.3 54.72 85.5
10/24/2021 3:00:00 AM 13.29 55.922 7.95 485.5 56.55 85
10/24/2021 3:15:00 AM 13.29 55.922 7.95 485.7 53.53 86.1
10/24/2021 3:30:00 AM 13.29 55.922 7.95 485.8 65.6 86.1
10/24/2021 3:45:00 AM 13.3 55.94 7.95 485.9 52.62 85.6
10/24/2021 4:00:00 AM 13.31 55.958 7.94 486.1 61.79 86.1
10/24/2021 4:15:00 AM 13.32 55.976 7.94 486.8 61.03 86.2
10/24/2021 4:30:00 AM 13.34 56.012 7.94 486.3 72.48 85.9
10/24/2021 4:45:00 AM 13.34 56.012 7.94 486.1 70.86 86.3
10/24/2021 5:00:00 AM 13.34 56.012 7.94 486.2 72.24 86.4
10/24/2021 5:15:00 AM 13.36 56.048 7.94 486.2 72.31 86.6
10/24/2021 5:30:00 AM 13.36 56.048 7.94 486.2 67.97 86.9
10/24/2021 5:45:00 AM 13.35 56.03 7.94 486.3 68.5 86.9
10/24/2021 6:00:00 AM 13.37 56.066 7.95 486.3 71.9 87.2
10/24/2021 6:15:00 AM 13.34 56.012 7.94 486.5 72.91 87
10/24/2021 6:30:00 AM 13.32 55.976 7.95 486.6 67.89 87.4
10/24/2021 6:45:00 AM 13.32 55.976 7.95 486.7 71.6 87.4
10/24/2021 7:00:00 AM 13.33 55.994 7.95 486.6 68.07 87.7
10/24/2021 7:15:00 AM 13.31 55.958 7.95 486.8 99.32 87.7
10/24/2021 7:30:00 AM 13.32 55.976 7.96 486.7 78.84 88
10/24/2021 7:45:00 AM 13.3 55.94 7.96 486.8 84.54 88.1
10/24/2021 8:00:00 AM 13.31 55.958 7.96 486.8 84.43 88.5
10/24/2021 8:15:00 AM 13.31 55.958 7.97 486.6 89.77 88.7
10/24/2021 8:30:00 AM 13.32 55.976 7.96 486.5 119.3 89.3
10/24/2021 8:45:00 AM 13.34 56.012 7.97 486.5 43.98 89.9
10/24/2021 9:00:00 AM 13.35 56.03 7.97 486.3 108.2 90.6
10/24/2021 9:15:00 AM 13.36 56.048 7.98 486.2 109.6 91.2
10/24/2021 9:30:00 AM 13.36 56.048 7.99 486 123.9 92
10/24/2021 9:45:00 AM 13.38 56.084 7.99 485.7 121 92.8
10/24/2021 10:00:00 AM 13.4 56.12 8 485.6 113.1 94.1
10/24/2021 10:15:00 AM 13.41 56.138 8.01 485.4 113.4 95.7
10/24/2021 10:30:00 AM 13.44 56.192 8.03 484.7 131.8 96.9
10/24/2021 10:45:00 AM 13.47 56.246 8.03 484.1 116.4 98.6
10/24/2021 11:00:00 AM 13.53 56.354 8.04 483.6 113.5 100.7
10/24/2021 11:15:00 AM 13.57 56.426 8.06 483.2 113.2 102.5
10/24/2021 11:30:00 AM 13.58 56.444 8.07 482.9 113.7 103.9
10/24/2021 11:45:00 AM 13.62 56.516 8.07 482.5 123.1 105.1
10/24/2021 12:00:00 PM 13.65 56.57 8.09 482.1 128.5 107
10/24/2021 12:15:00 PM 13.69 56.642 8.1 481.5 127.8 108.3
10/24/2021 12:30:00 PM 13.71 56.678 8.11 481 120.3 109
10/24/2021 12:45:00 PM 13.74 56.732 8.12 480.7 132.7 109.6
10/24/2021 1:00:00 PM 13.81 56.858 8.12 479.9 110.3 111.2
10/24/2021 1:15:00 PM 13.85 56.93 8.12 479.6 158.1 111.9
10/24/2021 1:30:00 PM 13.92 57.056 8.13 479.2 158.2 113
10/24/2021 1:45:00 PM 14.05 57.29 8.14 478.9 182.9 114.8
10/24/2021 2:00:00 PM 14.24 57.632 8.13 478.8 186.8 116.1
10/24/2021 2:15:00 PM 14.28 57.704 8.13 478.7 201.7 116.8
10/24/2021 2:30:00 PM 14.31 57.758 8.13 478.5 206.3 117.3
10/24/2021 2:45:00 PM 14.42 57.956 8.14 478.1 204.9 117.9
10/24/2021 3:00:00 PM 14.55 58.19 8.13 478.3 201 119.1
10/24/2021 3:15:00 PM 14.75 58.55 8.11 478 184.5 120.3
10/24/2021 3:30:00 PM 14.84 58.712 8.11 478.1 179 120.6
10/24/2021 3:45:00 PM 14.84 58.712 8.13 478.4 178 120.4
10/24/2021 4:00:00 PM 14.71 58.478 8.14 478.9 205.5 118.9
10/24/2021 4:15:00 PM 14.61 58.298 8.15 479 217.9 117.4
10/24/2021 4:30:00 PM 14.51 58.118 8.16 479.2 198.6 115.8
10/24/2021 4:45:00 PM 14.41 57.938 8.16 479.4 195.5 113.5
10/24/2021 5:00:00 PM 14.3 57.74 8.17 480 202.2 110.8
10/24/2021 5:15:00 PM 14.21 57.578 8.15 480.7 173.9 108.2
10/24/2021 5:30:00 PM 14.11 57.398 8.14 480.8 161.6 105.8
10/24/2021 5:45:00 PM 14.01 57.218 8.13 481.6 198.7 103.6
10/24/2021 6:00:00 PM 13.92 57.056 8.12 482.1 177 101.4
10/24/2021 6:15:00 PM 13.84 56.912 8.1 482.9 197.4 99.4
10/24/2021 6:30:00 PM 13.77 56.786 8.08 483.1 210.7 97.4
10/24/2021 6:45:00 PM 13.72 56.696 8.09 483.5 207.1 95.8
10/24/2021 7:00:00 PM 13.67 56.606 8.07 483.9 218.9 94.4
10/24/2021 7:15:00 PM 13.61 56.498 8.06 484.2 210.4 93.3
10/24/2021 7:30:00 PM 13.56 56.408 8.06 484.5 194.7 92.3
10/24/2021 7:45:00 PM 13.51 56.318 8.03 484.8 192.8 91.1
10/24/2021 8:00:00 PM 13.47 56.246 8.7 485.2 175.8 90.5
10/24/2021 8:15:00 PM 13.44 56.192 8.02 485.3 193.2 90.2
10/24/2021 8:30:00 PM 13.4 56.12 8.02 485.5 212.2 89.5
10/24/2021 8:45:00 PM 13.37 56.066 8.01 485.7 222.4 89.2
10/24/2021 9:00:00 PM 13.34 56.012 8 485.8 213.3 89.1
10/24/2021 9:15:00 PM 13.32 55.976 8 486.1 210.9 88.5
10/24/2021 9:30:00 PM 13.31 55.958 8 486.1 210.7 88.6
10/24/2021 9:45:00 PM 13.29 55.922 7.99 486.2 184.9 88.3
10/24/2021 10:00:00 PM 13.28 55.904 8 486 179.2 88.4
10/24/2021 10:15:00 PM 13.27 55.886 8 485.7 198.8 88.4
10/24/2021 10:30:00 PM 13.26 55.868 8 485.8 206.8 88.3
10/24/2021 10:45:00 PM 13.25 55.85 7.99 486.6 204.5 87.9
10/24/2021 11:00:00 PM 13.24 55.832 7.98 486.1 220.6 88
10/24/2021 11:15:00 PM 13.23 55.814 7.98 485.9 194.6 88
10/24/2021 11:30:00 PM 13.22 55.796 7.98 485.9 195.8 88.1
10/24/2021 11:45:00 PM 13.2 55.76 7.98 485.9 181.7 87.8
10/25/2021 12:00:00 AM 13.19 55.742 7.98 486.3 176.7 87.9
10/25/2021 12:15:00 AM 13.17 55.706 7.97 486.6 192.7 87.9
10/25/2021 12:30:00 AM 13.16 55.688 7.97 486.8 177.7 87.8
10/25/2021 12:45:00 AM 13.15 55.67 7.97 486.9 173.7 87.9
10/25/2021 1:00:00 AM 13.14 55.652 7.97 487.2 179.9 87.9
10/25/2021 1:15:00 AM 13.12 55.616 7.97 487.4 175.2 87.9
10/25/2021 1:30:00 AM 13.11 55.598 7.96 487.5 163.5 87.9
10/25/2021 1:45:00 AM 13.1 55.58 7.97 487.6 146.1 87.9
10/25/2021 2:00:00 AM 13.08 55.544 7.97 487.7 152.7 87.9
10/25/2021 2:15:00 AM 13.05 55.49 7.97 487.6 172.9 87.7
10/25/2021 2:30:00 AM 13.03 55.454 7.97 487.6 171.4 87.8
10/25/2021 2:45:00 AM 13.01 55.418 7.97 487.7 196.1 86.7
10/25/2021 3:00:00 AM 12.99 55.382 7.97 487.6 199.6 87.3
10/25/2021 3:15:00 AM 12.98 55.364 7.96 487.7 198 86.9
10/25/2021 3:30:00 AM 12.96 55.328 7.97 488 204.8 87.1
10/25/2021 3:45:00 AM 12.94 55.292 7.96 488.2 188.1 86.7
10/25/2021 4:00:00 AM 12.93 55.274 7.97 488.4 221 87.6
10/25/2021 4:15:00 AM 12.91 55.238 7.96 488.7 253.7 87.7
10/25/2021 4:30:00 AM 12.89 55.202 7.97 488.8 245 88
10/25/2021 4:45:00 AM 12.88 55.184 7.96 489 237.3 87.8
10/25/2021 5:00:00 AM 12.86 55.148 7.96 489 234.9 88
10/25/2021 5:15:00 AM 12.85 55.13 7.96 489.2 192 87.2
10/25/2021 5:30:00 AM 12.85 55.13 7.96 489.3 256.5 87.8
10/25/2021 5:45:00 AM 12.84 55.112 7.96 489.2 257.3 88.1
10/25/2021 6:00:00 AM 12.82 55.076 7.97 489.2 199.3 88.2
10/25/2021 6:15:00 AM 12.81 55.058 7.97 489.3 250.6 88.5
10/25/2021 6:30:00 AM 12.79 55.022 7.97 489.4 254 88.7
10/25/2021 6:45:00 AM 12.78 55.004 7.98 489 245.6 88.8
10/25/2021 7:00:00 AM 12.76 54.968 7.97 489.3 258.2 88.9
10/25/2021 7:15:00 AM 12.75 54.95 7.98 489.3 279 88.9
10/25/2021 7:30:00 AM 12.74 54.932 7.97 489.3 175.7 89
10/25/2021 7:45:00 AM 12.72 54.896 7.98 489 257.7 89.2
10/25/2021 8:00:00 AM 12.73 54.914 7.98 488.6 281.2 89.5
10/25/2021 8:15:00 AM 12.75 54.95 7.99 488.7 271.5 90
10/25/2021 8:30:00 AM 12.76 54.968 7.99 488.6 273.6 91
10/25/2021 8:45:00 AM 12.77 54.986 7.99 488.3 244 91.7
10/25/2021 9:00:00 AM 12.79 55.022 8 488.2 283.9 92.4
10/25/2021 9:15:00 AM 12.8 55.04 8 487.9 264.2 93.3
10/25/2021 9:30:00 AM 12.84 55.112 8.01 487.6 279.6 94.5
10/25/2021 9:45:00 AM 12.89 55.202 8.02 487 274.9 96
10/25/2021 10:00:00 AM 12.97 55.346 8.02 486.3 314.8 97.3
10/25/2021 10:15:00 AM 13.03 55.454 8.03 486.1 277.8 98.6
10/25/2021 10:30:00 AM 13.1 55.58 8.04 485.8 283.7 100
10/25/2021 10:45:00 AM 13.18 55.724 8.05 485.6 285.5 101.1
10/25/2021 11:00:00 AM 13.26 55.868 8.06 485.3 290.5 102.7
10/25/2021 11:15:00 AM 13.35 56.03 8.07 485 283.5 104.2
10/25/2021 11:30:00 AM 13.47 56.246 8.08 484.7 283.6 105.8
10/25/2021 11:45:00 AM 13.63 56.534 8.09 484.1 262.6 107.5
10/25/2021 12:00:00 PM 13.82 56.876 8.11 483.6 252.7 109.5
10/25/2021 12:15:00 PM 14.01 57.218 8.11 483.7 273.2 111.2
10/25/2021 12:30:00 PM 14.2 57.56 8.1 482.9 300.4 113.3
10/25/2021 12:45:00 PM 14.42 57.956 8.09 482.5 279.3 114.9
10/25/2021 1:00:00 PM 14.65 58.37 8.09 482 312.4 116.4
10/25/2021 1:15:00 PM 14.91 58.838 8.1 481.8 294 118.5
10/25/2021 1:30:00 PM 15.14 59.252 8.09 481.5 279.7 120.4
10/25/2021 1:45:00 PM 15.37 59.666 8.09 481.5 285.7 121.6
10/25/2021 2:00:00 PM 15.52 59.936 8.12 481.2 139.3 123
10/25/2021 2:15:00 PM 15.58 60.044 8.14 480.8 233.5 123.5
10/25/2021 2:30:00 PM 15.65 60.17 8.15 480.5 255.5 123.7
10/25/2021 2:45:00 PM 15.61 60.098 8.16 480.9 281.7 123.6
10/25/2021 3:00:00 PM 15.56 60.008 8.17 480.4 275.8 123
10/25/2021 3:15:00 PM 15.62 60.116 8.18 479.9 284.3 123.4
10/25/2021 3:30:00 PM 15.49 59.882 8.17 479.9 280.2 122.2
10/25/2021 3:45:00 PM 15.37 59.666 8.22 479.4 278.3 121
10/25/2021 4:00:00 PM 15.26 59.468 8.24 479.7 264.6 119.2
10/25/2021 4:15:00 PM 15.22 59.396 8.23 479.6 257.1 118.3
10/25/2021 4:30:00 PM 15.19 59.342 8.21 479.6 279.8 118.1
10/25/2021 4:45:00 PM 15.07 59.126 8.2 479.5 272.7 116.5
10/25/2021 5:00:00 PM 14.96 58.928 8.2 479.9 299 114.2
10/25/2021 5:15:00 PM 14.85 58.73 8.2 480.1 277.9 111.4
10/25/2021 5:30:00 PM 14.76 58.568 8.19 480.4 299.3 108.8
10/25/2021 5:45:00 PM 14.67 58.406 8.19 480.9 320 106.4
10/25/2021 6:00:00 PM 14.58 58.244 8.17 481.7 132.4 103.3
10/25/2021 6:15:00 PM 14.5 58.1 8.16 482.2 58.43 101
10/25/2021 6:30:00 PM 14.44 57.992 8.14 482.5 103.8 99.1
10/25/2021 6:45:00 PM 14.38 57.884 8.12 483.4 98.23 96.8
10/25/2021 7:00:00 PM 14.33 57.794 8.1 484.1 139.4 94.2
10/25/2021 7:15:00 PM 14.28 57.704 8.08 484.4 125.1 93.3
10/25/2021 7:30:00 PM 14.23 57.614 8.08 484.6 93.14 92.3
10/25/2021 7:45:00 PM 14.2 57.56 8.07 485.3 77.01 91.1
10/25/2021 8:00:00 PM 14.2 57.56 8.05 485 112.6 90.5
10/25/2021 8:15:00 PM 14.19 57.542 8.04 484.7 109.8 89.7
10/25/2021 8:30:00 PM 14.21 57.578 8.03 483.4 126.2 84.5
10/25/2021 8:45:00 PM 14.22 57.596 8.03 482.4 138.8 86.3
10/25/2021 9:00:00 PM 14.23 57.614 8.02 481.4 126.6 88.8
10/25/2021 9:15:00 PM 14.23 57.614 8.01 480.9 118.8 88.6
10/25/2021 9:30:00 PM 14.25 57.65 8.01 480.6 146 81.8
10/25/2021 9:45:00 PM 14.25 57.65 8.01 480.2 102.2 85
10/25/2021 10:00:00 PM 14.27 57.686 8 479.7 161 81.1
10/25/2021 10:15:00 PM 14.29 57.722 8 478.9 132.1 88.2
10/25/2021 10:30:00 PM 14.29 57.722 7.99 478.5 124.7 87.5
10/25/2021 10:45:00 PM 14.3 57.74 7.99 478.7 93.86 87.5
10/25/2021 11:00:00 PM 14.31 57.758 7.98 479 203.9 87.5
10/25/2021 11:15:00 PM 14.31 57.758 7.98 479.6 208.2 87.4
10/25/2021 11:30:00 PM 14.3 57.74 7.97 480 243.6 87.4
10/25/2021 11:45:00 PM 14.28 57.704 7.97 480.9 279.2 87.3
10/26/2021 12:00:00 AM 14.26 57.668 7.97 481 262.7 87.1
10/26/2021 12:15:00 AM 14.24 57.632 7.96 481.6 201.2 87
10/26/2021 12:30:00 AM 14.22 57.596 7.97 482 115.2 87.3
10/26/2021 12:45:00 AM 14.19 57.542 7.97 482.4 50.74 86.9
10/26/2021 1:00:00 AM 14.17 57.506 7.96 482.9 85.55 87
10/26/2021 1:15:00 AM 14.16 57.488 7.96 483.1 61.54 86
10/26/2021 1:30:00 AM 14.15 57.47 7.96 483.5 47.54 86.8
10/26/2021 1:45:00 AM 14.15 57.47 7.96 483.9 62.79 87
10/26/2021 2:00:00 AM 14.14 57.452 7.96 484.4 61.69 86.8
10/26/2021 2:15:00 AM 14.14 57.452 7.95 484.8 1066 86.9
10/26/2021 2:30:00 AM 14.14 57.452 7.95 485 798.3 86.9
10/26/2021 2:45:00 AM 14.14 57.452 7.96 485 440.6 87
10/26/2021 3:00:00 AM 14.14 57.452 7.96 485 756 87
10/26/2021 3:15:00 AM 14.15 57.47 7.96 485 62.8 86.8
10/26/2021 3:30:00 AM 14.16 57.488 7.97 485.2 63.15 86.9
10/26/2021 3:45:00 AM 14.16 57.488 7.96 485.3 73.98 86.8
10/26/2021 4:00:00 AM 14.16 57.488 7.96 485.5 480.6 87.2
10/26/2021 4:15:00 AM 14.16 57.488 7.96 485.7 461.1 87
10/26/2021 4:30:00 AM 14.16 57.488 7.96 485.8 105.9 87.3
10/26/2021 4:45:00 AM 14.15 57.47 7.96 486.1 308.6 87.2
10/26/2021 5:00:00 AM 14.15 57.47 7.96 486.3 341.8 87.3
10/26/2021 5:15:00 AM 14.16 57.488 7.96 486.4 112.1 87.6
10/26/2021 5:30:00 AM 14.17 57.506 7.96 486.5 195.5 87.4
10/26/2021 5:45:00 AM 14.18 57.524 7.96 486.4 212.5 87.9
10/26/2021 6:00:00 AM 14.2 57.56 7.96 486.3 249.7 87.8
10/26/2021 6:15:00 AM 14.22 57.596 7.96 485.9 133.7 88
10/26/2021 6:30:00 AM 14.25 57.65 7.97 485.6 217.1 88.3
10/26/2021 6:45:00 AM 14.27 57.686 7.97 485.4 196 88.5
10/26/2021 7:00:00 AM 14.29 57.722 7.97 485.3 88.92 88.5
10/26/2021 7:15:00 AM 14.31 57.758 7.98 484.9 210.7 88.8
10/26/2021 7:30:00 AM 14.33 57.794 7.97 484.8 173 88.5
10/26/2021 7:45:00 AM 14.35 57.83 7.98 484.6 239.5 89.2
10/26/2021 8:00:00 AM 14.38 57.884 7.98 484.6 86.17 89.4
10/26/2021 8:15:00 AM 14.42 57.956 7.98 484.6 89.25 89.9
10/26/2021 8:30:00 AM 14.45 58.01 7.99 484.6 254.3 90.6
10/26/2021 8:45:00 AM 14.48 58.064 8 484.7 89.06 91.6
10/26/2021 9:00:00 AM 14.51 58.118 8.01 484.4 53.62 92.8
10/26/2021 9:15:00 AM 14.54 58.172 8.02 484.5 55.52 93.7
10/26/2021 9:30:00 AM 14.58 58.244 8.03 484.2 49.75 95.3
10/26/2021 9:45:00 AM 14.67 58.406 8.04 483.8 66.93 97.6
10/26/2021 10:00:00 AM 14.73 58.514 8.06 483.5 75.09 99.6
10/26/2021 10:15:00 AM 14.79 58.622 8.08 482.9 64.65 101.4
10/26/2021 10:30:00 AM 14.84 58.712 8.09 482.4 496 103.3
10/26/2021 10:45:00 AM 14.84 58.712 8.1 482 71.94 103.6
10/26/2021 11:00:00 AM 14.85 58.73 8.11 482 61.51 103.4
10/26/2021 11:15:00 AM 14.87 58.766 8.12 481.3 79.2 103.7
10/26/2021 11:30:00 AM 14.87 58.766 8.11 481.1 63.6 103.6
10/26/2021 11:45:00 AM 14.87 58.766 8.12 480.9 45.43 103.4
10/26/2021 12:00:00 PM 14.9 58.82 8.13 480.3 40.66 103.8
10/26/2021 12:15:00 PM 14.93 58.874 8.13 480 46.6 105.1
10/26/2021 12:30:00 PM 14.92 58.856 8.13 479.8 61.57 105.5
10/26/2021 12:45:00 PM 14.87 58.766 8.14 479.1 185 105.8
10/26/2021 1:00:00 PM 14.83 58.694 8.15 479.1 196 105.1
10/26/2021 1:15:00 PM 14.78 58.604 8.14 478.8 54.24 104.8
10/26/2021 1:30:00 PM 14.75 58.55 8.14 478.7 60.13 104.5
10/26/2021 1:45:00 PM 14.71 58.478 8.14 478.5 65.62 104.2
10/26/2021 2:00:00 PM 14.67 58.406 8.14 478.7 67.72 103.5
10/26/2021 2:15:00 PM 14.62 58.316 8.13 478.8 42.25 102.5
10/26/2021 2:30:00 PM 14.57 58.226 8.12 478.8 98.42 101.4
10/26/2021 2:45:00 PM 14.51 58.118 8.11 478.9 50.14 100.2
10/26/2021 3:00:00 PM 14.45 58.01 8.1 478.8 67.47 98.9
10/26/2021 3:15:00 PM 14.39 57.902 8.09 479.1 48.64 98.2
10/26/2021 3:30:00 PM 14.35 57.83 8.09 479 79.96 97.9
10/26/2021 3:45:00 PM 14.32 57.776 8.08 479 132.2 97.6
10/26/2021 4:00:00 PM 14.3 57.74 8.08 479 47.17 97.6
10/26/2021 4:15:00 PM 14.27 57.686 8.08 479 52.25 98.1
10/26/2021 4:30:00 PM 14.24 57.632 8.08 478.7 76.94 97.7
10/26/2021 4:45:00 PM 14.2 57.56 8.08 478.8 59.95 97.3
10/26/2021 5:00:00 PM 14.16 57.488 8.07 478.8 80.06 96.5
10/26/2021 5:15:00 PM 14.13 57.434 8.06 478.9 60.94 95.8
10/26/2021 5:30:00 PM 14.09 57.362 8.06 479 63.99 95.2
10/26/2021 5:45:00 PM 14.05 57.29 8.05 478.7 47.92 94.1
10/26/2021 6:00:00 PM 14.02 57.236 8.04 478.7 60.61 93.2
10/26/2021 6:15:00 PM 13.96 57.128 8.04 478.5 87.82 92.1
10/26/2021 6:30:00 PM 13.92 57.056 8.02 478.2 52.95 90.6
10/26/2021 6:45:00 PM 13.88 56.984 8.03 477.7 61.84 89.8
10/26/2021 7:00:00 PM 13.85 56.93 8.01 477.4 47.73 89.1
10/26/2021 7:15:00 PM 13.81 56.858 8 477.4 55.32 88.3
10/26/2021 7:30:00 PM 13.78 56.804 8 477.4 62.89 87.4
10/26/2021 7:45:00 PM 13.75 56.75 7.99 477.7 49.32 86.5
10/26/2021 8:00:00 PM 13.72 56.696 7.97 477.6 82.22 86.2
10/26/2021 8:15:00 PM 13.68 56.624 7.98 477.7 55.03 85.8
10/26/2021 8:30:00 PM 13.64 56.552 7.97 477.8 45.84 85.5
10/26/2021 8:45:00 PM 13.63 56.534 7.97 478.2 50.39 85.2
10/26/2021 9:00:00 PM 13.6 56.48 7.96 478 47.26 84.7
10/26/2021 9:15:00 PM 13.58 56.444 7.96 478.2 463.6 84.8
10/26/2021 9:30:00 PM 13.56 56.408 7.96 478.3 52.57 84.6
10/26/2021 9:45:00 PM 13.53 56.354 7.96 478.7 48.83 84.7
10/26/2021 10:00:00 PM 13.53 56.354 7.96 478.8 52.43 84.5
10/26/2021 10:15:00 PM 13.51 56.318 7.95 479.1 53.31 84.4
10/26/2021 10:30:00 PM 13.5 56.3 7.95 479.3 49.83 84.1
10/26/2021 10:45:00 PM 13.5 56.3 7.95 479.7 56.71 84.2
10/26/2021 11:00:00 PM 13.49 56.282 7.95 479.7 58.55 84.3
10/26/2021 11:15:00 PM 13.48 56.264 7.95 479.3 56 84.1
10/26/2021 11:30:00 PM 13.48 56.264 7.95 480.1 76.69 84.1
10/26/2021 11:45:00 PM 13.47 56.246 7.95 480.2 63.72 84.1
10/27/2021 12:00:00 AM 13.49 56.282 7.95 475.7 59.06 84.1
10/27/2021 12:15:00 AM 13.5 56.3 7.94 480.3 65.13 83.8
10/27/2021 12:30:00 AM 13.49 56.282 7.95 480.6 67.32 84
10/27/2021 12:45:00 AM 13.49 56.282 7.95 480.8 64.99 84
10/27/2021 1:00:00 AM 13.49 56.282 7.94 480.9 67 84.1
10/27/2021 1:15:00 AM 13.49 56.282 7.94 481.1 67.63 84
10/27/2021 1:30:00 AM 13.5 56.3 7.94 481.4 89.85 84.1
10/27/2021 1:45:00 AM 13.51 56.318 7.94 481.8 67.68 84.2
10/27/2021 2:00:00 AM 13.52 56.336 7.93 481.8 69.41 84.3
10/27/2021 2:15:00 AM 13.54 56.372 7.94 481.9 64.55 84.2
10/27/2021 2:30:00 AM 13.53 56.354 7.93 482.1 66.57 84.2
10/27/2021 2:45:00 AM 13.55 56.39 7.93 482.3 75.07 84.2
10/27/2021 3:00:00 AM 13.52 56.336 7.93 482.6 71.31 84.3
10/27/2021 3:15:00 AM 13.51 56.318 7.93 483 82.15 84.3
10/27/2021 3:30:00 AM 13.5 56.3 7.93 483.1 61.72 84.6
10/27/2021 3:45:00 AM 13.5 56.3 7.93 483.2 68.05 84.5
10/27/2021 4:00:00 AM 13.49 56.282 7.93 483.3 53.26 84.5
10/27/2021 4:15:00 AM 13.5 56.3 7.93 483.6 60.8 84.3
10/27/2021 4:30:00 AM 13.51 56.318 7.93 483.6 63.88 84.6
10/27/2021 4:45:00 AM 13.51 56.318 7.93 483.3 69.82 84.7
10/27/2021 5:00:00 AM 13.5 56.3 7.93 483.5 79.55 84.5
10/27/2021 5:15:00 AM 13.49 56.282 7.94 483.6 66.43 84.7
10/27/2021 5:30:00 AM 13.49 56.282 7.94 483.5 75.74 84.8
10/27/2021 5:45:00 AM 13.48 56.264 7.94 483.6 86.7 84.9
10/27/2021 6:00:00 AM 13.47 56.246 7.94 483.7 58.27 85
10/27/2021 6:15:00 AM 13.44 56.192 7.94 484 58.91 85
10/27/2021 6:30:00 AM 13.42 56.156 7.94 484 88.56 85.1
10/27/2021 6:45:00 AM 13.41 56.138 7.95 483.8 67.11 85.1
10/27/2021 7:00:00 AM 13.39 56.102 7.95 484 83.59 85.5
10/27/2021 7:15:00 AM 13.37 56.066 7.95 483.9 63.17 85.6
10/27/2021 7:30:00 AM 13.35 56.03 7.95 483.8 71.25 85.5
10/27/2021 7:45:00 AM 13.35 56.03 7.95 483.7 67.88 85.5
10/27/2021 8:00:00 AM 13.35 56.03 7.95 483.5 64.91 85.9
10/27/2021 8:15:00 AM 13.35 56.03 7.96 483.5 81.82 86.3
10/27/2021 8:30:00 AM 13.34 56.012 7.96 483.3 77.37 87.2
10/27/2021 8:45:00 AM 13.33 55.994 7.96 483.2 72.32 87.7
10/27/2021 9:00:00 AM 13.32 55.976 7.96 482.9 66.18 88.5
10/27/2021 9:15:00 AM 13.32 55.976 7.97 482.9 84.26 89.1
10/27/2021 9:30:00 AM 13.32 55.976 7.98 482.5 85.77 90.3
10/27/2021 9:45:00 AM 13.31 55.958 7.99 482.1 80.09 91.7
10/27/2021 10:00:00 AM 13.35 56.03 7.99 481.8 91.02 92.8
10/27/2021 10:15:00 AM 13.4 56.12 8 481.5 75.08 94.3
10/27/2021 10:30:00 AM 13.47 56.246 8 481 93.52 96.4
10/27/2021 10:45:00 AM 13.54 56.372 8.02 480.7 73.6 98.5
10/27/2021 11:00:00 AM 13.65 56.57 8.03 480 75.85 100.6
10/27/2021 11:15:00 AM 13.75 56.75 8.04 479.5 71.76 102.8
10/27/2021 11:30:00 AM 13.82 56.876 8.05 479.3 69.94 104.2
10/27/2021 11:45:00 AM 13.91 57.038 8.06 479.1 69.95 105.2
10/27/2021 12:00:00 PM 14.03 57.254 8.07 478.5 68.51 106.6
10/27/2021 12:15:00 PM 14.15 57.47 8.07 478.5 67.85 107.6
10/27/2021 12:30:00 PM 14.3 57.74 8.07 478 141.6 109.3
10/27/2021 12:45:00 PM 14.49 58.082 8.07 477.6 76.5 110.9
10/27/2021 1:00:00 PM 14.68 58.424 8.09 477.3 96.26 111.9
10/27/2021 1:15:00 PM 14.86 58.748 8.09 477.4 124.7 113
10/27/2021 1:30:00 PM 15.07 59.126 8.07 477 132.2 114.1
10/27/2021 1:45:00 PM 15.21 59.378 8.06 477.4 113.9 115.2
10/27/2021 2:00:00 PM 15.35 59.63 8.07 477.6 112.5 115.9
10/27/2021 2:15:00 PM 15.5 59.9 8.07 477.3 94.57 116.3
10/27/2021 2:30:00 PM 15.62 60.116 8.06 477.1 97.94 117
10/27/2021 2:45:00 PM 15.7 60.26 8.06 477 87.43 117.3
10/27/2021 3:00:00 PM 15.8 60.44 8.06 477 77.61 117.5
10/27/2021 3:15:00 PM 15.77 60.386 8.07 477.9 100.5 117.3
10/27/2021 3:30:00 PM 15.82 60.476 8.06 476.9 92.93 116.8
10/27/2021 3:45:00 PM 15.84 60.512 8.07 476.4 93.53 117
10/27/2021 4:00:00 PM 15.74 60.332 8.07 476.4 93.65 115.6
10/27/2021 4:15:00 PM 15.61 60.098 8.07 476.8 136.7 114.3
10/27/2021 4:30:00 PM 15.41 59.738 8.07 476.7 177.1 112.9
10/27/2021 4:45:00 PM 15.2 59.36 8.08 476.9 87.83 110.7
10/27/2021 5:00:00 PM 14.94 58.892 8.09 477.2 113.5 108.3
10/27/2021 5:15:00 PM 14.77 58.586 8.09 477.1 96.05 105.8
10/27/2021 5:30:00 PM 14.6 58.28 8.09 477.3 86.99 103.2
10/27/2021 5:45:00 PM 14.48 58.064 8.1 477 98.66 100.7
10/27/2021 6:00:00 PM 14.34 57.812 8.09 477.3 152.5 99.1
10/27/2021 6:15:00 PM 14.22 57.596 8.1 477.5 83.64 97.1
10/27/2021 6:30:00 PM 14.12 57.416 8.09 477.8 104.3 95.5
10/27/2021 6:45:00 PM 14.03 57.254 8.08 478 91.49 93.5
10/27/2021 7:00:00 PM 13.95 57.11 8.08 478.2 101.5 91.9
10/27/2021 7:15:00 PM 13.88 56.984 8.06 478.3 129.7 90.6
10/27/2021 7:30:00 PM 13.81 56.858 8.05 478.6 121.1 89.3
10/27/2021 7:45:00 PM 13.76 56.768 8.04 478.5 120.6 88.5
10/27/2021 8:00:00 PM 13.71 56.678 8.04 478.2 139 87.8
10/27/2021 8:15:00 PM 13.67 56.606 8.02 478.1 241.9 87.1
10/27/2021 8:30:00 PM 13.64 56.552 8.02 477.8 239.1 86.7
10/27/2021 8:45:00 PM 13.61 56.498 8.01 478 93.08 86.3
10/27/2021 9:00:00 PM 13.58 56.444 8.01 477.6 90.05 85.9
10/27/2021 9:15:00 PM 13.55 56.39 8.01 477.6 92.05 86
10/27/2021 9:30:00 PM 13.54 56.372 8.01 477.7 98.05 85.9
10/27/2021 9:45:00 PM 13.51 56.318 8 477.5 105.4 85.7
10/27/2021 10:00:00 PM 13.49 56.282 8.01 477.2 94.33 85.5
10/27/2021 10:15:00 PM 13.47 56.246 8 477.3 98.01 85.5
10/27/2021 10:30:00 PM 13.45 56.21 8 476.9 93.64 85.7
10/27/2021 10:45:00 PM 13.44 56.192 8 476.6 86.58 85.5
10/27/2021 11:00:00 PM 13.41 56.138 8 476.4 95.73 85.5
10/27/2021 11:15:00 PM 13.38 56.084 7.99 476.3 112.8 85.5
10/27/2021 11:30:00 PM 13.36 56.048 7.99 476.2 112.3 85.6
10/27/2021 11:45:00 PM 13.34 56.012 7.99 476.2 91.87 85.6
10/28/2021 12:00:00 AM 13.33 55.994 7.99 475.9 100.6 85.7
10/28/2021 12:15:00 AM 13.32 55.976 7.99 476.2 92.8 85.8
10/28/2021 12:30:00 AM 13.3 55.94 7.99 476.2 103.3 85.6
10/28/2021 12:45:00 AM 13.29 55.922 7.99 476.4 100.5 85.7
10/28/2021 1:00:00 AM 13.27 55.886 7.99 476.7 97.33 85.5
10/28/2021 1:15:00 AM 13.26 55.868 7.98 476.8 100.4 85.6
10/28/2021 1:30:00 AM 13.24 55.832 7.99 476.8 99.4 85.6
10/28/2021 1:45:00 AM 13.24 55.832 7.99 476.5 106.1 85.3
10/28/2021 2:00:00 AM 13.2 55.76 7.99 476.7 111 85.5
10/28/2021 2:15:00 AM 13.15 55.67 7.99 476.6 104.3 85.3
10/28/2021 2:30:00 AM 13.18 55.724 7.99 475.9 101.9 85.5
10/28/2021 2:45:00 AM 13.15 55.67 7.98 476 107 85.3
10/28/2021 3:00:00 AM 13.13 55.634 7.98 475.6 122.2 85.5
10/28/2021 3:15:00 AM 13.11 55.598 7.99 475.6 132.4 85.7
10/28/2021 3:30:00 AM 13.1 55.58 7.99 475.5 107.3 85.6
10/28/2021 3:45:00 AM 13.06 55.508 7.98 476 119.1 85.4
10/28/2021 4:00:00 AM 13.06 55.508 7.98 475.9 105 85.6
10/28/2021 4:15:00 AM 13.03 55.454 7.98 476.1 110.5 85.4
10/28/2021 4:30:00 AM 13.03 55.454 7.98 476.3 100.3 85.8
10/28/2021 4:45:00 AM 13 55.4 7.99 476.3 96.4 85.4
10/28/2021 5:00:00 AM 13 55.4 7.99 476.1 105.9 85.6
10/28/2021 5:15:00 AM 13 55.4 7.98 476.1 98.99 85.7
10/28/2021 5:30:00 AM 12.99 55.382 7.98 476 106.1 85.8
10/28/2021 5:45:00 AM 12.96 55.328 7.98 476.1 117.8 85.8
10/28/2021 6:00:00 AM 12.97 55.346 7.99 475.5 110.6 86
10/28/2021 6:15:00 AM 12.96 55.328 7.98 476.4 114.6 86
10/28/2021 6:30:00 AM 12.96 55.328 7.98 475.9 117.7 86
10/28/2021 6:45:00 AM 12.96 55.328 7.97 475.2 123.6 86
10/28/2021 7:00:00 AM 12.94 55.292 7.98 475.1 118.5 86.4
10/28/2021 7:15:00 AM 12.95 55.31 7.97 475 107.5 86.5
10/28/2021 7:30:00 AM 12.94 55.292 7.98 475.1 109.9 86.5
10/28/2021 7:45:00 AM 12.93 55.274 7.98 475.1 118.4 86.6
10/28/2021 8:00:00 AM 12.95 55.31 7.98 474.9 113.5 87.1
10/28/2021 8:15:00 AM 12.96 55.328 7.98 475.1 119.3 87
10/28/2021 8:30:00 AM 12.98 55.364 7.98 475.1 124.8 87.8
10/28/2021 8:45:00 AM 13 55.4 7.98 475 130.5 88.5
10/28/2021 9:00:00 AM 13.06 55.508 7.97 475 120.3 89.3
10/28/2021 9:15:00 AM 13.11 55.598 7.98 474.9 119.7 90.4
10/28/2021 9:30:00 AM 13.15 55.67 7.97 474.8 120.3 91.5
10/28/2021 9:45:00 AM 13.21 55.778 7.97 475 147 92.6
10/28/2021 10:00:00 AM 13.27 55.886 7.97 474.5 139.2 94
10/28/2021 10:15:00 AM 13.32 55.976 7.97 474.5 132.9 95.4
10/28/2021 10:30:00 AM 13.39 56.102 7.97 474.4 140.3 96.6
10/28/2021 10:45:00 AM 13.45 56.21 7.99 474.6 136.1 97.8
10/28/2021 11:00:00 AM 13.52 56.336 8 474.3 141 99.1
10/28/2021 11:15:00 AM 13.6 56.48 8.01 474.1 147 101
10/28/2021 11:30:00 AM 13.7 56.66 8.02 473.9 136.6 102.7
10/28/2021 11:45:00 AM 13.84 56.912 8.03 473.5 142.9 104.5
10/28/2021 12:00:00 PM 13.99 57.182 8.04 473.2 140.3 106.3
10/28/2021 12:15:00 PM 14.18 57.524 8.06 473 152.2 108.3
10/28/2021 12:30:00 PM 14.32 57.776 8.06 472.9 143.1 110.3
10/28/2021 12:45:00 PM 14.51 58.118 8.05 472.5 137 112.2
10/28/2021 1:00:00 PM 14.7 58.46 8.06 472.2 132.8 113.9
10/28/2021 1:15:00 PM 14.87 58.766 8.07 472.3 134.9 115.7
10/28/2021 1:30:00 PM 14.98 58.964 8.07 472.3 131.6 116.5
10/28/2021 1:45:00 PM 15.07 59.126 8.06 472.4 139.8 117.5
10/28/2021 2:00:00 PM 15.12 59.216 8.07 472.1 134.6 117.7
10/28/2021 2:15:00 PM 15.15 59.27 8.08 472 140.2 118.4
10/28/2021 2:30:00 PM 15.16 59.288 8.09 472.1 125.3 118.5
10/28/2021 2:45:00 PM 15.19 59.342 8.1 471.7 133.9 118.6
10/28/2021 3:00:00 PM 15.13 59.234 8.1 471.8 152.7 118
10/28/2021 3:15:00 PM 15.04 59.072 8.11 471.6 131.2 116.7
10/28/2021 3:30:00 PM 14.92 58.856 8.11 472.2 97.76 114.9
10/28/2021 3:45:00 PM 14.84 58.712 8.12 472.3 144.3 113.1
10/28/2021 4:00:00 PM 14.78 58.604 8.11 472.2 141.5 111.8
10/28/2021 4:15:00 PM 14.8 58.64 8.1 472.3 139.6 111.9
10/28/2021 4:30:00 PM 14.82 58.676 8.07 472.5 140.1 111.5
10/28/2021 4:45:00 PM 14.75 58.55 8.07 472.8 126.5 110.6
10/28/2021 5:00:00 PM 14.66 58.388 8.07 473.3 138.1 109.1
10/28/2021 5:15:00 PM 14.6 58.28 8.08 473.4 139.3 107.9
10/28/2021 5:30:00 PM 14.53 58.154 8.08 473.6 133.3 106.1
10/28/2021 5:45:00 PM 14.47 58.046 8.08 473.9 114.7 104.4
10/28/2021 6:00:00 PM 14.4 57.92 8.07 474.6 91.26 102.3
10/28/2021 6:15:00 PM 14.35 57.83 8.06 474.8 104.6 100.3
10/28/2021 6:30:00 PM 14.29 57.722 8.05 475.3 102.6 98.6
10/28/2021 6:45:00 PM 14.23 57.614 8.04 475.9 98.78 96.7
10/28/2021 7:00:00 PM 14.17 57.506 8.02 476.4 102.1 94.6
10/28/2021 7:15:00 PM 14.11 57.398 8 476.6 117.4 92.8
10/28/2021 7:30:00 PM 14.06 57.308 7.99 477 81.03 91.5
10/28/2021 7:45:00 PM 14.02 57.236 7.98 477.4 98.98 90.1
10/28/2021 8:00:00 PM 13.96 57.128 7.97 478 97.18 89
10/28/2021 8:15:00 PM 13.92 57.056 7.97 478.3 118.2 88.5
10/28/2021 8:30:00 PM 13.89 57.002 7.96 478 107.7 87.8
10/28/2021 8:45:00 PM 13.88 56.984 7.96 478 87.41 87.2
10/28/2021 9:00:00 PM 13.86 56.948 7.95 478 91.83 86.9
10/28/2021 9:15:00 PM 13.84 56.912 7.94 478.2 92.7 86.6
10/28/2021 9:30:00 PM 13.83 56.894 7.94 478.1 99.37 86.1
10/28/2021 9:45:00 PM 13.81 56.858 7.92 478.4 112.8 86.1
10/28/2021 10:00:00 PM 13.78 56.804 7.92 478.4 108.5 86.2
10/28/2021 10:15:00 PM 13.77 56.786 7.89 478.4 228 86.1
10/28/2021 10:30:00 PM 13.76 56.768 7.91 478.3 131.3 86.1
10/28/2021 10:45:00 PM 13.75 56.75 7.91 478.3 98.66 85.9
10/28/2021 11:00:00 PM 13.74 56.732 7.92 478.1 109.4 86
10/28/2021 11:15:00 PM 13.72 56.696 7.92 478.4 127.6 85.7
10/28/2021 11:30:00 PM 13.7 56.66 7.91 478.7 107.6 85.8
10/28/2021 11:45:00 PM 13.7 56.66 7.91 478.4 54.69 77.8
10/29/2021 12:00:00 AM 13.68 56.624 7.9 478.9 110.2 85.6
10/29/2021 12:15:00 AM 13.67 56.606 7.81 479.5 119.4 85.8
10/29/2021 12:30:00 AM 13.65 56.57 7.89 479.7 117.2 85.8
10/29/2021 12:45:00 AM 13.64 56.552 7.91 479.8 107.6 85.8
10/29/2021 1:00:00 AM 13.63 56.534 7.9 480 103.6 85.8
10/29/2021 1:15:00 AM 13.61 56.498 7.91 479.9 112.8 85.9
10/29/2021 1:30:00 AM 13.6 56.48 7.9 480.1 106.9 85.9
10/29/2021 1:45:00 AM 13.58 56.444 7.91 480.4 121.1 85.5
10/29/2021 2:00:00 AM 13.56 56.408 7.9 480.4 102.5 85.8
10/29/2021 2:15:00 AM 13.55 56.39 7.91 480.4 105.3 85.7
10/29/2021 2:30:00 AM 13.53 56.354 7.91 480.2 108.5 85.5
10/29/2021 2:45:00 AM 13.52 56.336 7.91 480.3 110 85.7
10/29/2021 3:00:00 AM 13.51 56.318 7.91 480.2 137.8 85.5
10/29/2021 3:15:00 AM 13.49 56.282 7.91 480.2 128.5 85.8
10/29/2021 3:30:00 AM 13.47 56.246 7.91 480.3 108.1 85.8
10/29/2021 3:45:00 AM 13.46 56.228 7.91 480.5 105.2 85.8
10/29/2021 4:00:00 AM 13.44 56.192 7.91 480.7 119.2 85.8
10/29/2021 4:15:00 AM 13.43 56.174 7.91 480.5 113.5 85.7
10/29/2021 4:30:00 AM 13.4 56.12 7.91 481 135.2 85.9
10/29/2021 4:45:00 AM 13.38 56.084 7.91 481.2 124.2 85.7
10/29/2021 5:00:00 AM 13.37 56.066 7.91 481.4 128.4 86
10/29/2021 5:15:00 AM 13.37 56.066 7.91 481.4 123.6 85.8
10/29/2021 5:30:00 AM 13.36 56.048 7.91 481.5 130.9 86
10/29/2021 5:45:00 AM 13.34 56.012 7.91 481.4 114.7 86.3
10/29/2021 6:00:00 AM 13.32 55.976 7.92 481.2 121.3 86.3
10/29/2021 6:15:00 AM 13.31 55.958 7.92 481.2 117.6 86.2
10/29/2021 6:30:00 AM 13.29 55.922 7.93 480.6 106.9 86.1
10/29/2021 6:45:00 AM 13.28 55.904 7.92 480 116.8 86.2
10/29/2021 7:00:00 AM 13.28 55.904 7.93 476.2 107.5 86.3
10/29/2021 7:15:00 AM 13.27 55.886 7.92 480 95.59 86
10/29/2021 7:30:00 AM 13.25 55.85 7.92 480.1 119.1 85.9
10/29/2021 7:45:00 AM 13.27 55.886 7.93 479.7 124.4 86.2
10/29/2021 8:00:00 AM 13.26 55.868 7.93 479.8 106.9 86.5
10/29/2021 8:15:00 AM 13.27 55.886 7.93 479.4 98.22 86.7
10/29/2021 8:30:00 AM 13.26 55.868 7.93 479.4 106.8 86.7
10/29/2021 8:45:00 AM 13.26 55.868 7.93 479.4 92.43 86.9
10/29/2021 9:00:00 AM 13.27 55.886 7.93 479.4 108.6 87.9
10/29/2021 9:15:00 AM 13.26 55.868 7.94 479.7 114.9 88
10/29/2021 9:30:00 AM 13.28 55.904 7.96 479.4 110 88.7
10/29/2021 9:45:00 AM 13.25 55.85 7.96 480 105.6 89.5
10/29/2021 10:00:00 AM 13.27 55.886 7.97 479.7 118.7 90.1
10/29/2021 10:15:00 AM 13.27 55.886 7.97 479.3 114.8 91.2
10/29/2021 10:30:00 AM 13.27 55.886 7.98 479.1 104.1 91.9
10/29/2021 10:45:00 AM 13.3 55.94 7.98 478.8 107.2 91.9
10/29/2021 11:00:00 AM 13.29 55.922 7.99 478.4 126.1 92.5
10/29/2021 11:15:00 AM 13.29 55.922 8 478 105.2 93.5
10/29/2021 11:30:00 AM 13.29 55.922 8.01 477.7 116.6 94
10/29/2021 11:45:00 AM 13.29 55.922 8.01 476.6 110.6 94.6
10/29/2021 12:00:00 PM 13.26 55.868 8.02 475.6 103 95.2
10/29/2021 12:15:00 PM 13.25 55.85 8.02 473.3 102.6 95
10/29/2021 12:30:00 PM 13.26 55.868 8.02 473 101.9 95.3
10/29/2021 12:45:00 PM 13.22 55.796 8.02 471.5 97.48 95.5
10/29/2021 1:00:00 PM 13.22 55.796 8.02 468.9 102.1 95.8
10/29/2021 1:15:00 PM 13.24 55.832 8.02 467.3 101.5 95.7
10/29/2021 1:30:00 PM 13.21 55.778 8.02 464.7 103.3 95.2
10/29/2021 1:45:00 PM 13.2 55.76 8.01 463.5 110.6 95
10/29/2021 2:00:00 PM 13.19 55.742 8.01 461.9 108.6 94.8
10/29/2021 2:15:00 PM 13.19 55.742 8.01 459.8 91.8 94.9
10/29/2021 2:30:00 PM 13.15 55.67 8 456.4 110.4 94.5
10/29/2021 2:45:00 PM 13.15 55.67 8 450.7 100.7 94.1
10/29/2021 3:00:00 PM 13.15 55.67 7.99 443.1 115.3 93.9
10/29/2021 3:15:00 PM 13.16 55.688 7.98 439.8 100.4 93.7
10/29/2021 3:30:00 PM 13.15 55.67 7.97 436.7 107.9 93.3
10/29/2021 3:45:00 PM 13.13 55.634 7.96 431.5 114.1 93
10/29/2021 4:00:00 PM 13.13 55.634 7.94 425.3 138.9 92.3
10/29/2021 4:15:00 PM 13.12 55.616 7.93 421.3 145.4 91.6
10/29/2021 4:30:00 PM 13.13 55.634 7.93 418.4 156.8 91.3
10/29/2021 4:45:00 PM 13.12 55.616 7.91 416.7 149 90.6
10/29/2021 5:00:00 PM 13.12 55.616 7.9 414.8 174.8 88.7
10/29/2021 5:15:00 PM 13.11 55.598 7.89 412.2 163.4 88.5
10/29/2021 5:30:00 PM 13.09 55.562 7.88 411.6 177.7 88.6
10/29/2021 5:45:00 PM 13.07 55.526 7.88 411 195.2 87.6
10/29/2021 6:00:00 PM 13.06 55.508 7.87 409.7 84.73 87.5
10/29/2021 6:15:00 PM 13.03 55.454 7.86 407.7 74.05 87.7
10/29/2021 6:30:00 PM 13.02 55.436 7.85 406 92.16 87.3
10/29/2021 6:45:00 PM 13 55.4 7.84 404.5 91.01 86.8
10/29/2021 7:00:00 PM 12.99 55.382 7.83 402.9 91.63 86.1
10/29/2021 7:15:00 PM 12.98 55.364 7.82 403.1 117.8 85.9
10/29/2021 7:30:00 PM 12.96 55.328 7.82 403.6 166 85.9
10/29/2021 7:45:00 PM 12.96 55.328 7.81 405.2 149.4 85.6
10/29/2021 8:00:00 PM 12.95 55.31 7.81 408.8 89.19 85.9
10/29/2021 8:15:00 PM 12.94 55.292 7.8 412.9 51.79 85.8
10/29/2021 8:30:00 PM 12.93 55.274 7.81 416.2 50.99 86.2
10/29/2021 8:45:00 PM 12.93 55.274 7.82 419.5 51.52 86.5
10/29/2021 9:00:00 PM 12.92 55.256 7.82 423.4 62.95 86.5
10/29/2021 9:15:00 PM 12.9 55.22 7.81 426.8 60.64 86.8
10/29/2021 9:30:00 PM 12.9 55.22 7.82 428.8 51.48 86.6
10/29/2021 9:45:00 PM 12.89 55.202 7.81 432.2 67.71 86.8
10/29/2021 10:00:00 PM 12.88 55.184 7.82 434.4 70.16 86.7
10/29/2021 10:15:00 PM 12.85 55.13 7.82 436.7 87.8 86.8
10/29/2021 10:30:00 PM 12.83 55.094 7.82 440.1 73.67 87.1
10/29/2021 10:45:00 PM 12.82 55.076 7.83 442.7 79.04 87.3
10/29/2021 11:00:00 PM 12.8 55.04 7.83 444.8 61.46 87.4
10/29/2021 11:15:00 PM 12.78 55.004 7.83 444.7 68.14 87.7
10/29/2021 11:30:00 PM 12.76 54.968 7.83 446.7 64.6 88.1
10/29/2021 11:45:00 PM 12.74 54.932 7.83 446.5 75.21 88.4
10/30/2021 12:00:00 AM 12.72 54.896 7.84 445.4 85.74 88.6
10/30/2021 12:15:00 AM 12.69 54.842 7.83 443.6 79.73 88.8
10/30/2021 12:30:00 AM 12.66 54.788 7.84 440.8 81.08 89.1
10/30/2021 12:45:00 AM 12.64 54.752 7.83 437.2 72.05 89.3
10/30/2021 1:00:00 AM 12.61 54.698 7.82 432.2 82.89 89.3
10/30/2021 1:15:00 AM 12.57 54.626 7.83 425.7 84.61 89.2
10/30/2021 1:30:00 AM 12.55 54.59 7.62 419.4 91.94 89.3
10/30/2021 1:45:00 AM 12.51 54.518 7.74 411.7 82.84 89.1
10/30/2021 2:00:00 AM 12.48 54.464 7.79 404.1 93.72 88.9
10/30/2021 2:15:00 AM 12.45 54.41 7.8 398.4 84.87 88.9
10/30/2021 2:30:00 AM 12.43 54.374 7.79 393.9 94.13 88.8
10/30/2021 2:45:00 AM 12.41 54.338 7.78 389.2 97.4 88.7
10/30/2021 3:00:00 AM 12.4 54.32 7.78 385.5 97.53 88.6
10/30/2021 3:15:00 AM 12.38 54.284 7.76 383 85.36 88.5
10/30/2021 3:30:00 AM 12.38 54.284 7.76 381.9 89.62 88.6
10/30/2021 3:45:00 AM 12.37 54.266 7.76 381.7 86.29 88.3
10/30/2021 4:00:00 AM 12.37 54.266 7.75 381.9 71.26 88.2
10/30/2021 4:15:00 AM 12.37 54.266 7.75 381.9 82.77 88.3
10/30/2021 4:30:00 AM 12.37 54.266 7.74 381.6 81.42 87.7
10/30/2021 4:45:00 AM 12.37 54.266 7.74 380.7 86.61 87.9
10/30/2021 5:00:00 AM 12.38 54.284 7.74 379.7 89.71 87.5
10/30/2021 5:15:00 AM 12.4 54.32 7.73 378.6 87.86 87.7
10/30/2021 5:30:00 AM 12.41 54.338 7.73 377.3 81.85 87.7
10/30/2021 5:45:00 AM 12.42 54.356 7.73 376 83.17 87.5
10/30/2021 6:00:00 AM 12.44 54.392 7.73 374.4 84.92 87.5
10/30/2021 6:15:00 AM 12.45 54.41 7.72 371.9 89.76 87.4
10/30/2021 6:30:00 AM 12.46 54.428 7.72 369.3 91.85 87.6
10/30/2021 6:45:00 AM 12.47 54.446 7.71 365.3 96.9 87.6
10/30/2021 7:00:00 AM 12.47 54.446 7.7 362 98.57 87.2
10/30/2021 7:15:00 AM 12.48 54.464 7.7 358.8 97.63 87.5
10/30/2021 7:30:00 AM 12.48 54.464 7.7 356.6 94.88 87.5
10/30/2021 7:45:00 AM 12.48 54.464 7.7 354.5 82.96 86.3
10/30/2021 8:00:00 AM 12.48 54.464 7.69 352.9 106.7 87.4
10/30/2021 8:15:00 AM 12.48 54.464 7.69 351.5 111.1 87.1
10/30/2021 8:30:00 AM 12.48 54.464 7.7 349.7 117.7 87.4
10/30/2021 8:45:00 AM 12.48 54.464 7.7 348 92.12 87.6
10/30/2021 9:00:00 AM 12.49 54.482 7.69 347 93.2 87.6
10/30/2021 9:15:00 AM 12.49 54.482 7.69 345.7 97.51 87.9
10/30/2021 9:30:00 AM 12.49 54.482 7.69 344.6 101.1 88
10/30/2021 9:45:00 AM 12.48 54.464 7.69 343.1 92.71 88.1
10/30/2021 10:00:00 AM 12.48 54.464 7.69 341.7 110.5 88
10/30/2021 10:15:00 AM 12.47 54.446 7.69 340.6 100.5 88.1
10/30/2021 10:30:00 AM 12.47 54.446 7.69 339.5 108.6 87.9
10/30/2021 10:45:00 AM 12.47 54.446 7.69 337.7 112.1 88
10/30/2021 11:00:00 AM 12.47 54.446 7.69 337.4 116.1 88.1
10/30/2021 11:15:00 AM 12.47 54.446 7.68 336.2 115.5 88.1
10/30/2021 11:30:00 AM 12.48 54.464 7.68 335 118.2 88.2
10/30/2021 11:45:00 AM 12.48 54.464 7.68 333.8 105.4 88.6
10/30/2021 12:00:00 PM 12.52 54.536 7.68 332.6 112.6 88.6
10/30/2021 12:15:00 PM 12.53 54.554 7.68 331.8 112.9 89
10/30/2021 12:30:00 PM 12.54 54.572 7.68 331.3 113.6 89.1
10/30/2021 12:45:00 PM 12.54 54.572 7.68 330.3 113.1 89.3
10/30/2021 1:00:00 PM 12.55 54.59 7.68 329.5 122.8 89.1
10/30/2021 1:15:00 PM 12.56 54.608 7.68 328.8 117.1 89.2
10/30/2021 1:30:00 PM 12.58 54.644 7.66 328.3 118.7 88.8
10/30/2021 1:45:00 PM 12.61 54.698 7.68 326.8 119.8 89.2
10/30/2021 2:00:00 PM 12.63 54.734 7.68 326 134.2 89.6
10/30/2021 2:15:00 PM 12.64 54.752 7.67 324.9 116.2 89.6
10/30/2021 2:30:00 PM 12.66 54.788 7.66 323.9 110.4 89.6
10/30/2021 2:45:00 PM 12.67 54.806 7.67 322.7 119.1 89.7
10/30/2021 3:00:00 PM 12.7 54.86 7.66 321.8 123.9 89.8
10/30/2021 3:15:00 PM 12.72 54.896 7.65 320.4 115.8 89.5
10/30/2021 3:30:00 PM 12.75 54.95 7.66 319.4 125.9 89.7
10/30/2021 3:45:00 PM 12.77 54.986 7.66 318.5 124.3 89.6
10/30/2021 4:00:00 PM 12.78 55.004 7.66 317.4 123.7 89
10/30/2021 4:15:00 PM 12.79 55.022 7.65 316.7 127.1 89.3
10/30/2021 4:30:00 PM 12.79 55.022 7.65 315.6 125.8 89
10/30/2021 4:45:00 PM 12.78 55.004 7.65 315.4 118.9 89.1
10/30/2021 5:00:00 PM 12.77 54.986 7.65 314.6 123.5 89.1
10/30/2021 5:15:00 PM 12.77 54.986 7.65 314.1 118 89
10/30/2021 5:30:00 PM 12.78 55.004 7.65 313.6 113.1 88.9
10/30/2021 5:45:00 PM 12.78 55.004 7.64 313.3 128.8 88.6
10/30/2021 6:00:00 PM 12.79 55.022 7.65 312.6 134.8 88.6
10/30/2021 6:15:00 PM 12.79 55.022 7.65 312.3 117 88.6
10/30/2021 6:30:00 PM 12.8 55.04 7.65 312 123.2 88.7
10/30/2021 6:45:00 PM 12.81 55.058 7.65 312.2 124.2 88.7
10/30/2021 7:00:00 PM 12.81 55.058 7.65 312.3 108.5 88.9
10/30/2021 7:15:00 PM 12.82 55.076 7.64 312.8 2045 88.6
10/30/2021 7:30:00 PM 12.82 55.076 7.65 313.1 216.5 88.3
10/30/2021 7:45:00 PM 12.83 55.094 7.65 313.7 230.2 88.4
10/30/2021 8:00:00 PM 12.83 55.094 7.65 313.8 116.8 88.6
10/30/2021 8:15:00 PM 12.84 55.112 7.64 314.4 156.6 88.5
10/30/2021 8:30:00 PM 12.85 55.13 7.63 314.7 212.1 88.3
10/30/2021 8:45:00 PM 12.85 55.13 7.65 315 209.4 88.2
10/30/2021 9:00:00 PM 12.86 55.148 7.65 315.2 213.3 88.1
10/30/2021 9:15:00 PM 12.86 55.148 7.65 315.7 220.2 88.3
10/30/2021 9:30:00 PM 12.86 55.148 7.64 316.1 179.4 88.3
10/30/2021 9:45:00 PM 12.86 55.148 7.64 316.5 191.1 88.3
10/30/2021 10:00:00 PM 12.87 55.166 7.65 316.8 186.6 88.5
10/30/2021 10:15:00 PM 12.87 55.166 7.65 317.1 228.8 88.6
10/30/2021 10:30:00 PM 12.86 55.148 7.64 317.4 242.4 88.4
10/30/2021 10:45:00 PM 12.86 55.148 7.64 317.7 231.4 88.2
10/30/2021 11:00:00 PM 12.86 55.148 7.65 317.8 233.8 88.2
10/30/2021 11:15:00 PM 12.85 55.13 7.65 318.1 227.1 88.3
10/30/2021 11:30:00 PM 12.85 55.13 7.65 318.3 244.8 88
10/30/2021 11:45:00 PM 12.85 55.13 7.65 318.7 229.4 88.5
10/31/2021 12:00:00 AM 12.84 55.112 7.66 319 225.5 88.2
10/31/2021 12:15:00 AM 12.83 55.094 7.65 319.5 220.3 88.2
10/31/2021 12:30:00 AM 12.83 55.094 7.65 320 236.2 88.1
10/31/2021 12:45:00 AM 12.82 55.076 7.64 320.5 227.7 88.2
10/31/2021 1:00:00 AM 12.81 55.058 7.65 320.9 234.3 88
10/31/2021 1:15:00 AM 12.8 55.04 7.65 321.5 239.2 88.1
10/31/2021 1:30:00 AM 12.78 55.004 7.64 322.2 256.4 87.7
10/31/2021 1:45:00 AM 12.77 54.986 7.62 323 267.1 87.9
10/31/2021 2:00:00 AM 12.75 54.95 7.64 323.7 268.3 87.6
10/31/2021 2:15:00 AM 12.73 54.914 7.64 324.4 256 87.7
10/31/2021 2:30:00 AM 12.72 54.896 7.64 325.2 310.5 87.8
10/31/2021 2:45:00 AM 12.71 54.878 7.64 326 309.1 87.3
10/31/2021 3:00:00 AM 12.71 54.878 7.65 326.8 324.9 87.5
10/31/2021 3:15:00 AM 12.7 54.86 7.65 326.5 287.3 87.5
10/31/2021 3:30:00 AM 12.7 54.86 7.65 328.1 280.5 87.4
10/31/2021 3:45:00 AM 12.7 54.86 7.66 329.1 271.1 87.3
10/31/2021 4:00:00 AM 12.7 54.86 7.65 329.8 282.2 87.3
10/31/2021 4:15:00 AM 12.69 54.842 7.65 330.5 227.5 87.2
10/31/2021 4:30:00 AM 12.69 54.842 7.66 331 321.2 87
10/31/2021 4:45:00 AM 12.68 54.824 7.66 331.6 326.8 87
10/31/2021 5:00:00 AM 12.67 54.806 7.66 332 301.9 87.1
10/31/2021 5:15:00 AM 12.66 54.788 7.66 332.2 298.6 86.9
10/31/2021 5:30:00 AM 12.65 54.77 7.66 332.1 305 87.1
10/31/2021 5:45:00 AM 12.64 54.752 7.66 332.7 329.3 86.8
10/31/2021 6:00:00 AM 12.63 54.734 7.66 332.9 333.6 87
10/31/2021 6:15:00 AM 12.63 54.734 7.66 332.9 338.6 86.6
10/31/2021 6:30:00 AM 12.62 54.716 7.66 332.7 360.8 87
10/31/2021 6:45:00 AM 12.61 54.698 7.66 332.6 339.7 86.9
10/31/2021 7:00:00 AM 12.6 54.68 7.67 332.6 317.8 86.9
10/31/2021 7:15:00 AM 12.59 54.662 7.67 332.1 345 86.8
10/31/2021 7:30:00 AM 12.58 54.644 7.67 331.4 336.3 87
10/31/2021 7:45:00 AM 12.57 54.626 7.66 330.8 355.4 87
10/31/2021 8:00:00 AM 12.56 54.608 7.66 330.6 374.4 86.9
10/31/2021 8:15:00 AM 12.56 54.608 7.67 330 304.7 86.7
10/31/2021 8:30:00 AM 12.56 54.608 7.66 328.9 372.9 86.8
10/31/2021 8:45:00 AM 12.56 54.608 7.67 327.9 372.3 87
10/31/2021 9:00:00 AM 12.56 54.608 7.66 326.8 376.3 87
10/31/2021 9:15:00 AM 12.56 54.608 7.66 325.8 400.6 87
10/31/2021 9:30:00 AM 12.57 54.626 7.66 324.7 369.6 87.2
10/31/2021 9:45:00 AM 12.58 54.644 7.66 323.8 373 87.3
10/31/2021 10:00:00 AM 12.59 54.662 7.66 322.7 352.8 87.4
10/31/2021 10:15:00 AM 12.61 54.698 7.66 321.5 364.9 87.7
10/31/2021 10:30:00 AM 12.64 54.752 7.66 320.6 380.6 87.6
10/31/2021 10:45:00 AM 12.66 54.788 7.66 319.3 360.6 87.7
10/31/2021 11:00:00 AM 12.67 54.806 7.66 318 379.2 88.1
10/31/2021 11:15:00 AM 12.7 54.86 7.66 316.7 390.5 88.6
10/31/2021 11:30:00 AM 12.72 54.896 7.67 315.8 411.1 88.9
10/31/2021 11:45:00 AM 12.76 54.968 7.66 314.7 325.2 89
10/31/2021 12:00:00 PM 12.77 54.986 7.67 313.7 401.8 89.3
10/31/2021 12:15:00 PM 12.78 55.004 7.67 312.9 423.4 89.1
10/31/2021 12:30:00 PM 12.81 55.058 7.67 311.7 413.8 89.5
10/31/2021 12:45:00 PM 12.87 55.166 7.67 310.2 564 89.5
10/31/2021 1:00:00 PM 12.97 55.346 7.67 308.9 251.1 89.7
10/31/2021 1:15:00 PM 13.03 55.454 7.67 307.7 431.8 90.1
10/31/2021 1:30:00 PM 13.06 55.508 7.67 306.9 521.4 90.3
10/31/2021 1:45:00 PM 13.14 55.652 7.68 305.7 407.2 90.7
10/31/2021 2:00:00 PM 13.14 55.652 7.67 304.6 246.9 90.6
10/31/2021 2:15:00 PM 13.19 55.742 7.68 303.4 419.9 90.7
10/31/2021 2:30:00 PM 13.15 55.67 7.68 303.3 401.9 90.4
10/31/2021 2:45:00 PM 13.12 55.616 7.67 302.5 417.3 90.4
10/31/2021 3:00:00 PM 13.13 55.634 7.68 301.8 442.1 90.5
10/31/2021 3:15:00 PM 13.12 55.616 7.68 301.5 425.7 90.3
10/31/2021 3:30:00 PM 13.13 55.634 7.67 300.9 409 90.2
10/31/2021 3:45:00 PM 13.13 55.634 7.68 299.8 403.4 90
10/31/2021 4:00:00 PM 13.12 55.616 7.67 298.6 381.5 90
10/31/2021 4:15:00 PM 13.12 55.616 7.67 297.8 377.4 90.1
10/31/2021 4:30:00 PM 13.13 55.634 7.68 296.7 356.9 90.1
10/31/2021 4:45:00 PM 13.12 55.616 7.67 296.3 354.9 89.7
10/31/2021 5:00:00 PM 13.13 55.634 7.67 296.1 385.7 89.5
10/31/2021 5:15:00 PM 13.13 55.634 7.67 295.8 391.4 89.4
10/31/2021 5:30:00 PM 13.13 55.634 7.67 295.3 545.8 88.9
10/31/2021 5:45:00 PM 13.13 55.634 7.67 294.8 440.3 88.9
10/31/2021 6:00:00 PM 13.13 55.634 7.67 294.3 380.3 89
10/31/2021 6:15:00 PM 13.13 55.634 7.67 293.9 386.1 88.5
10/31/2021 6:30:00 PM 13.13 55.634 7.66 293.6 349.4 88.3
10/31/2021 6:45:00 PM 13.13 55.634 7.66 293.3 334.1 88.5
10/31/2021 7:00:00 PM 13.13 55.634 7.66 292.9 348.8 88.7
10/31/2021 7:15:00 PM 13.13 55.634 7.65 292.7 344.2 88.5
10/31/2021 7:30:00 PM 13.13 55.634 7.66 292.5 350.8 88.5
10/31/2021 7:45:00 PM 13.12 55.616 7.66 292.4 334.4 88.4
10/31/2021 8:00:00 PM 13.11 55.598 7.66 292.4 323.8 88.5
10/31/2021 8:15:00 PM 13.09 55.562 7.67 292.1 341.1 88.6
10/31/2021 8:30:00 PM 13.08 55.544 7.67 291.9 345.5 88.4
10/31/2021 8:45:00 PM 13.06 55.508 7.67 291.8 365.2 88.7
10/31/2021 9:00:00 PM 13.05 55.49 7.67 292 377.9 88.6
10/31/2021 9:15:00 PM 13.03 55.454 7.67 292.1 395.5 88.7
10/31/2021 9:30:00 PM 13.02 55.436 7.67 292.2 395.1 88.6
10/31/2021 9:45:00 PM 13 55.4 7.67 292.3 372 88.8
10/31/2021 10:00:00 PM 12.99 55.382 7.67 292.2 400.9 88.6
10/31/2021 10:15:00 PM 12.98 55.364 7.68 292 439.5 88.9
10/31/2021 10:30:00 PM 12.97 55.346 7.68 292.2 447.9 88.6
10/31/2021 10:45:00 PM 12.96 55.328 7.68 292.3 470 88.8
10/31/2021 11:00:00 PM 12.94 55.292 7.68 292.4 465.5 88.8
10/31/2021 11:15:00 PM 12.93 55.274 7.68 292.4 470.8 88.7
10/31/2021 11:30:00 PM 12.93 55.274 7.68 292.5 491.3 88.8
10/31/2021 11:45:00 PM 12.9 55.22 7.68 292.5 483.7 88.7
11/1/2021 12:00:00 AM 12.88 55.184 7.68 292.7 505.4 88.4
11/1/2021 12:15:00 AM 12.87 55.166 7.68 292.7 493.2 88.6
11/1/2021 12:30:00 AM 12.84 55.112 7.68 292.8 527.8 88.4
11/1/2021 12:45:00 AM 12.81 55.058 7.68 293 492.3 88.5
11/1/2021 1:00:00 AM 12.78 55.004 7.67 293.2 506.5 88.4
11/1/2021 1:15:00 AM 12.76 54.968 7.67 293.4 513.3 87.9
11/1/2021 1:30:00 AM 12.74 54.932 7.67 293.5 512.6 88.5
11/1/2021 1:45:00 AM 12.73 54.914 7.67 293.7 512.2 88.5
11/1/2021 2:00:00 AM 12.71 54.878 7.67 293.8 515.8 88.5
11/1/2021 2:15:00 AM 12.69 54.842 7.67 294.1 540.9 88.7
11/1/2021 2:30:00 AM 12.67 54.806 7.67 294.5 528.6 88.5
11/1/2021 2:45:00 AM 12.65 54.77 7.67 294.7 519.8 88.3
11/1/2021 3:00:00 AM 12.63 54.734 7.68 295 583.4 88
11/1/2021 3:15:00 AM 12.6 54.68 7.67 295.3 555.5 87.9
11/1/2021 3:30:00 AM 12.58 54.644 7.67 295.6 569.7 88.1
11/1/2021 3:45:00 AM 12.55 54.59 7.67 296 594.6 87.9
11/1/2021 4:00:00 AM 12.52 54.536 7.67 296.2 599.8 88
11/1/2021 4:15:00 AM 12.5 54.5 7.66 295.9 584.1 87.9
11/1/2021 4:30:00 AM 12.47 54.446 7.66 296.4 594.8 88.1
11/1/2021 4:45:00 AM 12.45 54.41 7.66 296.6 611.5 87.4
11/1/2021 5:00:00 AM 12.44 54.392 7.66 296.8 602.8 87.6
11/1/2021 5:15:00 AM 12.44 54.392 7.67 297 603.6 87.7
11/1/2021 5:30:00 AM 12.44 54.392 7.67 297.4 604.3 88
11/1/2021 5:45:00 AM 12.44 54.392 7.67 297.4 590.9 88
11/1/2021 6:00:00 AM 12.43 54.374 7.67 298 595.4 88.1
11/1/2021 6:15:00 AM 12.42 54.356 7.67 298.1 608.2 87.9
11/1/2021 6:30:00 AM 12.41 54.338 7.67 298.7 611.3 88
11/1/2021 6:45:00 AM 12.37 54.266 7.67 299.3 624.4 87.6
11/1/2021 7:00:00 AM 12.34 54.212 7.67 298.9 624.4 87.6
11/1/2021 7:15:00 AM 12.29 54.122 7.67 300.1 621.1 87.6
11/1/2021 7:30:00 AM 12.26 54.068 7.65 300.4 640.7 87.5
11/1/2021 7:45:00 AM 12.23 54.014 7.66 299.5 653.1 87.4
11/1/2021 8:00:00 AM 12.19 53.942 7.67 300.4 683.6 87.6
11/1/2021 8:15:00 AM 12.16 53.888 7.68 301.3 696.5 87.2
11/1/2021 8:30:00 AM 12.13 53.834 7.68 301.7 638.9 87.3
11/1/2021 8:45:00 AM 12.11 53.798 7.69 302.6 714.5 87.5
11/1/2021 9:00:00 AM 12.09 53.762 7.69 302.4 713.5 88
11/1/2021 9:15:00 AM 12.08 53.744 7.69 302.5 717.4 88.2
11/1/2021 9:30:00 AM 12.07 53.726 7.69 303.1 718.8 87.8
11/1/2021 9:45:00 AM 12.06 53.708 7.69 302.5 425.5 88.4
11/1/2021 10:00:00 AM 12.05 53.69 7.69 303.7 428.2 88.5
11/1/2021 10:15:00 AM 12.03 53.654 7.68 304 421.5 89.2
11/1/2021 10:30:00 AM 12.02 53.636 7.67 304.4 438.6 89.1
11/1/2021 10:45:00 AM 12.02 53.636 7.7 304.9 464.6 89.5
11/1/2021 11:00:00 AM 12.02 53.636 7.71 305.2 454.2 90
11/1/2021 11:15:00 AM 12.04 53.672 7.72 305.5 458.6 90.4
11/1/2021 11:30:00 AM 12.08 53.744 7.71 305.9 433.4 90.4
11/1/2021 11:45:00 AM 12.14 53.852 7.71 306.2 451.6 90.8
11/1/2021 12:00:00 PM 12.2 53.96 7.7 306.7 448.5 91.5
11/1/2021 12:15:00 PM 12.28 54.104 7.71 307.2 435.8 92.2
11/1/2021 12:30:00 PM 12.35 54.23 7.72 307.7 453.8 92.6
11/1/2021 12:45:00 PM 12.43 54.374 7.71 308.1 427.2 93
11/1/2021 1:00:00 PM 12.54 54.572 7.72 308.4 425.5 92.3
11/1/2021 1:15:00 PM 12.65 54.77 7.72 308.9 427.3 93.6
11/1/2021 1:30:00 PM 12.77 54.986 7.72 309.3 421.8 92.1
11/1/2021 1:45:00 PM 12.89 55.202 7.72 309.8 477.6 93
11/1/2021 2:00:00 PM 12.99 55.382 7.72 310.4 495.8 94
11/1/2021 2:15:00 PM 13.08 55.544 7.74 310.9 444.7 94.3
11/1/2021 2:30:00 PM 13.15 55.67 7.73 311.5 476.2 94.7
11/1/2021 2:45:00 PM 13.2 55.76 7.74 311.9 472.9 94.7
11/1/2021 3:00:00 PM 13.24 55.832 7.74 312.4 472.6 95.3
11/1/2021 3:15:00 PM 13.25 55.85 7.74 312.7 444.5 95
11/1/2021 3:30:00 PM 13.26 55.868 7.74 313.2 470.1 95.5
11/1/2021 3:45:00 PM 13.18 55.724 7.74 313.6 538.2 95.2
11/1/2021 4:00:00 PM 13.11 55.598 7.74 314 512.5 94.6
11/1/2021 4:15:00 PM 13.02 55.436 7.75 314.4 567.8 94.3
11/1/2021 4:30:00 PM 12.95 55.31 7.73 314.7 516.4 93.3
11/1/2021 4:45:00 PM 12.9 55.22 7.74 315 566.6 93.4
11/1/2021 5:00:00 PM 12.85 55.13 7.74 315.3 567.7 93.2
11/1/2021 5:15:00 PM 12.81 55.058 7.73 315.7 533.8 92.8
11/1/2021 5:30:00 PM 12.77 54.986 7.74 314.5 531 92.6
11/1/2021 5:45:00 PM 12.73 54.914 7.74 315.1 514.1 90.6
11/1/2021 6:00:00 PM 12.71 54.878 7.74 316.9 518.6 90.6
11/1/2021 6:15:00 PM 12.68 54.824 7.74 317.7 552 90.5
11/1/2021 6:30:00 PM 12.67 54.806 7.73 317.9 501.1 90.2
11/1/2021 6:45:00 PM 12.66 54.788 7.73 318.3 529.9 89.3
11/1/2021 7:00:00 PM 12.65 54.77 7.73 318.8 517.7 89.8
11/1/2021 7:15:00 PM 12.64 54.752 7.72 319.4 498.8 89.2
11/1/2021 7:30:00 PM 12.64 54.752 7.73 319.9 453 88.9
11/1/2021 7:45:00 PM 12.63 54.734 7.72 320.3 489.2 89.1
11/1/2021 8:00:00 PM 12.62 54.716 7.69 320.8 549.4 89.4
11/1/2021 8:15:00 PM 12.61 54.698 7.72 321.3 543 88.5
11/1/2021 8:30:00 PM 12.6 54.68 7.73 321.7 460.7 89.2
11/1/2021 8:45:00 PM 12.6 54.68 7.74 322.1 484.8 89.5
11/1/2021 9:00:00 PM 12.6 54.68 7.74 321.6 515.2 87.5
11/1/2021 9:15:00 PM 12.6 54.68 7.75 323.1 526.4 89
11/1/2021 9:30:00 PM 12.59 54.662 7.75 323.4 492.2 89.6
11/1/2021 9:45:00 PM 12.59 54.662 7.75 323.7 448.3 89.9
11/1/2021 10:00:00 PM 12.57 54.626 7.75 324.1 437.5 89.8
11/1/2021 10:15:00 PM 12.56 54.608 7.76 324.5 455.4 89.7
11/1/2021 10:30:00 PM 12.54 54.572 7.75 325 442.4 90
11/1/2021 10:45:00 PM 12.52 54.536 7.75 325.3 481.7 90.3
11/1/2021 11:00:00 PM 12.5 54.5 7.75 325.7 483.8 89.3
11/1/2021 11:15:00 PM 12.46 54.428 7.74 325.3 470.5 89.3
11/1/2021 11:30:00 PM 12.43 54.374 7.75 326.3 450.4 90
11/1/2021 11:45:00 PM 12.4 54.32 7.76 326.1 504.9 90
11/2/2021 12:00:00 AM 12.37 54.266 7.76 324.8 477.4 90.5
11/2/2021 12:15:00 AM 12.34 54.212 7.76 327.8 491.3 90.7
11/2/2021 12:30:00 AM 12.32 54.176 7.76 326.3 516.6 90.1
11/2/2021 12:45:00 AM 12.3 54.14 7.76 327.8 506.1 90.2
11/2/2021 1:00:00 AM 12.28 54.104 7.76 327.2 516.7 89.6
11/2/2021 1:15:00 AM 12.27 54.086 7.76 328.4 499.1 89.8
11/2/2021 1:30:00 AM 12.25 54.05 7.75 328.5 431.2 89.3
11/2/2021 1:45:00 AM 12.23 54.014 7.76 328.8 508 89.1
11/2/2021 2:00:00 AM 12.2 53.96 7.76 329.1 530.1 89.8
11/2/2021 2:15:00 AM 12.18 53.924 7.75 329.2 516.6 89.9
11/2/2021 2:30:00 AM 12.16 53.888 7.75 329.5 500.9 89.2
11/2/2021 2:45:00 AM 12.14 53.852 7.75 329.6 499.4 89.4
11/2/2021 3:00:00 AM 12.1 53.78 7.75 329.7 479.4 89.1
11/2/2021 3:15:00 AM 12.08 53.744 7.75 330.4 509.4 88.3
11/2/2021 3:30:00 AM 12.06 53.708 7.73 330.7 554.1 88.4
11/2/2021 3:45:00 AM 12.03 53.654 7.74 331 508 87
11/2/2021 4:00:00 AM 12 53.6 7.75 331.1 518.9 88.6
11/2/2021 4:15:00 AM 11.98 53.564 7.74 331.8 548.9 87
11/2/2021 4:30:00 AM 11.96 53.528 7.74 331.6 531.1 87.1
11/2/2021 4:45:00 AM 11.93 53.474 7.73 332.5 542.3 87.3
11/2/2021 5:00:00 AM 11.91 53.438 7.75 332.7 551.5 86.3
11/2/2021 5:15:00 AM 11.88 53.384 7.74 333.3 524.9 87.1
11/2/2021 5:30:00 AM 11.86 53.348 7.74 333.5 546.1 86.9
11/2/2021 5:45:00 AM 11.83 53.294 7.73 333.9 549.2 84.9
11/2/2021 6:00:00 AM 11.8 53.24 7.74 334.5 532.8 86.4
11/2/2021 6:15:00 AM 11.77 53.186 7.72 334.5 561.2 86.1
11/2/2021 6:30:00 AM 11.74 53.132 7.73 334.5 549.3 87.3
11/2/2021 6:45:00 AM 11.73 53.114 7.71 335.1 535.5 86.4
11/2/2021 7:00:00 AM 11.71 53.078 7.73 335.4 539.9 86.4
11/2/2021 7:15:00 AM 11.69 53.042 7.73 335.6 514.9 86.3
11/2/2021 7:30:00 AM 11.65 52.97 7.72 336 519.8 87.6
11/2/2021 7:45:00 AM 11.66 52.988 7.72 331.2 536.7 84.5
11/2/2021 8:00:00 AM 11.62 52.916 7.73 320.8 558.9 86.7
11/2/2021 8:15:00 AM 11.6 52.88 7.71 327.1 547.2 85.5
11/2/2021 8:30:00 AM 11.58 52.844 7.72 318.3 562.3 83.7
11/2/2021 8:45:00 AM 11.57 52.826 7.72 319.4 597.5 87.2
11/2/2021 9:00:00 AM 11.56 52.808 7.73 319.6 587.5 85.4
11/2/2021 9:15:00 AM 11.54 52.772 7.73 318.9 530.6 85.2
11/2/2021 9:30:00 AM 11.52 52.736 7.74 331.6 538.7 87.6
11/2/2021 9:45:00 AM 11.51 52.718 7.73 338.1 544.8 87.1
11/2/2021 10:00:00 AM 11.51 52.718 7.75 338 607.4 86
11/2/2021 10:15:00 AM 11.49 52.682 7.74 338.4 571.8 86.5
11/2/2021 10:30:00 AM 11.47 52.646 7.73 338.6 536 86
11/2/2021 10:45:00 AM 11.46 52.628 7.73 338.9 562.1 85
11/2/2021 11:00:00 AM 11.45 52.61 7.74 339.1 592 85.6
11/2/2021 11:15:00 AM 11.42 52.556 7.73 339.8 572.5 86.4
11/2/2021 11:30:00 AM 11.44 52.592 7.74 339.8 597.2 83.7
11/2/2021 11:45:00 AM 11.42 52.556 7.75 340.1 579.4 85.3
11/2/2021 12:00:00 PM 11.43 52.574 7.75 329.8 596.6 85.4
11/2/2021 12:15:00 PM 11.42 52.556 7.74 328 573.1 87.1
11/2/2021 12:30:00 PM 11.44 52.592 7.74 329.6 607.7 85.6
11/2/2021 12:45:00 PM 11.44 52.592 7.75 329.7 618.9 86.1
11/2/2021 1:00:00 PM 11.43 52.574 7.75 330.3 634 86.8
11/2/2021 1:15:00 PM 11.43 52.574 7.75 339.5 614.4 85.7
11/2/2021 1:30:00 PM 11.42 52.556 7.75 340 604.4 85.5
11/2/2021 1:45:00 PM 11.42 52.556 7.76 340.5 611.3 85.9
11/2/2021 2:00:00 PM 11.42 52.556 7.76 340.8 609.4 84.3
11/2/2021 2:15:00 PM 11.4 52.52 7.77 341.2 626.8 87.3
11/2/2021 2:30:00 PM 11.41 52.538 7.77 341.2 628.9 84.4
11/2/2021 2:45:00 PM 11.42 52.556 7.78 341.7 620.5 86.1
11/2/2021 3:00:00 PM 11.44 52.592 7.78 341.8 632.3 84.5
11/2/2021 3:15:00 PM 11.45 52.61 7.78 342.6 626.9 85
11/2/2021 3:30:00 PM 11.46 52.628 7.79 343.7 620.5 88.5
11/2/2021 3:45:00 PM 11.45 52.61 7.79 343.8 630.1 90.6
11/2/2021 4:00:00 PM 11.44 52.592 7.8 344.3 638.6 88.8
11/2/2021 4:15:00 PM 11.41 52.538 7.8 344.7 630.8 89.3
11/2/2021 4:30:00 PM 11.39 52.502 7.8 345.3 601.5 89.9
11/2/2021 4:45:00 PM 11.41 52.538 7.73 345.5 629.5 87
11/2/2021 5:00:00 PM 11.38 52.484 7.78 345.3 621.2 87.3
11/2/2021 5:15:00 PM 11.33 52.394 7.79 346.7 615.7 89.1
11/2/2021 5:30:00 PM 11.31 52.358 7.79 346.8 615.6 88.9
11/2/2021 5:45:00 PM 11.25 52.25 7.78 347.3 619.3 89.7
11/2/2021 6:00:00 PM 11.21 52.178 7.78 347.9 629 88
11/2/2021 6:15:00 PM 11.17 52.106 7.78 348.2 621.5 87.2
11/2/2021 6:30:00 PM 11.14 52.052 7.77 339.6 641.8 85
11/2/2021 6:45:00 PM 11.1 51.98 7.77 349.4 641.5 86.2
11/2/2021 7:00:00 PM 11.04 51.872 7.77 349.7 579.4 85.5
11/2/2021 7:15:00 PM 10.97 51.746 7.77 350.3 607.8 85.5
11/2/2021 7:30:00 PM 10.96 51.728 7.76 350.2 576.6 85.1
11/2/2021 7:45:00 PM 10.93 51.674 7.76 350.3 561.4 86
11/2/2021 8:00:00 PM 10.9 51.62 7.76 350.6 558.5 84.2
11/2/2021 8:15:00 PM 10.89 51.602 7.76 350.7 571.6 83.1
11/2/2021 8:30:00 PM 10.86 51.548 7.76 350.8 560.6 83.6
11/2/2021 8:45:00 PM 10.82 51.476 7.77 351.3 554.4 85.6
11/2/2021 9:00:00 PM 10.79 51.422 7.77 349.4 547.2 86
11/2/2021 9:15:00 PM 10.78 51.404 7.77 351.8 544.1 84.3
11/2/2021 9:30:00 PM 10.76 51.368 7.78 352 550.2 86
11/2/2021 9:45:00 PM 10.72 51.296 7.76 352.3 546.4 87.3
11/2/2021 10:00:00 PM 10.73 51.314 7.76 352.2 549.8 85.3
11/2/2021 10:15:00 PM 10.69 51.242 7.77 352.5 560.6 86
11/2/2021 10:30:00 PM 10.67 51.206 7.77 352.8 560 83.7
11/2/2021 10:45:00 PM 10.67 51.206 7.77 352.9 542 83.6
11/2/2021 11:00:00 PM 10.64 51.152 7.78 353.2 530.2 83.5
11/2/2021 11:15:00 PM 10.6 51.08 7.77 353.6 536.2 83.2
11/2/2021 11:30:00 PM 10.58 51.044 7.78 353.7 537.8 84.9
11/2/2021 11:45:00 PM 10.54 50.972 7.79 353.7 519.9 84.4
11/3/2021 12:00:00 AM 10.5 50.9 7.79 354.4 515.5 85
11/3/2021 12:15:00 AM 10.5 50.9 7.79 354.3 538.4 86
11/3/2021 12:30:00 AM 10.48 50.864 7.77 354.1 553.9 84.6
11/3/2021 12:45:00 AM 10.43 50.774 7.79 355.1 603 85.5
11/3/2021 1:00:00 AM 10.43 50.774 7.79 355 595.6 85.2
11/3/2021 1:15:00 AM 10.39 50.702 7.79 353.9 607.1 83.9
11/3/2021 1:30:00 AM 10.35 50.63 7.8 355.6 577.1 86.1
11/3/2021 1:45:00 AM 10.37 50.666 7.8 355.4 590.7 83.2
11/3/2021 2:00:00 AM 10.33 50.594 7.79 355.8 593.8 81.4
11/3/2021 2:15:00 AM 10.26 50.468 7.78 356.4 585.9 84.2
11/3/2021 2:30:00 AM 10.23 50.414 7.76 356.5 559.6 87
11/3/2021 2:45:00 AM 10.23 50.414 7.72 356.4 569.1 83.8
11/3/2021 3:00:00 AM 10.17 50.306 7.79 356.8 614.4 85.7
11/3/2021 3:15:00 AM 10.12 50.216 7.8 357.1 581.2 86.4
11/3/2021 3:30:00 AM 10.13 50.234 7.79 357 614.3 83.8
11/3/2021 3:45:00 AM 10.05 50.09 7.78 357.4 602.1 86.5
11/3/2021 4:00:00 AM 10.03 50.054 7.79 357.1 766.4 86.8
11/3/2021 4:15:00 AM 9.96 49.928 7.8 357.7 792.4 85.1
11/3/2021 4:30:00 AM 9.88 49.784 7.79 358.5 790.5 85.9
11/3/2021 4:45:00 AM 9.89 49.802 7.79 358.2 764.2 87.2
11/3/2021 5:00:00 AM 9.87 49.766 7.79 358.1 799.4 86.6
11/3/2021 5:15:00 AM 9.83 49.694 7.78 358.1 757.8 85.1
11/3/2021 5:30:00 AM 9.77 49.586 7.78 358.8 815 86.3
11/3/2021 5:45:00 AM 9.7 49.46 7.79 359.2 785.1 86.4
11/3/2021 6:00:00 AM 9.69 49.442 7.79 359.1 757.8 86.8
11/3/2021 6:15:00 AM 9.64 49.352 7.78 359.3 763.8 87.5
11/3/2021 6:30:00 AM 9.58 49.244 7.8 359.6 855.2 86.8
11/3/2021 6:45:00 AM 9.56 49.208 7.79 359.6 840.3 87.6
11/3/2021 7:00:00 AM 9.5 49.1 7.77 359.9 995.3 86.7
11/3/2021 7:15:00 AM 9.42 48.956 7.8 359.4 891.9 87.6
11/3/2021 7:30:00 AM 9.45 49.01 7.79 359.8 822.6 85.9
11/3/2021 7:45:00 AM 9.36 48.848 7.79 360.7 1014 87.3
11/3/2021 8:00:00 AM 9.31 48.758 7.8 360.9 981.4 88.9
11/3/2021 8:15:00 AM 9.28 48.704 7.81 361.1 989.2 87.6
11/3/2021 8:30:00 AM 9.26 48.668 7.8 361.2 926 88.1
11/3/2021 8:45:00 AM 9.22 48.596 7.8 361.5 1081 87.3
11/3/2021 9:00:00 AM 9.19 48.542 7.81 361.4 1106 87.8
11/3/2021 9:15:00 AM 9.17 48.506 7.81 361.6 1125 89.7
11/3/2021 9:30:00 AM 9.17 48.506 7.82 361.7 1148 89.7
11/3/2021 9:45:00 AM 9.19 48.542 7.81 361.8 1082 88.9
11/3/2021 10:00:00 AM 9.19 48.542 7.82 362.1 1233 89.4
11/3/2021 10:15:00 AM 9.2 48.56 7.82 362.5 1135 87.4
11/3/2021 10:30:00 AM 9.2 48.56 7.81 362.2 1144 88
11/3/2021 10:45:00 AM 9.21 48.578 7.82 362.5 1074 88.9
11/3/2021 11:00:00 AM 9.22 48.596 7.82 363.4 1097 89.5
11/3/2021 11:15:00 AM 9.25 48.65 7.82 363.4 1072 89.4
11/3/2021 11:30:00 AM 9.28 48.704 7.82 363.4 1051 89.8
11/3/2021 11:45:00 AM 9.32 48.776 7.83 363.5 1074 89.3
11/3/2021 12:00:00 PM 9.39 48.902 7.83 363.6 1153 88.3
11/3/2021 12:15:00 PM 9.49 49.082 7.84 363.6 1241 89.7
11/3/2021 12:30:00 PM 9.57 49.226 7.86 363.8 1198 89.1
11/3/2021 12:45:00 PM 9.64 49.352 7.86 364.1 1197 89.1
11/3/2021 1:00:00 PM 9.73 49.514 7.86 364.1 1182 89.5
11/3/2021 1:15:00 PM 9.81 49.658 7.87 364.3 1247 91
11/3/2021 1:30:00 PM 9.86 49.748 7.88 364.4 1305 91.6
11/3/2021 1:45:00 PM 9.85 49.73 7.86 365 1255 90.8
11/3/2021 2:00:00 PM 9.91 49.838 7.86 365.3 1209 92.3
11/3/2021 2:15:00 PM 9.95 49.91 7.86 365.7 1266 92.2
11/3/2021 2:30:00 PM 9.96 49.928 7.87 365.8 1215 90.7
11/3/2021 2:45:00 PM 9.92 49.856 7.85 366.3 1289 92.5
11/3/2021 3:00:00 PM 9.93 49.874 7.85 366.6 1162 92.9
11/3/2021 3:15:00 PM 9.92 49.856 7.86 366.7 1195 93.8
11/3/2021 3:30:00 PM 9.89 49.802 7.87 366.7 1170 94.8
11/3/2021 3:45:00 PM 9.84 49.712 7.87 367 1305 95.7
11/3/2021 4:00:00 PM 9.85 49.73 7.86 367 1241 93.7
11/3/2021 4:15:00 PM 9.87 49.766 7.87 367.3 1321 93.8
11/3/2021 4:30:00 PM 9.79 49.622 7.87 367.9 1245 92.1
11/3/2021 4:45:00 PM 9.69 49.442 7.87 368.3 1189 92.3
11/3/2021 5:00:00 PM 9.6 49.28 7.86 368.5 1033 91
11/3/2021 5:15:00 PM 9.58 49.244 7.85 367.8 1106 90.3
11/3/2021 5:30:00 PM 9.51 49.118 7.85 368.2 1119 90.6
11/3/2021 5:45:00 PM 9.41 48.938 7.85 368.5 644.6 89.8
11/3/2021 6:00:00 PM 9.33 48.794 7.86 368.9 827.5 89.9
11/3/2021 6:15:00 PM 9.3 48.74 7.85 367.9 818.7 89.8
11/3/2021 6:30:00 PM 9.25 48.65 7.85 368.6 812.6 89.6
11/3/2021 6:45:00 PM 9.22 48.596 7.85 367.8 905.1 89
11/3/2021 7:00:00 PM 9.2 48.56 7.85 369.6 936.8 89
11/3/2021 7:15:00 PM 9.13 48.434 7.84 369.4 957.5 88.5
11/3/2021 7:30:00 PM 9.08 48.344 7.84 369 908.4 88.3
11/3/2021 7:45:00 PM 9.08 48.344 7.83 369.7 1015 87.9
11/3/2021 8:00:00 PM 9.04 48.272 7.82 370.1 979.1 87.6
11/3/2021 8:15:00 PM 9 48.2 7.81 370.5 1004 89
11/3/2021 8:30:00 PM 8.98 48.164 7.82 370.5 1013 87.7
11/3/2021 8:45:00 PM 8.98 48.164 7.82 370.8 961.1 87.9
11/3/2021 9:00:00 PM 8.98 48.164 7.82 371.1 1054 88.6
11/3/2021 9:15:00 PM 8.95 48.11 7.82 371.5 992.2 88.4
11/3/2021 9:30:00 PM 8.95 48.11 7.83 372.1 1000 87.6
11/3/2021 9:45:00 PM 8.97 48.146 7.82 371.7 1069 87
11/3/2021 10:00:00 PM 8.96 48.128 7.83 371.8 1076 88.7
11/3/2021 10:15:00 PM 8.94 48.092 7.83 372.8 1083 88.7
11/3/2021 10:30:00 PM 8.93 48.074 7.84 373 1094 88.2
11/3/2021 10:45:00 PM 8.93 48.074 7.82 373.3 1096 89.5
11/3/2021 11:00:00 PM 8.95 48.11 7.83 373.4 1080 88.8
11/3/2021 11:15:00 PM 8.93 48.074 7.84 373.7 908.4 88.4
11/3/2021 11:30:00 PM 8.94 48.092 7.84 373.8 1118 88
11/3/2021 11:45:00 PM 8.9 48.02 7.84 374.3 1021 89.8
11/4/2021 12:00:00 AM 8.9 48.02 7.84 374 1171 90.2
11/4/2021 12:15:00 AM 8.87 47.966 7.85 374.6 1075 89.2
11/4/2021 12:30:00 AM 8.85 47.93 7.85 374.9 1047 89.9
11/4/2021 12:45:00 AM 8.81 47.858 7.85 375 995.2 90
11/4/2021 1:00:00 AM 8.78 47.804 7.85 375.1 1137 90.3
11/4/2021 1:15:00 AM 8.77 47.786 7.85 375.1 1166 90.7
11/4/2021 1:30:00 AM 8.73 47.714 7.85 375.3 1120 89.3
11/4/2021 1:45:00 AM 8.7 47.66 7.85 375.5 1109 90.7
11/4/2021 2:00:00 AM 8.68 47.624 7.84 375.6 1152 90.8
11/4/2021 2:15:00 AM 8.66 47.588 7.84 375.8 1266 90
11/4/2021 2:30:00 AM 8.63 47.534 7.85 376 1178 91.9
11/4/2021 2:45:00 AM 8.61 47.498 7.85 376 1170 90.1
11/4/2021 3:00:00 AM 8.6 47.48 7.84 376 1164 89.4
11/4/2021 3:15:00 AM 8.59 47.462 7.85 376.1 836.4 88.4
11/4/2021 3:30:00 AM 8.55 47.39 7.85 376.4 880.6 88.5
11/4/2021 3:45:00 AM 8.52 47.336 7.84 376.3 872 89.6
11/4/2021 4:00:00 AM 8.47 47.246 7.85 376.8 807.2 90.1
11/4/2021 4:15:00 AM 8.42 47.156 7.84 377.1 835.7 89.1
11/4/2021 4:30:00 AM 8.41 47.138 7.84 377.1 820.8 89.8
11/4/2021 4:45:00 AM 8.39 47.102 7.83 377.2 1186 91.2
11/4/2021 5:00:00 AM 8.32 46.976 7.83 377.5 1148 89.5
11/4/2021 5:15:00 AM 8.29 46.922 7.85 377.7 1155 90.1
11/4/2021 5:30:00 AM 8.25 46.85 7.85 378 1145 89.7
11/4/2021 5:45:00 AM 8.2 46.76 7.84 378.3 1064 90.4
11/4/2021 6:00:00 AM 8.17 46.706 7.85 378.2 1150 89.1
11/4/2021 6:15:00 AM 8.14 46.652 7.85 378.3 1098 89.9
11/4/2021 6:30:00 AM 8.09 46.562 7.85 378.5 1130 88.5
11/4/2021 6:45:00 AM 8.07 46.526 7.84 378.7 1181 87.9
11/4/2021 7:00:00 AM 8.02 46.436 7.85 378.9 1086 88.5
11/4/2021 7:15:00 AM 7.98 46.364 7.85 379.2 1183 89.6
11/4/2021 7:30:00 AM 7.93 46.274 7.85 379.5 1159 89.7
11/4/2021 7:45:00 AM 7.9 46.22 7.85 379.4 1117 89
11/4/2021 8:00:00 AM 7.88 46.184 7.85 379.3 1156 88.4
11/4/2021 8:15:00 AM 7.82 46.076 7.84 379.7 1146 88.3
11/4/2021 8:30:00 AM 7.8 46.04 7.84 379.9 1106 88.4
11/4/2021 8:45:00 AM 7.77 45.986 7.84 380 1191 88.8
11/4/2021 9:00:00 AM 7.77 45.986 7.84 379.9 1174 88
11/4/2021 9:15:00 AM 7.75 45.95 7.84 380.2 1134 87.5
11/4/2021 9:30:00 AM 7.76 45.968 7.84 380.1 1055 88.4
11/4/2021 9:45:00 AM 7.77 45.986 7.83 380.2 1085 87.9
11/4/2021 10:00:00 AM 7.75 45.95 7.85 380.5 1073 89.7
11/4/2021 10:15:00 AM 7.78 46.004 7.86 380.5 1350 90.7
11/4/2021 10:30:00 AM 7.81 46.058 7.86 380.5 1205 90.4
11/4/2021 10:45:00 AM 7.84 46.112 7.86 380.6 1097 92.1
11/4/2021 11:00:00 AM 7.86 46.148 7.86 380.9 1133 92
11/4/2021 11:15:00 AM 7.91 46.238 7.85 380.9 1126 93.7
11/4/2021 11:30:00 AM 7.96 46.328 7.86 381 1024 92.8
11/4/2021 11:45:00 AM 8.05 46.49 7.86 381.1 1073 93.1
11/4/2021 12:00:00 PM 8.12 46.616 7.87 381.4 1109 93.1
11/4/2021 12:15:00 PM 8.22 46.796 7.87 381.5 1127 92.8
11/4/2021 12:30:00 PM 8.31 46.958 7.87 381.7 1083 94.6
11/4/2021 12:45:00 PM 8.42 47.156 7.88 381.9 1150 95.7
11/4/2021 1:00:00 PM 8.52 47.336 7.88 382.2 1142 96.6
11/4/2021 1:15:00 PM 8.59 47.462 7.87 382.5 1071 95.8
11/4/2021 1:30:00 PM 8.66 47.588 7.88 382.8 1147 96.4
11/4/2021 1:45:00 PM 8.68 47.624 7.88 383.1 1135 95.5
11/4/2021 2:00:00 PM 8.69 47.642 7.88 383.6 1168 95.2
11/4/2021 2:15:00 PM 8.7 47.66 7.89 383.7 1128 95.4
11/4/2021 2:30:00 PM 8.71 47.678 7.89 383.9 1059 97.1
11/4/2021 2:45:00 PM 8.72 47.696 7.89 384.1 1098 94.7
11/4/2021 3:00:00 PM 8.7 47.66 7.9 384.2 1056 94.9
11/4/2021 3:15:00 PM 8.65 47.57 7.88 384.5 831.3 96
11/4/2021 3:30:00 PM 8.67 47.606 7.89 384.4 1219 96.6
11/4/2021 3:45:00 PM 8.64 47.552 7.9 383.7 1285 97.6
11/4/2021 4:00:00 PM 8.65 47.57 7.89 384.6 1170 98.2
11/4/2021 4:15:00 PM 8.61 47.498 7.89 384.8 1233 98.9
11/4/2021 4:30:00 PM 8.58 47.444 7.89 385.1 1172 97.5
11/4/2021 4:45:00 PM 8.5 47.3 7.88 385.5 1278 96.5
11/4/2021 5:00:00 PM 8.44 47.192 7.88 385.5 1159 96.2
11/4/2021 5:15:00 PM 8.4 47.12 7.86 385.6 1157 96.8
11/4/2021 5:30:00 PM 8.34 47.012 7.85 385.9 1156 94.6
11/4/2021 5:45:00 PM 8.25 46.85 7.85 386.4 1296 94.1
11/4/2021 6:00:00 PM 8.16 46.688 7.85 386.9 1291 92.9
11/4/2021 6:15:00 PM 8.13 46.634 7.86 386.6 1357 92.7
11/4/2021 6:30:00 PM 8.09 46.562 7.85 386.9 1316 92.8
11/4/2021 6:45:00 PM 7.99 46.382 7.85 387.6 1266 92.4
11/4/2021 7:00:00 PM 7.95 46.31 7.84 388.1 1317 92
11/4/2021 7:15:00 PM 7.91 46.238 7.84 388.2 1303 92.2
11/4/2021 7:30:00 PM 7.86 46.148 7.84 388.9 1265 91.5
11/4/2021 7:45:00 PM 7.84 46.112 7.84 388.7 1205 90.9
11/4/2021 8:00:00 PM 7.8 46.04 7.83 388.9 1183 90.8
11/4/2021 8:15:00 PM 7.76 45.968 7.84 389.3 1207 90.4
11/4/2021 8:30:00 PM 7.75 45.95 7.84 389.2 1139 90.4
11/4/2021 8:45:00 PM 7.73 45.914 7.84 389.3 1219 90.4
11/4/2021 9:00:00 PM 7.69 45.842 7.84 389.8 1185 90.8
11/4/2021 9:15:00 PM 7.69 45.842 7.83 389.8 1123 89.8
11/4/2021 9:30:00 PM 7.65 45.77 7.84 390.7 1083 90.7
11/4/2021 9:45:00 PM 7.64 45.752 7.84 390.7 1165 91.3
11/4/2021 10:00:00 PM 7.64 45.752 7.84 391.2 1191 90.9
11/4/2021 10:15:00 PM 7.63 45.734 7.85 391.2 1251 90.5
11/4/2021 10:30:00 PM 7.62 45.716 7.83 391.7 1244 91.3
11/4/2021 10:45:00 PM 7.62 45.716 7.85 391.8 1205 91.6
11/4/2021 11:00:00 PM 7.63 45.734 7.85 391.9 1282 91.2
11/4/2021 11:15:00 PM 7.62 45.716 7.85 392.2 1125 91.2
11/4/2021 11:30:00 PM 7.61 45.698 7.86 392.3 1180 91.9
11/4/2021 11:45:00 PM 7.62 45.716 7.85 392.7 1290 92
11/5/2021 12:00:00 AM 7.63 45.734 7.85 392.5 1206 92
11/5/2021 12:15:00 AM 7.62 45.716 7.86 392.6 1285 91.3
11/5/2021 12:30:00 AM 7.62 45.716 7.86 392.7 1255 91.9
11/5/2021 12:45:00 AM 7.6 45.68 7.86 392.2 1220 91
11/5/2021 1:00:00 AM 7.61 45.698 7.86 392.7 1092 90.3
11/5/2021 1:15:00 AM 7.58 45.644 7.87 393.2 1093 91.5
11/5/2021 1:30:00 AM 7.57 45.626 7.87 393.3 1106 91.2
11/5/2021 1:45:00 AM 7.56 45.608 7.87 393.5 1113 91.6
11/5/2021 2:00:00 AM 7.55 45.59 7.88 393.6 1115 91
11/5/2021 2:15:00 AM 7.54 45.572 7.87 393.7 1125 90.5
11/5/2021 2:30:00 AM 7.52 45.536 7.88 393.2 1086 92
11/5/2021 2:45:00 AM 7.51 45.518 7.88 394 1157 91.6
11/5/2021 3:00:00 AM 7.5 45.5 7.88 394.3 1133 91.9
11/5/2021 3:15:00 AM 7.47 45.446 7.88 394.6 1106 92
11/5/2021 3:30:00 AM 7.46 45.428 7.89 394.8 1129 91.9
11/5/2021 3:45:00 AM 7.44 45.392 7.89 394.7 1163 92.5
11/5/2021 4:00:00 AM 7.42 45.356 7.89 394.8 1288 91.9
11/5/2021 4:15:00 AM 7.39 45.302 7.88 394 1210 92.4
11/5/2021 4:30:00 AM 7.37 45.266 7.89 394.9 1179 92.1
11/5/2021 4:45:00 AM 7.37 45.266 7.89 394.7 1097 92.8
11/5/2021 5:00:00 AM 7.33 45.194 7.88 395.1 1139 92.1
11/5/2021 5:15:00 AM 7.32 45.176 7.87 393.6 1079 92.4
11/5/2021 5:30:00 AM 7.29 45.122 7.89 395 1128 92.6
11/5/2021 5:45:00 AM 7.27 45.086 7.88 393.8 1103 90.8
11/5/2021 6:00:00 AM 7.23 45.014 7.89 394.7 1041 92.1
11/5/2021 6:15:00 AM 7.22 44.996 7.89 395.4 1064 92.4
11/5/2021 6:30:00 AM 7.2 44.96 7.89 395.5 1059 92.1
11/5/2021 6:45:00 AM 7.19 44.942 7.9 395.5 1028 91.2
11/5/2021 7:00:00 AM 7.17 44.906 7.9 395.8 1011 90.6
11/5/2021 7:15:00 AM 7.13 44.834 7.89 381.5 996.8 91.2
11/5/2021 7:30:00 AM 7.1 44.78 7.88 376.2 978.7 91.8
11/5/2021 7:45:00 AM 7.08 44.744 7.88 373.8 913.9 91
11/5/2021 8:00:00 AM 7.07 44.726 7.87 373.7 900.7 90.9
11/5/2021 8:15:00 AM 7.03 44.654 7.89 374.3 836.9 89.9
11/5/2021 8:30:00 AM 6.99 44.582 7.89 373.5 934.7 90.5
11/5/2021 8:45:00 AM 6.96 44.528 7.89 373.1 1070 90.9
11/5/2021 9:00:00 AM 6.93 44.474 7.89 373.4 935 91.6
11/5/2021 9:15:00 AM 6.91 44.438 7.9 353.1 920.8 91.6
11/5/2021 9:30:00 AM 6.92 44.456 7.9 354.4 940.9 92.9
11/5/2021 9:45:00 AM 6.94 44.492 7.9 349.6 932.6 91.3
11/5/2021 10:00:00 AM 6.94 44.492 7.9 349.6 836.7 92.6
11/5/2021 10:15:00 AM 6.96 44.528 7.9 343 839.7 92.8
11/5/2021 10:30:00 AM 6.98 44.564 7.91 341.3 859.7 92.8
11/5/2021 10:45:00 AM 7.03 44.654 7.9 340.6 1423 94.4
11/5/2021 11:00:00 AM 7.06 44.708 7.9 341.6 1389 93.6
11/5/2021 11:15:00 AM 7.1 44.78 7.91 344.6 1615 95.1
11/5/2021 11:30:00 AM 7.14 44.852 7.91 342.9 1550 95
11/5/2021 11:45:00 AM 7.24 45.032 7.91 342.8 1720 95.4
11/5/2021 12:00:00 PM 7.33 45.194 7.9 342.6 1725 96.1
11/5/2021 12:15:00 PM 7.45 45.41 7.91 342.3 1800 96.1
11/5/2021 12:30:00 PM 7.54 45.572 7.92 342.7 1937 97.3
11/5/2021 12:45:00 PM 7.67 45.806 7.89 343.1 1811 97.8
11/5/2021 1:00:00 PM 7.84 46.112 7.89 342.9 2044 98.7
11/5/2021 1:15:00 PM 7.94 46.292 7.91 343.4 2123 99.7
11/5/2021 1:30:00 PM 8.14 46.652 7.92 344.9 2096 98.9
11/5/2021 1:45:00 PM 8.28 46.904 7.92 344.4 1566 98.6
11/5/2021 2:00:00 PM 8.25 46.85 7.92 344.8 1713 99
11/5/2021 2:15:00 PM 8.27 46.886 7.9 343.9 1843 97.8
11/5/2021 2:30:00 PM 8.31 46.958 7.9 342.4 1732 99.3
11/5/2021 2:45:00 PM 8.31 46.958 7.88 341.7 1811 98.9
11/5/2021 3:00:00 PM 8.23 46.814 7.9 341.2 1526 98.5
11/5/2021 3:15:00 PM 8.23 46.814 7.9 340.3 1535 98.7
11/5/2021 3:30:00 PM 8.26 46.868 7.89 340.8 1411 99.8
11/5/2021 3:45:00 PM 8.26 46.868 7.89 340.3 1424 99.3
11/5/2021 4:00:00 PM 8.25 46.85 7.9 337 1388 99.4
11/5/2021 4:15:00 PM 8.2 46.76 7.87 336.2 1433 99.8
11/5/2021 4:30:00 PM 8.12 46.616 7.89 336.6 1372 99.2
11/5/2021 4:45:00 PM 8.01 46.418 7.88 338.4 1318 98.5
11/5/2021 5:00:00 PM 7.94 46.292 7.87 344.1 1649 95.2
11/5/2021 5:15:00 PM 7.88 46.184 7.89 343.4 1787 93.3
11/5/2021 5:30:00 PM 7.73 45.914 7.89 347.3 1778 94.6
11/5/2021 5:45:00 PM 7.66 45.788 7.87 344.7 1791 95.1
11/5/2021 6:00:00 PM 7.59 45.662 7.86 343.2 1662 93.9
11/5/2021 6:15:00 PM 7.54 45.572 7.87 345.2 1699 93.3
11/5/2021 6:30:00 PM 7.48 45.464 7.87 382 1738 93.2
11/5/2021 6:45:00 PM 7.44 45.392 7.87 402.7 1641 92.3
11/5/2021 7:00:00 PM 7.39 45.302 7.86 403.2 1435 91.8
11/5/2021 7:15:00 PM 7.32 45.176 7.86 403.3 1389 89.7
11/5/2021 7:30:00 PM 7.3 45.14 7.86 403.2 1368 90.9
11/5/2021 7:45:00 PM 7.23 45.014 7.87 403.7 1337 92.4
11/5/2021 8:00:00 PM 7.22 44.996 7.87 403.8 1303 90.5
11/5/2021 8:15:00 PM 7.2 44.96 7.87 403.6 1283 89.8
11/5/2021 8:30:00 PM 7.13 44.834 7.87 404.3 1225 89.8
11/5/2021 8:45:00 PM 7.12 44.816 7.87 404.2 1220 90.2
11/5/2021 9:00:00 PM 7.12 44.816 7.87 404.3 1207 88.9
11/5/2021 9:15:00 PM 7.07 44.726 7.86 404.7 1161 90.6
11/5/2021 9:30:00 PM 7.01 44.618 7.85 405.1 1033 90.3
11/5/2021 9:45:00 PM 7 44.6 7.86 405.2 1071 90.4
11/5/2021 10:00:00 PM 6.97 44.546 7.86 405.6 1101 91.1
11/5/2021 10:15:00 PM 6.94 44.492 7.87 405.8 1080 91.2
11/5/2021 10:30:00 PM 6.92 44.456 7.87 406 1080 91.4
11/5/2021 10:45:00 PM 6.94 44.492 7.87 405.8 1086 90
11/5/2021 11:00:00 PM 6.91 44.438 7.87 406.3 1104 90.9
11/5/2021 11:15:00 PM 6.89 44.402 7.85 406.7 1081 90.9
11/5/2021 11:30:00 PM 6.91 44.438 7.85 406.6 1107 90.2
11/5/2021 11:45:00 PM 6.89 44.402 7.86 407 1112 90.7
11/6/2021 12:00:00 AM 6.91 44.438 7.86 407 1094 90.9
11/6/2021 12:15:00 AM 6.9 44.42 7.86 407.1 1084 91.9
11/6/2021 12:30:00 AM 6.9 44.42 7.87 407.2 1091 91.7
11/6/2021 12:45:00 AM 6.92 44.456 7.88 407.2 1097 91.5
11/6/2021 1:00:00 AM 6.93 44.474 7.89 407.2 1096 90.7
11/6/2021 1:15:00 AM 6.93 44.474 7.9 407.4 1074 91.5
11/6/2021 1:30:00 AM 6.92 44.456 7.9 407.5 1044 91.5
11/6/2021 1:45:00 AM 6.92 44.456 7.91 407.6 1010 91.7
11/6/2021 2:00:00 AM 6.91 44.438 7.91 407.5 1014 92.2
11/6/2021 2:15:00 AM 6.91 44.438 7.92 407.7 1047 92.1
11/6/2021 2:30:00 AM 6.92 44.456 7.92 407.7 1147 92.7
11/6/2021 2:45:00 AM 6.91 44.438 7.92 407.8 1072 90.9
11/6/2021 3:00:00 AM 6.9 44.42 7.93 408 1003 90.5
11/6/2021 3:15:00 AM 6.89 44.402 7.92 407.6 1027 91.7
11/6/2021 3:30:00 AM 6.88 44.384 7.94 408.2 1094 91.9
11/6/2021 3:45:00 AM 6.88 44.384 7.94 408.2 1084 91.4
11/6/2021 4:00:00 AM 6.86 44.348 7.94 408.3 1118 92.6
11/6/2021 4:15:00 AM 6.87 44.366 7.94 408.1 1120 91.7
11/6/2021 4:30:00 AM 6.84 44.312 7.94 408.4 1179 92.4
11/6/2021 4:45:00 AM 6.82 44.276 7.95 408.5 1154 91.6
11/6/2021 5:00:00 AM 6.81 44.258 7.95 408.5 1149 91.7
11/6/2021 5:15:00 AM 6.79 44.222 7.92 408.4 1135 92.2
11/6/2021 5:30:00 AM 6.77 44.186 7.93 408.3 1143 92
11/6/2021 5:45:00 AM 6.73 44.114 7.94 408.5 1120 92.4
11/6/2021 6:00:00 AM 6.72 44.096 7.95 408.5 1135 92.2
11/6/2021 6:15:00 AM 6.69 44.042 7.95 408.9 1133 92.5
11/6/2021 6:30:00 AM 6.7 44.06 7.94 408 1140 92
11/6/2021 6:45:00 AM 6.65 43.97 7.95 408.2 1139 91.5
11/6/2021 7:00:00 AM 6.61 43.898 7.94 408.3 1125 92.2
11/6/2021 7:15:00 AM 6.58 43.844 7.95 408.2 1166 92.3
11/6/2021 7:30:00 AM 6.53 43.754 7.95 408.3 1162 93.2
11/6/2021 7:45:00 AM 6.48 43.664 7.95 409 1178 86.2
11/6/2021 8:00:00 AM 6.45 43.61 7.95 408.5 984.7 91.3
11/6/2021 8:15:00 AM 6.44 43.592 7.95 408.4 1156 90.7
11/6/2021 8:30:00 AM 6.4 43.52 7.95 408.7 1134 92.2
11/6/2021 8:45:00 AM 6.38 43.484 7.95 408.8 1115 90.8
11/6/2021 9:00:00 AM 6.37 43.466 7.96 408.6 1089 92.8
11/6/2021 9:15:00 AM 6.37 43.466 7.95 408.8 1072 91.1
11/6/2021 9:30:00 AM 6.38 43.484 7.94 408.6 1125 91.3
11/6/2021 9:45:00 AM 6.39 43.502 7.94 408.5 1095 91.6
11/6/2021 10:00:00 AM 6.39 43.502 7.95 408.5 1104 94
11/6/2021 10:15:00 AM 6.42 43.556 7.96 408.5 1187 94.4
11/6/2021 10:30:00 AM 6.45 43.61 7.96 408.6 1212 94.7
11/6/2021 10:45:00 AM 6.49 43.682 7.96 408.6 1098 94.1
11/6/2021 11:00:00 AM 6.54 43.772 7.97 408.9 1269 91.5
11/6/2021 11:15:00 AM 6.6 43.88 7.97 409.2 1217 92.9
11/6/2021 11:30:00 AM 6.68 44.024 7.97 408.5 1161 95.7
11/6/2021 11:45:00 AM 6.78 44.204 7.98 408.5 1120 92.3
11/6/2021 12:00:00 PM 6.9 44.42 7.99 408.5 1122 95.6
11/6/2021 12:15:00 PM 7.03 44.654 8 408.8 1119 97.7
11/6/2021 12:30:00 PM 7.16 44.888 8 408.7 1134 97
11/6/2021 12:45:00 PM 7.3 45.14 8 408.3 1188 99.4
11/6/2021 1:00:00 PM 7.45 45.41 7.99 408.5 1187 99
11/6/2021 1:15:00 PM 7.65 45.77 8 408.7 1216 99.5
11/6/2021 1:30:00 PM 7.77 45.986 7.99 408.8 1203 99.4
11/6/2021 1:45:00 PM 7.95 46.31 7.98 409 1236 100.4
11/6/2021 2:00:00 PM 8.08 46.544 7.98 409.5 1158 100.4
11/6/2021 2:15:00 PM 8.23 46.814 7.98 409.4 1146 100.1
11/6/2021 2:30:00 PM 8.27 46.886 7.98 410 1176 100.7
11/6/2021 2:45:00 PM 8.35 47.03 7.97 409.5 1167 101.8
11/6/2021 3:00:00 PM 8.35 47.03 7.97 409.8 4683 103.3
11/6/2021 3:15:00 PM 8.36 47.048 8.02 410 1571 102.9
11/6/2021 3:30:00 PM 8.36 47.048 8.04 410.2 1609 101.9
11/6/2021 3:45:00 PM 8.33 46.994 8.05 410.4 1590 101.3
11/6/2021 4:00:00 PM 8.24 46.832 8.05 410.9 1611 101.9
11/6/2021 4:15:00 PM 8.17 46.706 8.05 410.7 1601 101
11/6/2021 4:30:00 PM 7.96 46.328 8.05 411.2 1595 100.7
11/6/2021 4:45:00 PM 7.8 46.04 8.02 411.3 1641 100.9
11/6/2021 5:00:00 PM 7.66 45.788 8.01 411.4 1598 100.3
11/6/2021 5:15:00 PM 7.64 45.752 7.98 410.5 1667 98.6
11/6/2021 5:30:00 PM 7.46 45.428 7.95 411.6 1586 97.9
11/6/2021 5:45:00 PM 7.39 45.302 7.94 411.5 1608 96.6
11/6/2021 6:00:00 PM 7.31 45.158 7.93 411.7 1732 93.8
11/6/2021 6:15:00 PM 7.26 45.068 7.89 412.2 1571 93.3
11/6/2021 6:30:00 PM 7.14 44.852 7.91 411.9 1620 95.3
11/6/2021 6:45:00 PM 7.08 44.744 7.9 412.3 1616 94.5
11/6/2021 7:00:00 PM 7.02 44.636 7.9 412.4 1602 93.8
11/6/2021 7:15:00 PM 6.98 44.564 7.86 412.8 1618 93.9
11/6/2021 7:30:00 PM 6.9 44.42 7.87 414.6 1620 92.9
11/6/2021 7:45:00 PM 6.89 44.402 7.88 414.2 1628 93.4
11/6/2021 8:00:00 PM 6.86 44.348 7.89 413.9 1612 92.5
11/6/2021 8:15:00 PM 6.82 44.276 7.9 414.8 2400 91.8
11/6/2021 8:30:00 PM 6.77 44.186 7.91 415.2 2435 91.5
11/6/2021 8:45:00 PM 6.76 44.168 7.91 415.4 2379 91.6
11/6/2021 9:00:00 PM 6.73 44.114 7.91 415.7 2435 91.6
11/6/2021 9:15:00 PM 6.71 44.078 7.92 415.9 2535 91.8
11/6/2021 9:30:00 PM 6.68 44.024 7.91 416.1 2452 92.3
11/6/2021 9:45:00 PM 6.67 44.006 7.91 416.1 2449 91.7
11/6/2021 10:00:00 PM 6.64 43.952 7.92 416.2 2442 91.7
11/6/2021 10:15:00 PM 6.62 43.916 7.92 416.6 2421 92.1
11/6/2021 10:30:00 PM 6.61 43.898 7.92 417 2422 92.3
11/6/2021 10:45:00 PM 6.57 43.826 7.91 417.2 2543 92.7
11/6/2021 11:00:00 PM 6.58 43.844 7.92 417.4 2508 92.4
11/6/2021 11:15:00 PM 6.55 43.79 7.93 417.7 2526 92.7
11/6/2021 11:30:00 PM 6.55 43.79 7.93 417.8 2502 92.4
11/6/2021 11:45:00 PM 6.55 43.79 7.97 417.9 2496 91.5
11/7/2021 12:00:00 AM 6.55 43.79 7.92 418.2 2499 91.9
11/7/2021 12:15:00 AM 6.56 43.808 7.93 416.7 2479 93.2
11/7/2021 12:30:00 AM 6.55 43.79 7.93 418.3 2507 93.1
11/7/2021 12:45:00 AM 6.56 43.808 7.94 418.3 2499 93
11/7/2021 1:00:00 AM 6.57 43.826 7.94 418.4 2492 93.6
11/7/2021 1:15:00 AM 6.58 43.844 7.94 418.4 2514 93.4
11/7/2021 1:30:00 AM 6.6 43.88 7.95 418.5 2489 93.2
11/7/2021 1:45:00 AM 6.6 43.88 7.95 418.5 2490 93.6
11/7/2021 2:00:00 AM 6.6 43.88 7.96 418.7 2491 94.7
11/7/2021 2:15:00 AM 6.61 43.898 7.95 418.8 2485 93.9
11/7/2021 2:30:00 AM 6.62 43.916 7.96 419 2474 94
11/7/2021 2:45:00 AM 6.62 43.916 7.96 419.4 2487 94.1
11/7/2021 3:00:00 AM 6.63 43.934 7.96 418.7 2494 93.5
11/7/2021 3:15:00 AM 6.59 43.862 7.97 418.7 2471 94.5
11/7/2021 3:30:00 AM 6.59 43.862 7.96 419.2 2456 94.1
11/7/2021 3:45:00 AM 6.57 43.826 7.97 419.1 2454 94.6
11/7/2021 4:00:00 AM 6.55 43.79 7.97 419.3 2451 94.6
11/7/2021 4:15:00 AM 6.54 43.772 7.98 419.2 2452 94.3
11/7/2021 4:30:00 AM 6.51 43.718 7.99 419.2 2448 94.6
11/7/2021 4:45:00 AM 6.49 43.682 7.98 419.3 2433 95
11/7/2021 5:00:00 AM 6.46 43.628 7.98 419.2 2421 94.8
11/7/2021 5:15:00 AM 6.44 43.592 7.98 419 2423 94.3
11/7/2021 5:30:00 AM 6.44 43.592 7.98 418.9 2409 93.8
11/7/2021 5:45:00 AM 6.4 43.52 7.98 418.7 2406 93.9
11/7/2021 6:00:00 AM 6.37 43.466 7.99 418.6 2418 95
11/7/2021 6:15:00 AM 6.35 43.43 7.99 418.6 2411 93.8
11/7/2021 6:30:00 AM 6.33 43.394 7.99 418.8 2398 93.7
11/7/2021 6:45:00 AM 6.29 43.322 7.99 419 2381 94.4
11/7/2021 7:00:00 AM 6.28 43.304 7.99 418.9 2402 93.6
11/7/2021 7:15:00 AM 6.25 43.25 7.99 419 2404 93.5
11/7/2021 7:30:00 AM 6.23 43.214 7.99 419 2380 93.5
11/7/2021 7:45:00 AM 6.21 43.178 7.98 419 2385 93.6
11/7/2021 8:00:00 AM 6.2 43.16 7.99 419 2394 94
11/7/2021 8:15:00 AM 6.19 43.142 8 419 2395 95
11/7/2021 8:30:00 AM 6.2 43.16 7.99 418.8 2407 95.2
11/7/2021 8:45:00 AM 6.21 43.178 7.99 418.6 2395 95.3
11/7/2021 9:00:00 AM 6.24 43.232 8 418.6 2341 96.8
11/7/2021 9:15:00 AM 6.27 43.286 8.01 418.8 2315 97.3
11/7/2021 9:30:00 AM 6.31 43.358 8.01 419.1 2302 97.4
11/7/2021 9:45:00 AM 6.35 43.43 8.02 418.5 2355 98.3
11/7/2021 10:00:00 AM 6.41 43.538 8.02 418.7 2362 99.4
11/7/2021 10:15:00 AM 6.47 43.646 8.02 418.8 2368 99.9
11/7/2021 10:30:00 AM 6.54 43.772 8.02 418.9 2364 99.9
11/7/2021 10:45:00 AM 6.63 43.934 8.02 418.4 2364 99.4
11/7/2021 11:00:00 AM 6.78 44.204 8.03 418.5 2352 100.3
11/7/2021 11:15:00 AM 6.92 44.456 8.03 418.4 2361 101.9
11/7/2021 11:30:00 AM 7.05 44.69 8.03 418.4 2356 102.4
11/7/2021 11:45:00 AM 7.21 44.978 8.03 418.3 2316 103.4
11/7/2021 12:00:00 PM 7.42 45.356 8.03 417.9 2350 104.1
11/7/2021 12:15:00 PM 7.55 45.59 8.02 418.3 2361 103.4
11/7/2021 12:30:00 PM 7.76 45.968 8.02 418.7 2344 105
11/7/2021 12:45:00 PM 7.93 46.274 8.02 418.9 2355 105.7
11/7/2021 1:00:00 PM 8.04 46.472 8.01 418.9 2265 105.3
11/7/2021 1:15:00 PM 8.19 46.742 8 419 2265 104.9
11/7/2021 1:30:00 PM 8.29 46.922 7.99 419.3 2276 104.8
11/7/2021 1:45:00 PM 8.36 47.048 7.99 418.9 2262 103.9
11/7/2021 2:00:00 PM 8.4 47.12 7.98 419.5 2272 103.9
11/7/2021 2:15:00 PM 8.33 46.994 7.97 420.5 2265 104.9
11/7/2021 2:30:00 PM 8.3 46.94 7.95 420.3 2270 104.9
11/7/2021 2:45:00 PM 8.25 46.85 7.96 420.4 2244 104.2
11/7/2021 3:00:00 PM 8.12 46.616 7.97 421 2229 103.6
11/7/2021 3:15:00 PM 8.04 46.472 7.96 420.9 2257 103.2
11/7/2021 3:30:00 PM 7.91 46.238 7.97 421 2277 102.7
11/7/2021 3:45:00 PM 7.78 46.004 7.97 421.1 2302 101.7
11/7/2021 4:00:00 PM 7.63 45.734 7.97 421.4 2311 101.6
11/7/2021 4:15:00 PM 7.56 45.608 7.96 420.9 2300 100.9
11/7/2021 4:30:00 PM 7.48 45.464 7.96 421.2 2299 99.5
11/7/2021 4:45:00 PM 7.38 45.284 7.96 421 2289 99.1
11/7/2021 5:00:00 PM 7.26 45.068 7.95 421.6 2301 98.4
11/7/2021 5:15:00 PM 7.19 44.942 7.95 421.7 2326 96.5
11/7/2021 5:30:00 PM 7.1 44.78 7.95 422.2 2320 96.3
11/7/2021 5:45:00 PM 7.05 44.69 7.94 422.1 2320 95.4
11/7/2021 6:00:00 PM 7.01 44.618 7.94 422.4 2328 94.4
11/7/2021 6:15:00 PM 6.95 44.51 7.93 422.6 1361 94
11/7/2021 6:30:00 PM 6.91 44.438 7.92 422.8 1376 93.2
11/7/2021 6:45:00 PM 6.86 44.348 7.92 423.1 1417 93.7
11/7/2021 7:00:00 PM 6.82 44.276 7.92 423.2 1410 93.7
11/7/2021 7:15:00 PM 6.81 44.258 7.93 423.4 1429 93
11/7/2021 7:30:00 PM 6.76 44.168 7.93 423.9 1425 93.4
11/7/2021 7:45:00 PM 6.74 44.132 7.93 424.1 1441 92.8
11/7/2021 8:00:00 PM 6.71 44.078 7.94 424.3 1445 92.2
11/7/2021 8:15:00 PM 6.69 44.042 7.94 424.6 1458 93.2
11/7/2021 8:30:00 PM 6.68 44.024 7.94 424.8 1459 93.6
11/7/2021 8:45:00 PM 6.65 43.97 7.94 425.1 1482 92.5
11/7/2021 9:00:00 PM 6.64 43.952 7.95 425 1496 92.4
11/7/2021 9:15:00 PM 6.61 43.898 7.94 425.4 1420 93.3
11/7/2021 9:30:00 PM 6.59 43.862 7.94 425.6 1458 93
11/7/2021 9:45:00 PM 6.6 43.88 8.01 425.7 1460 92.2
11/7/2021 10:00:00 PM 6.57 43.826 7.99 426 1450 92.3
11/7/2021 10:15:00 PM 6.56 43.808 7.98 426.3 1425 92.8
11/7/2021 10:30:00 PM 6.56 43.808 7.97 426.5 1477 93.6
11/7/2021 10:45:00 PM 6.56 43.808 7.97 426.5 1479 93.4
11/7/2021 11:00:00 PM 6.56 43.808 7.97 426.7 1487 93.3
11/7/2021 11:15:00 PM 6.57 43.826 7.98 426.9 1524 93.4
11/7/2021 11:30:00 PM 6.58 43.844 7.97 426.9 1493 93.9
11/7/2021 11:45:00 PM 6.59 43.862 7.97 427 1681 93.8
11/8/2021 12:00:00 AM 6.6 43.88 7.97 427 1764 93.7
11/8/2021 12:15:00 AM 6.61 43.898 7.97 427.2 1631 93.5
11/8/2021 12:30:00 AM 6.62 43.916 7.97 427.3 826.6 93
11/8/2021 12:45:00 AM 6.65 43.97 7.98 427.3 789.5 93.8
11/8/2021 1:00:00 AM 6.67 44.006 7.97 427.4 780.3 93.7
11/8/2021 1:15:00 AM 6.68 44.024 7.98 427.6 764.3 94.7
11/8/2021 1:30:00 AM 6.7 44.06 7.99 427.5 789.9 94.1
11/8/2021 1:45:00 AM 6.72 44.096 7.99 427.6 771.5 93.6
11/8/2021 2:00:00 AM 6.73 44.114 8 427.6 746.7 94.2
11/8/2021 2:15:00 AM 6.75 44.15 7.99 427.6 748.2 93.3
11/8/2021 2:30:00 AM 6.76 44.168 7.99 427.6 783.5 93.9
11/8/2021 2:45:00 AM 6.77 44.186 7.99 427.7 733.3 94.4
11/8/2021 3:00:00 AM 6.78 44.204 7.99 426.7 719 94.7
11/8/2021 3:15:00 AM 6.79 44.222 7.99 427.9 710.8 94.3
11/8/2021 3:30:00 AM 6.79 44.222 7.99 427.9 718.7 94.6
11/8/2021 3:45:00 AM 6.8 44.24 7.99 426.5 731.9 93.4
11/8/2021 4:00:00 AM 6.8 44.24 8 427.4 728.1 94.6
11/8/2021 4:15:00 AM 6.8 44.24 8 427.6 725 94.6
11/8/2021 4:30:00 AM 6.79 44.222 8.01 427.4 711.6 95.3
11/8/2021 4:45:00 AM 6.79 44.222 8.01 427.2 720.4 94.7
11/8/2021 5:00:00 AM 6.79 44.222 8.01 427.2 712.9 94.2
11/8/2021 5:15:00 AM 6.78 44.204 8.01 427.3 724.2 94.1
11/8/2021 5:30:00 AM 6.78 44.204 8.02 426.9 720.4 94.1
11/8/2021 5:45:00 AM 6.76 44.168 8.01 426.9 753.1 91.7
11/8/2021 6:00:00 AM 6.75 44.15 8.01 427.1 738.4 93.2
11/8/2021 6:15:00 AM 6.74 44.132 8.01 426.8 728.4 94.7
11/8/2021 6:30:00 AM 6.73 44.114 8.01 426.5 701.9 94.7
11/8/2021 6:45:00 AM 6.72 44.096 8.01 426.1 716.4 93.6
11/8/2021 7:00:00 AM 6.71 44.078 8.01 426.3 691.9 93.2
11/8/2021 7:15:00 AM 6.7 44.06 8.01 426.3 694.6 93
11/8/2021 7:30:00 AM 6.7 44.06 8 426.3 702 92.3
11/8/2021 7:45:00 AM 6.69 44.042 8.02 426.3 696 92.3
11/8/2021 8:00:00 AM 6.71 44.078 8.01 426.1 682.3 92.3
11/8/2021 8:15:00 AM 6.73 44.114 8 426 686.5 93.1
11/8/2021 8:30:00 AM 6.76 44.168 8.01 425.7 687.2 92.9
11/8/2021 8:45:00 AM 6.8 44.24 8 425.8 689.8 93
11/8/2021 9:00:00 AM 6.84 44.312 8 425.7 680.1 93.3
11/8/2021 9:15:00 AM 6.88 44.384 8 425.8 686.6 93.8
11/8/2021 9:30:00 AM 6.95 44.51 8 425.5 683.6 94.7
11/8/2021 9:45:00 AM 6.99 44.582 8 425.7 688.3 94.8
11/8/2021 10:00:00 AM 7.08 44.744 8.01 425.4 688.8 95.7
11/8/2021 10:15:00 AM 7.12 44.816 8 425.7 668.5 97.1
11/8/2021 10:30:00 AM 7.2 44.96 8 425.7 657 97.5
11/8/2021 10:45:00 AM 7.3 45.14 8.01 425.6 656.6 97.7
11/8/2021 11:00:00 AM 7.42 45.356 8 425.8 651.5 98
11/8/2021 11:15:00 AM 7.53 45.554 7.96 426 653 97.5
11/8/2021 11:30:00 AM 7.7 45.86 7.99 425.8 637.7 99.1
11/8/2021 11:45:00 AM 7.9 46.22 8 425.1 651.2 98.7
11/8/2021 12:00:00 PM 8.06 46.508 7.99 424.6 662 99.8
11/8/2021 12:15:00 PM 8.25 46.85 7.99 425.7 644 103.8
11/8/2021 12:30:00 PM 8.49 47.282 7.99 425.2 631.8 104.5
11/8/2021 12:45:00 PM 8.73 47.714 7.98 424.9 631.1 104.9
11/8/2021 1:00:00 PM 8.83 47.894 7.97 425.6 633.4 104.5
11/8/2021 1:15:00 PM 8.95 48.11 7.96 425.9 645.7 105.2
11/8/2021 1:30:00 PM 9.02 48.236 7.98 426.3 638.3 105.3
11/8/2021 1:45:00 PM 9.12 48.416 7.97 426.5 632.3 104.3
11/8/2021 2:00:00 PM 9.2 48.56 7.97 426.6 639.4 103.7
11/8/2021 2:15:00 PM 9.23 48.614 7.97 426.8 638.5 103.5
11/8/2021 2:30:00 PM 9.24 48.632 7.97 426.7 623.3 101.1
11/8/2021 2:45:00 PM 9.18 48.524 7.97 427.2 657.5 100.6
11/8/2021 3:00:00 PM 9.11 48.398 7.96 426.7 697.4 102.1
11/8/2021 3:15:00 PM 8.99 48.182 7.97 427.2 647 101.6
11/8/2021 3:30:00 PM 8.85 47.93 7.98 427 653.7 101.7
11/8/2021 3:45:00 PM 8.73 47.714 7.99 427.1 664 101
11/8/2021 4:00:00 PM 8.56 47.408 8.01 427 668.5 99.7
11/8/2021 4:15:00 PM 8.37 47.066 8.02 427.9 679.3 99.3
11/8/2021 4:30:00 PM 8.27 46.886 8.03 427.2 670 100.4
11/8/2021 4:45:00 PM 8.18 46.724 8 427.3 673.2 98.2
11/8/2021 5:00:00 PM 8.08 46.544 7.97 427.5 727.7 97.5
11/8/2021 5:15:00 PM 8.01 46.418 7.97 423.5 675.1 97.1
11/8/2021 5:30:00 PM 7.99 46.382 7.96 426.6 690.1 95.8
11/8/2021 5:45:00 PM 7.91 46.238 7.95 427.6 673.8 94.6
11/8/2021 6:00:00 PM 7.85 46.13 7.94 427.9 667.3 93
11/8/2021 6:15:00 PM 7.81 46.058 7.93 427.9 683.7 92.6
11/8/2021 6:30:00 PM 7.77 45.986 7.92 428.2 675.4 92.5
11/8/2021 6:45:00 PM 7.76 45.968 7.92 428.2 691.2 92.3
11/8/2021 7:00:00 PM 7.72 45.896 7.91 428 675.5 91.5
11/8/2021 7:15:00 PM 7.7 45.86 7.91 428.2 669.8 92
11/8/2021 7:30:00 PM 7.68 45.824 7.92 428.7 664.8 91.3
11/8/2021 7:45:00 PM 7.67 45.806 7.92 428.4 647.5 91.8
11/8/2021 8:00:00 PM 7.66 45.788 7.92 428.9 652.1 90.7
11/8/2021 8:15:00 PM 7.66 45.788 7.92 429 654.6 90.4
11/8/2021 8:30:00 PM 7.65 45.77 7.92 429.2 655.7 91.1
11/8/2021 8:45:00 PM 7.64 45.752 7.93 429.4 644.3 90.3
11/8/2021 9:00:00 PM 7.64 45.752 7.93 429.6 672.9 90.2
11/8/2021 9:15:00 PM 7.63 45.734 7.93 430 642.6 90.9
11/8/2021 9:30:00 PM 7.62 45.716 7.93 430.2 663.7 90.6
11/8/2021 9:45:00 PM 7.62 45.716 7.93 430.3 657.8 90.3
11/8/2021 10:00:00 PM 7.61 45.698 7.93 430.6 654.9 90.8
11/8/2021 10:15:00 PM 7.61 45.698 7.94 430.7 668.2 90.8
11/8/2021 10:30:00 PM 7.62 45.716 7.93 430.7 651.4 91.4
11/8/2021 10:45:00 PM 7.61 45.698 7.93 430.9 677.7 91.1
11/8/2021 11:00:00 PM 7.62 45.716 7.93 431 670.6 91.4
11/8/2021 11:15:00 PM 7.62 45.716 7.93 431.1 658.7 91.1
11/8/2021 11:30:00 PM 7.64 45.752 7.93 431.3 670.2 91
11/8/2021 11:45:00 PM 7.65 45.77 7.93 431.4 675.5 91
11/9/2021 12:00:00 AM 7.66 45.788 7.94 431.6 660 91.2
11/9/2021 12:15:00 AM 7.67 45.806 7.94 431.6 672.1 91.4
11/9/2021 12:30:00 AM 7.69 45.842 7.94 431.6 684.6 92
11/9/2021 12:45:00 AM 7.71 45.878 7.94 431.6 678.5 92
11/9/2021 1:00:00 AM 7.73 45.914 7.94 431.5 686.6 91.2
11/9/2021 1:15:00 AM 7.75 45.95 7.95 431.5 665.9 91.4
11/9/2021 1:30:00 AM 7.77 45.986 7.95 431.2 693.5 92.1
11/9/2021 1:45:00 AM 7.79 46.022 7.95 431.3 680.1 92
11/9/2021 2:00:00 AM 7.81 46.058 7.96 431 672.4 92.8
11/9/2021 2:15:00 AM 7.84 46.112 7.97 430.7 681.4 93.6
11/9/2021 2:30:00 AM 7.85 46.13 7.96 430.7 693.4 92.9
11/9/2021 2:45:00 AM 7.87 46.166 7.96 430.5 693 92.9
11/9/2021 3:00:00 AM 7.88 46.184 7.96 430.3 697.2 93.4
11/9/2021 3:15:00 AM 7.89 46.202 7.96 430.3 695.2 93.1
11/9/2021 3:30:00 AM 7.9 46.22 7.96 430.3 691.8 93.4
11/9/2021 3:45:00 AM 7.9 46.22 7.97 430.1 683 92.5
11/9/2021 4:00:00 AM 7.91 46.238 7.96 430.3 695.6 92.1
11/9/2021 4:15:00 AM 7.91 46.238 7.96 430.3 696.5 92.5
11/9/2021 4:30:00 AM 7.91 46.238 7.97 430.4 681.9 92.6
11/9/2021 4:45:00 AM 7.91 46.238 7.96 430.2 692.3 92.8
11/9/2021 5:00:00 AM 7.91 46.238 7.97 430.5 681.1 91.4
11/9/2021 5:15:00 AM 7.9 46.22 7.97 430.4 681.3 92.4
11/9/2021 5:30:00 AM 7.9 46.22 7.97 430.6 695.1 92.7
11/9/2021 5:45:00 AM 7.9 46.22 7.97 430.6 689.9 92.6
11/9/2021 6:00:00 AM 7.89 46.202 7.97 430.7 694.6 93.1
11/9/2021 6:15:00 AM 7.89 46.202 7.97 430.4 692.3 93
11/9/2021 6:30:00 AM 7.88 46.184 7.97 430.5 703.6 92.3
11/9/2021 6:45:00 AM 7.87 46.166 7.96 430.5 686 91.1
11/9/2021 7:00:00 AM 7.87 46.166 7.97 430.1 645.5 92.4
11/9/2021 7:15:00 AM 7.87 46.166 7.96 427.6 640.1 91.8
11/9/2021 7:30:00 AM 7.86 46.148 7.96 427 639.1 92.1
11/9/2021 7:45:00 AM 7.87 46.166 7.96 426.6 639.9 91.4
11/9/2021 8:00:00 AM 7.88 46.184 7.97 426.5 637.4 91.8
11/9/2021 8:15:00 AM 7.9 46.22 7.97 427.4 641.7 93.7
11/9/2021 8:30:00 AM 7.93 46.274 7.97 427 639.4 93.6
11/9/2021 8:45:00 AM 7.96 46.328 7.98 426.5 638.5 94.5
11/9/2021 9:00:00 AM 8 46.4 7.98 426.5 635.7 95.6
11/9/2021 9:15:00 AM 8.05 46.49 7.98 426.3 638.2 95.8
11/9/2021 9:30:00 AM 8.1 46.58 7.98 428.6 636.7 96.1
11/9/2021 9:45:00 AM 8.14 46.652 7.98 428.2 631.8 97.2
11/9/2021 10:00:00 AM 8.2 46.76 7.98 428.2 633.7 97.1
11/9/2021 10:15:00 AM 8.27 46.886 7.98 426.9 634.2 98.3
11/9/2021 10:30:00 AM 8.35 47.03 7.98 425.1 632.8 98.6
11/9/2021 10:45:00 AM 8.5 47.3 7.98 424.4 650.7 99
11/9/2021 11:00:00 AM 8.61 47.498 7.98 424.6 632 100
11/9/2021 11:15:00 AM 8.79 47.822 7.98 424.4 679 102.3
11/9/2021 11:30:00 AM 8.94 48.092 7.99 423.9 641.5 102.7
11/9/2021 11:45:00 AM 9.1 48.38 7.98 424.1 678.8 104.3
11/9/2021 12:00:00 PM 9.25 48.65 7.98 424.3 689.5 105.2
11/9/2021 12:15:00 PM 9.5 49.1 7.98 423.9 700.2 105.7
11/9/2021 12:30:00 PM 9.71 49.478 7.98 423.9 699.9 107.3
11/9/2021 12:45:00 PM 9.88 49.784 7.97 424.4 671.6 107.2
11/9/2021 1:00:00 PM 10.04 50.072 7.97 424.5 668.9 107.4
11/9/2021 1:15:00 PM 10.14 50.252 7.97 424.7 656.7 108
11/9/2021 1:30:00 PM 10.23 50.414 7.97 424.8 670.1 107.8
11/9/2021 1:45:00 PM 10.32 50.576 7.96 425 664.6 107.3
11/9/2021 2:00:00 PM 10.36 50.648 7.97 424.9 664 105
11/9/2021 2:15:00 PM 10.4 50.72 7.96 424.1 679 106.8
11/9/2021 2:30:00 PM 10.39 50.702 7.96 424.3 672.7 107.7
11/9/2021 2:45:00 PM 10.37 50.666 7.97 423.7 690.7 107.5
11/9/2021 3:00:00 PM 10.27 50.486 7.96 424.3 698.5 107.5
11/9/2021 3:15:00 PM 10.15 50.27 7.96 425 707.9 106.7
11/9/2021 3:30:00 PM 9.97 49.946 7.96 425.6 713.9 103.3
11/9/2021 3:45:00 PM 9.84 49.712 7.96 428 691.6 102.7
11/9/2021 4:00:00 PM 9.7 49.46 7.96 425.2 657.9 101
11/9/2021 4:15:00 PM 9.56 49.208 7.95 426.3 703.3 100.3
11/9/2021 4:30:00 PM 9.46 49.028 7.95 426.1 719.8 100.3
11/9/2021 4:45:00 PM 9.36 48.848 7.94 427 693.4 98.9
11/9/2021 5:00:00 PM 9.28 48.704 7.94 426 664.8 97.7
11/9/2021 5:15:00 PM 9.18 48.524 7.93 425.1 696 96.8
11/9/2021 5:30:00 PM 9.13 48.434 7.91 426.6 679.7 95.7
11/9/2021 5:45:00 PM 9.08 48.344 7.9 426.8 686.3 93.8
11/9/2021 6:00:00 PM 9.06 48.308 7.88 431 685.5 91.6
11/9/2021 6:15:00 PM 8.99 48.182 7.88 431.7 658.4 89.8
11/9/2021 6:30:00 PM 8.98 48.164 7.87 431.8 652.8 90.7
11/9/2021 6:45:00 PM 8.95 48.11 7.86 432.1 649.7 89.9
11/9/2021 7:00:00 PM 8.91 48.038 7.87 432.4 652.4 88.7
11/9/2021 7:15:00 PM 8.91 48.038 7.86 432.4 612.1 87.9
11/9/2021 7:30:00 PM 8.89 48.002 7.85 432.7 656.4 87.2
11/9/2021 7:45:00 PM 8.87 47.966 7.85 432.9 669.2 87.5
11/9/2021 8:00:00 PM 8.86 47.948 7.82 433.1 658.5 87.5
11/9/2021 8:15:00 PM 8.85 47.93 7.85 433.1 649.1 86.6
11/9/2021 8:30:00 PM 8.85 47.93 7.84 433.3 671.9 85.9
11/9/2021 8:45:00 PM 8.83 47.894 7.83 433.7 677 86.6
11/9/2021 9:00:00 PM 8.82 47.876 7.83 433.7 649.3 88.2
11/9/2021 9:15:00 PM 8.83 47.894 7.85 433.8 688.6 87.4
11/9/2021 9:30:00 PM 8.82 47.876 7.85 433.9 678.7 87
11/9/2021 9:45:00 PM 8.83 47.894 7.85 434.1 692.2 88.2
11/9/2021 10:00:00 PM 8.84 47.912 7.84 434.2 666.8 87.9
11/9/2021 10:15:00 PM 8.85 47.93 7.85 434.2 711.5 86.8
11/9/2021 10:30:00 PM 8.85 47.93 7.85 434.4 660.8 86.8
11/9/2021 10:45:00 PM 8.86 47.948 7.85 434.6 662.9 87.2
11/9/2021 11:00:00 PM 8.88 47.984 7.82 434.8 688.5 87.8
11/9/2021 11:15:00 PM 8.89 48.002 7.84 435.1 734.8 87.2
11/9/2021 11:30:00 PM 8.9 48.02 7.85 435.2 696.3 88
11/9/2021 11:45:00 PM 8.9 48.02 7.85 435.2 688.8 88.3
11/10/2021 12:00:00 AM 8.91 48.038 7.85 435.4 703.8 88.3
11/10/2021 12:15:00 AM 8.91 48.038 7.85 435.3 678.9 89
11/10/2021 12:30:00 AM 8.93 48.074 7.85 435.3 681.6 88.9
11/10/2021 12:45:00 AM 8.95 48.11 7.81 435.2 671.5 88.2
11/10/2021 1:00:00 AM 8.99 48.182 7.83 435 663.6 88.2
11/10/2021 1:15:00 AM 9.02 48.236 7.82 435 662.9 87.7
11/10/2021 1:30:00 AM 9.05 48.29 7.84 431.5 643.4 88.9
11/10/2021 1:45:00 AM 9.1 48.38 7.84 434.5 637.3 88.7
11/10/2021 2:00:00 AM 9.13 48.434 7.85 434.2 638.2 88.9
11/10/2021 2:15:00 AM 9.17 48.506 7.83 434.1 660.1 89
11/10/2021 2:30:00 AM 9.22 48.596 7.84 433.9 649.4 89.6
11/10/2021 2:45:00 AM 9.25 48.65 7.85 433.8 657.3 90.3
11/10/2021 3:00:00 AM 9.27 48.686 7.85 433.8 648.9 89.7
11/10/2021 3:15:00 AM 9.31 48.758 7.85 433.8 654.6 89.5
11/10/2021 3:30:00 AM 9.35 48.83 7.86 433.7 645.1 89.5
11/10/2021 3:45:00 AM 9.38 48.884 7.83 433.6 654.5 89.2
11/10/2021 4:00:00 AM 9.39 48.902 7.84 434.1 664.8 89.3
11/10/2021 4:15:00 AM 9.42 48.956 7.83 434 648.5 90.1
11/10/2021 4:30:00 AM 9.44 48.992 7.85 434.2 615.8 89.2
11/10/2021 4:45:00 AM 9.46 49.028 7.84 434.4 504.4 89
11/10/2021 5:00:00 AM 9.47 49.046 7.84 434.4 485.9 87.9
11/10/2021 5:15:00 AM 9.48 49.064 7.85 434.6 504 87.8
11/10/2021 5:30:00 AM 9.49 49.082 7.85 434.7 531.5 88.2
11/10/2021 5:45:00 AM 9.48 49.064 7.85 434.6 535.9 87.8
11/10/2021 6:00:00 AM 9.47 49.046 7.86 434.9 570.7 88.9
11/10/2021 6:15:00 AM 9.47 49.046 7.87 436.6 561.8 88.3
11/10/2021 6:30:00 AM 9.45 49.01 7.86 436.6 462.2 88.8
11/10/2021 6:45:00 AM 9.43 48.974 7.85 436 430.2 88.3
11/10/2021 7:00:00 AM 9.42 48.956 7.9 436.5 423.9 88.6
11/10/2021 7:15:00 AM 9.41 48.938 7.87 436.3 421.1 89.4
11/10/2021 7:30:00 AM 9.4 48.92 7.86 436.3 412.6 89.2
11/10/2021 7:45:00 AM 9.4 48.92 7.86 436.3 427.7 89.4
11/10/2021 8:00:00 AM 9.41 48.938 7.86 436.4 429.3 89.3
11/10/2021 8:15:00 AM 9.43 48.974 7.83 436.2 438.8 90.8
11/10/2021 8:30:00 AM 9.48 49.064 7.86 436 430.1 89.9
11/10/2021 8:45:00 AM 9.52 49.136 7.83 435.9 442.2 90.7
11/10/2021 9:00:00 AM 9.56 49.208 7.84 435.9 443 91
11/10/2021 9:15:00 AM 9.63 49.334 7.84 435.6 490.2 92.3
11/10/2021 9:30:00 AM 9.71 49.478 7.85 435.2 426.9 93.7
11/10/2021 9:45:00 AM 9.72 49.496 7.85 435.6 444.4 92.7
11/10/2021 10:00:00 AM 9.79 49.622 7.85 434.9 418.3 93.9
11/10/2021 10:15:00 AM 9.89 49.802 7.84 434.6 418 96.1
11/10/2021 10:30:00 AM 9.95 49.91 7.85 434.3 448 97.9
11/10/2021 10:45:00 AM 10.01 50.018 7.86 434.1 440.2 98.3
11/10/2021 11:00:00 AM 10.1 50.18 7.88 433.6 462.5 98.1
11/10/2021 11:15:00 AM 10.25 50.45 7.89 433.3 460.7 98.7
11/10/2021 11:30:00 AM 10.35 50.63 7.88 433.6 453 98.6
11/10/2021 11:45:00 AM 10.51 50.918 7.88 433.7 538.4 100.4
11/10/2021 12:00:00 PM 10.67 51.206 7.88 433.1 462.3 100.4
11/10/2021 12:15:00 PM 10.82 51.476 7.88 433.9 462.6 101.2
11/10/2021 12:30:00 PM 11.18 52.124 7.89 432.8 468.8 103.5
11/10/2021 12:45:00 PM 11.32 52.376 7.87 433.8 472.7 104.7
11/10/2021 1:00:00 PM 11.45 52.61 7.88 434.3 598.9 105.4
11/10/2021 1:15:00 PM 11.56 52.808 7.87 434.5 584.2 105
11/10/2021 1:30:00 PM 11.65 52.97 7.76 435 585.4 104.1
11/10/2021 1:45:00 PM 11.74 53.132 7.84 434.8 555.2 104
11/10/2021 2:00:00 PM 11.79 53.222 7.85 435 580.1 104.1
11/10/2021 2:15:00 PM 11.76 53.168 7.84 435.7 567.8 102.7
11/10/2021 2:30:00 PM 11.77 53.186 7.82 435.1 576 104.5
11/10/2021 2:45:00 PM 11.74 53.132 7.85 435.7 591 102.4
11/10/2021 3:00:00 PM 11.61 52.898 7.86 436.4 607.9 100.6
11/10/2021 3:15:00 PM 11.5 52.7 7.86 436.5 603 100.6
11/10/2021 3:30:00 PM 11.36 52.448 7.85 436.7 613.9 101.1
11/10/2021 3:45:00 PM 11.13 52.034 7.85 437.4 600.3 98.5
11/10/2021 4:00:00 PM 10.99 51.782 7.76 437 584.8 96.7
11/10/2021 4:15:00 PM 10.85 51.53 7.82 437.1 597.6 96.1
11/10/2021 4:30:00 PM 10.74 51.332 7.85 436.8 572 94.8
11/10/2021 4:45:00 PM 10.67 51.206 7.83 436.4 577.4 94.4
11/10/2021 5:00:00 PM 10.55 50.99 7.84 436.6 587.5 92.6
11/10/2021 5:15:00 PM 10.47 50.846 7.83 436.9 603 91.2
11/10/2021 5:30:00 PM 10.38 50.684 7.82 437.3 583.3 90.7
11/10/2021 5:45:00 PM 10.29 50.522 7.82 437.2 585.9 89.3
11/10/2021 6:00:00 PM 10.24 50.432 7.82 437 603.3 88.9
11/10/2021 6:15:00 PM 10.2 50.36 7.82 437.4 571.7 88.8
11/10/2021 6:30:00 PM 10.16 50.288 7.82 437.5 622.5 88.2
11/10/2021 6:45:00 PM 10.12 50.216 7.81 437.7 587.5 87.5
11/10/2021 7:00:00 PM 10.11 50.198 7.8 437.9 578.1 86.6
11/10/2021 7:15:00 PM 10.09 50.162 7.8 438.4 579.9 86.1
11/10/2021 7:30:00 PM 10.09 50.162 7.8 438.5 580.2 86.1
11/10/2021 7:45:00 PM 10.07 50.126 7.79 438.7 580.5 85.3
11/10/2021 8:00:00 PM 10.04 50.072 7.8 438.6 587.7 86.5
11/10/2021 8:15:00 PM 10.03 50.054 7.79 438.8 580.8 86.6
11/10/2021 8:30:00 PM 10 50 7.81 438.9 585.3 86.6
11/10/2021 8:45:00 PM 9.98 49.964 7.81 438.9 586.1 81.8
11/10/2021 9:00:00 PM 9.97 49.946 7.82 439.3 588 85.1
11/10/2021 9:15:00 PM 9.95 49.91 7.81 439.6 597.2 84.3
11/10/2021 9:30:00 PM 9.94 49.892 7.81 439.9 591.9 85.4
11/10/2021 9:45:00 PM 9.94 49.892 7.81 440 604 86
11/10/2021 10:00:00 PM 9.92 49.856 7.81 440.5 596.2 85.6
11/10/2021 10:15:00 PM 9.91 49.838 7.8 440.7 588.2 84
11/10/2021 10:30:00 PM 9.89 49.802 7.8 440.7 593.9 84.7
11/10/2021 10:45:00 PM 9.89 49.802 7.79 440.9 594.8 85
11/10/2021 11:00:00 PM 9.88 49.784 7.81 441 606.8 86
11/10/2021 11:15:00 PM 9.87 49.766 7.82 441.1 606.6 87.2
11/10/2021 11:30:00 PM 9.87 49.766 7.8 441.2 618.4 85.8
11/10/2021 11:45:00 PM 9.87 49.766 7.8 441.1 621.2 85.7
11/11/2021 12:00:00 AM 9.87 49.766 7.8 441.1 618.6 86.1
11/11/2021 12:15:00 AM 9.88 49.784 7.81 441.2 615.7 86.6
11/11/2021 12:30:00 AM 9.87 49.766 7.8 441.1 615.2 86.2
11/11/2021 12:45:00 AM 9.88 49.784 7.8 441.2 614.6 84.6
11/11/2021 1:00:00 AM 9.88 49.784 7.81 441.1 613.4 85.5
11/11/2021 1:15:00 AM 9.89 49.802 7.81 441.1 628.7 85.7
11/11/2021 1:30:00 AM 9.89 49.802 7.82 441.2 626.4 84.5
11/11/2021 1:45:00 AM 9.9 49.82 7.84 441 631.5 85.6
11/11/2021 2:00:00 AM 9.91 49.838 7.83 441 656.2 85.1
11/11/2021 2:15:00 AM 9.92 49.856 7.8 441.1 658.1 86.6
11/11/2021 2:30:00 AM 9.92 49.856 7.83 441.1 656.6 87.4
11/11/2021 2:45:00 AM 9.93 49.874 7.83 441.1 654.2 87.2
11/11/2021 3:00:00 AM 9.94 49.892 7.84 441.2 646.7 86.7
11/11/2021 3:15:00 AM 9.94 49.892 7.83 441.2 657.1 85.5
11/11/2021 3:30:00 AM 9.94 49.892 7.83 441.4 651.8 86.4
11/11/2021 3:45:00 AM 9.95 49.91 7.84 441.5 632.3 86.8
11/11/2021 4:00:00 AM 9.96 49.928 7.83 441.4 644.8 83.9
11/11/2021 4:15:00 AM 9.95 49.91 7.84 441.5 650.2 84.2
11/11/2021 4:30:00 AM 9.95 49.91 7.85 441.5 788.7 85.7
11/11/2021 4:45:00 AM 9.95 49.91 7.86 441.4 617.2 85.6
11/11/2021 5:00:00 AM 9.93 49.874 7.86 441.6 687.8 85.6
11/11/2021 5:15:00 AM 9.93 49.874 7.86 441.4 789.5 86.9
11/11/2021 5:30:00 AM 9.91 49.838 7.86 441.3 741.6 87.8
11/11/2021 5:45:00 AM 9.9 49.82 7.87 441.4 715 88
11/11/2021 6:00:00 AM 9.89 49.802 7.87 441.4 695.5 87
11/11/2021 6:15:00 AM 9.87 49.766 7.87 441.5 717.9 88.2
11/11/2021 6:30:00 AM 9.85 49.73 7.86 441.4 714.1 86.5
11/11/2021 6:45:00 AM 9.83 49.694 7.87 441.3 687.4 87.8
11/11/2021 7:00:00 AM 9.8 49.64 7.87 441.2 693 86.6
11/11/2021 7:15:00 AM 9.78 49.604 7.88 440.9 680.3 86.1
11/11/2021 7:30:00 AM 9.76 49.568 7.88 441 654.8 86.9
11/11/2021 7:45:00 AM 9.75 49.55 7.89 441.1 650 87.9
11/11/2021 8:00:00 AM 9.76 49.568 7.89 441 581.7 87.5
11/11/2021 8:15:00 AM 9.77 49.586 7.89 440.9 561.6 87
11/11/2021 8:30:00 AM 9.78 49.604 7.9 440.8 544.8 88.1
11/11/2021 8:45:00 AM 9.8 49.64 7.9 440.9 549.8 89.5
11/11/2021 9:00:00 AM 9.83 49.694 7.91 440.7 574 90
11/11/2021 9:15:00 AM 9.86 49.748 7.92 440.7 582.8 91.3
11/11/2021 9:30:00 AM 9.92 49.856 7.93 440.5 569.3 94.5
11/11/2021 9:45:00 AM 9.99 49.982 7.94 440.1 579.9 96.5
11/11/2021 10:00:00 AM 10.06 50.108 7.95 439.9 621.8 99.1
11/11/2021 10:15:00 AM 10.13 50.234 7.96 439.6 622.6 100.5
11/11/2021 10:30:00 AM 10.19 50.342 7.96 439.4 623 99.1
11/11/2021 10:45:00 AM 10.3 50.54 7.97 438.7 608.2 101.2
11/11/2021 11:00:00 AM 10.36 50.648 7.98 438.7 633 101.2
11/11/2021 11:15:00 AM 10.43 50.774 7.98 438.9 618.4 102.7
11/11/2021 11:30:00 AM 10.53 50.954 7.98 438.7 626.5 102.9
11/11/2021 11:45:00 AM 10.63 51.134 7.99 438.5 635.7 105.9
11/11/2021 12:00:00 PM 10.74 51.332 7.99 437.9 594.6 105.2
11/11/2021 12:15:00 PM 10.76 51.368 7.98 438.3 608.1 104.5
11/11/2021 12:30:00 PM 10.87 51.566 7.98 438.5 618.9 105.5
11/11/2021 12:45:00 PM 11.08 51.944 7.96 437.9 608.4 106.7
11/11/2021 1:00:00 PM 11.12 52.016 7.94 438.7 604.8 105.9
11/11/2021 1:15:00 PM 11.1 51.98 7.94 438.9 616.1 104
11/11/2021 1:30:00 PM 11.08 51.944 7.94 438.9 628.9 101.1
11/11/2021 1:45:00 PM 11.06 51.908 7.95 439.1 619.5 102.2
11/11/2021 2:00:00 PM 11.07 51.926 7.94 439 601.1 105.7
11/11/2021 2:15:00 PM 11.06 51.908 7.95 439.2 585.8 107.3
11/11/2021 2:30:00 PM 11.06 51.908 7.93 439.2 599.7 105.5
11/11/2021 2:45:00 PM 11.11 51.998 7.93 439.1 600.4 107.5
11/11/2021 3:00:00 PM 11.09 51.962 7.92 439.7 598.9 105.2
11/11/2021 3:15:00 PM 11 51.8 7.9 440 635.9 103.2
11/11/2021 3:30:00 PM 10.93 51.674 7.91 440.2 633.1 102.5
11/11/2021 3:45:00 PM 10.89 51.602 7.93 440.4 645.5 100.9
11/11/2021 4:00:00 PM 10.85 51.53 7.93 440.4 634.4 101.9
11/11/2021 4:15:00 PM 10.78 51.404 7.92 440.9 589.9 101.3
11/11/2021 4:30:00 PM 10.69 51.242 7.91 441.2 618.2 100.5
11/11/2021 4:45:00 PM 10.62 51.116 7.9 441.7 719.5 97.5
11/11/2021 5:00:00 PM 10.57 51.026 7.89 441.9 643.9 96.3
11/11/2021 5:15:00 PM 10.54 50.972 7.88 441.9 628.3 95.2
11/11/2021 5:30:00 PM 10.49 50.882 7.87 442.4 641 92.1
11/11/2021 5:45:00 PM 10.41 50.738 7.86 443 642.1 90.4
11/11/2021 6:00:00 PM 10.39 50.702 7.86 442.9 568.5 89.9
11/11/2021 6:15:00 PM 10.34 50.612 7.85 443.2 556 89
11/11/2021 6:30:00 PM 10.3 50.54 7.84 443.6 584 88.5
11/11/2021 6:45:00 PM 10.28 50.504 7.83 443.8 595.7 86.5
11/11/2021 7:00:00 PM 10.26 50.468 7.82 444.1 599.7 86.4
11/11/2021 7:15:00 PM 10.24 50.432 7.82 444.3 575.6 86.1
11/11/2021 7:30:00 PM 10.24 50.432 7.81 444.6 595.4 86.1
11/11/2021 7:45:00 PM 10.23 50.414 7.81 444.8 590.4 86.8
11/11/2021 8:00:00 PM 10.23 50.414 7.82 445 555 86.6
11/11/2021 8:15:00 PM 10.23 50.414 7.82 444.2 566 86.8
11/11/2021 8:30:00 PM 10.24 50.432 7.82 445.4 576.7 87.4
11/11/2021 8:45:00 PM 10.26 50.468 7.82 445.4 557.3 87.2
11/11/2021 9:00:00 PM 10.27 50.486 7.81 445.8 543.6 87.5
11/11/2021 9:15:00 PM 10.27 50.486 7.8 446 557.3 86.8
11/11/2021 9:30:00 PM 10.28 50.504 7.8 446.3 558.5 87
11/11/2021 9:45:00 PM 10.29 50.522 7.81 446.2 562 87.6
11/11/2021 10:00:00 PM 10.3 50.54 7.81 446.1 563.6 87.5
11/11/2021 10:15:00 PM 10.32 50.576 7.81 446.1 575.4 87.5
11/11/2021 10:30:00 PM 10.33 50.594 7.8 446.3 592.4 87.6
11/11/2021 10:45:00 PM 10.34 50.612 7.81 446.5 595.4 87.8
11/11/2021 11:00:00 PM 10.34 50.612 7.81 446.6 598.2 87.8
11/11/2021 11:15:00 PM 10.34 50.612 7.81 446.8 590.9 87.8
11/11/2021 11:30:00 PM 10.35 50.63 7.81 446.9 595.1 87.4
11/11/2021 11:45:00 PM 10.36 50.648 7.8 447.2 606.5 87
11/12/2021 12:00:00 AM 10.37 50.666 7.8 447.3 781.2 86.6
11/12/2021 12:15:00 AM 10.39 50.702 7.8 447.4 593.1 87.4
11/12/2021 12:30:00 AM 10.41 50.738 7.79 447.5 614.9 84.8
11/12/2021 12:45:00 AM 10.42 50.756 7.79 447.8 619.5 83.9
11/12/2021 1:00:00 AM 10.44 50.792 7.79 447.9 622.1 84.6
11/12/2021 1:15:00 AM 10.47 50.846 7.79 448 626.5 85.4
11/12/2021 1:30:00 AM 10.5 50.9 7.79 448 609 86.4
11/12/2021 1:45:00 AM 10.53 50.954 7.8 447.9 630.1 87
11/12/2021 2:00:00 AM 10.58 51.044 7.8 447.6 614.3 87.8
11/12/2021 2:15:00 AM 10.62 51.116 7.8 447.2 619.2 85.7
11/12/2021 2:30:00 AM 10.65 51.17 7.81 445.7 630.1 86.1
11/12/2021 2:45:00 AM 10.69 51.242 7.8 444.1 511.2 85.6
11/12/2021 3:00:00 AM 10.75 51.35 7.81 440.6 570.8 85
11/12/2021 3:15:00 AM 10.84 51.512 7.82 438.5 565.3 85.3
11/12/2021 3:30:00 AM 10.9 51.62 7.83 435.1 470.1 87.6
11/12/2021 3:45:00 AM 10.93 51.674 7.83 432.8 545.6 88.4
11/12/2021 4:00:00 AM 11.02 51.836 7.81 429.5 664.6 86.7
11/12/2021 4:15:00 AM 11.1 51.98 7.8 426.9 428 86.7
11/12/2021 4:30:00 AM 11.18 52.124 7.81 421.4 398.1 87.8
11/12/2021 4:45:00 AM 11.27 52.286 7.8 416.1 396.8 86.6
11/12/2021 5:00:00 AM 11.33 52.394 7.79 412.8 394.7 85.4
11/12/2021 5:15:00 AM 11.35 52.43 7.78 411.7 383.5 84.7
11/12/2021 5:30:00 AM 11.38 52.484 7.77 405.6 384.5 82.2
11/12/2021 5:45:00 AM 11.51 52.718 7.77 400.1 377 85.3
11/12/2021 6:00:00 AM 11.55 52.79 7.76 394.1 364.5 85.5
11/12/2021 6:15:00 AM 11.54 52.772 7.74 387.3 362 84.5
11/12/2021 6:30:00 AM 11.56 52.808 7.73 387.2 350.8 83.7
11/12/2021 6:45:00 AM 11.56 52.808 7.71 384.7 360.1 84
11/12/2021 7:00:00 AM 11.54 52.772 7.71 383.6 371.2 82.8
11/12/2021 7:15:00 AM 11.53 52.754 7.7 383.4 374.9 83.7
11/12/2021 7:30:00 AM 11.51 52.718 7.69 383.8 375.8 82.2
11/12/2021 7:45:00 AM 11.49 52.682 7.69 385.1 364.3 82.8
11/12/2021 8:00:00 AM 11.47 52.646 7.68 390.9 362.7 81.5
11/12/2021 8:15:00 AM 11.47 52.646 7.68 394.5 367 80.8
11/12/2021 8:30:00 AM 11.45 52.61 7.68 396.4 361.6 80.9
11/12/2021 8:45:00 AM 11.44 52.592 7.67 399 357.9 82.3
11/12/2021 9:00:00 AM 11.44 52.592 7.67 401.5 353.5 83.1
11/12/2021 9:15:00 AM 11.43 52.574 7.68 405.3 321 84.7
11/12/2021 9:30:00 AM 11.42 52.556 7.68 406.2 383.2 84.8
11/12/2021 9:45:00 AM 11.42 52.556 7.69 409.1 361.4 84.5
11/12/2021 10:00:00 AM 11.44 52.592 7.7 410 379.3 85.6
11/12/2021 10:15:00 AM 11.48 52.664 7.7 413 362 87.4
11/12/2021 10:30:00 AM 11.53 52.754 7.7 414.5 349.7 88.4
11/12/2021 10:45:00 AM 11.57 52.826 7.71 416.1 355.9 88.8
11/12/2021 11:00:00 AM 11.64 52.952 7.73 417.4 362.7 90.7
11/12/2021 11:15:00 AM 11.73 53.114 7.76 421.4 377.2 92.5
11/12/2021 11:30:00 AM 11.81 53.258 7.76 423.4 356.8 94.3
11/12/2021 11:45:00 AM 11.9 53.42 7.76 424.8 379.3 95
11/12/2021 12:00:00 PM 12 53.6 7.76 426.2 376.1 95.7
11/12/2021 12:15:00 PM 12.06 53.708 7.76 427.7 378.7 95.8
11/12/2021 12:30:00 PM 12.13 53.834 7.76 428.3 395.5 95.8
11/12/2021 12:45:00 PM 12.22 53.996 7.75 428.5 354.4 95.1
11/12/2021 1:00:00 PM 12.28 54.104 7.75 428.3 349.3 95
11/12/2021 1:15:00 PM 12.33 54.194 7.75 427.5 373.4 95.1
11/12/2021 1:30:00 PM 12.37 54.266 7.75 426.4 363.5 94.8
11/12/2021 1:45:00 PM 12.38 54.284 7.74 424.4 371.2 94.2
11/12/2021 2:00:00 PM 12.38 54.284 7.73 421.9 370.6 93.7
11/12/2021 2:15:00 PM 12.38 54.284 7.72 418.4 350.8 92.4
11/12/2021 2:30:00 PM 12.36 54.248 7.71 413.4 373.7 91
11/12/2021 2:45:00 PM 12.33 54.194 7.69 405.9 372.4 89.8
11/12/2021 3:00:00 PM 12.31 54.158 7.66 398.9 362.7 88.8
11/12/2021 3:15:00 PM 12.28 54.104 7.64 392.5 385.5 88.5
11/12/2021 3:30:00 PM 12.27 54.086 7.63 390.6 386.9 88.5
11/12/2021 3:45:00 PM 12.29 54.122 7.64 390.8 433.2 89.6
11/12/2021 4:00:00 PM 12.29 54.122 7.64 390.4 417.1 90.4
11/12/2021 4:15:00 PM 12.28 54.104 7.65 388.2 407.2 89.9
11/12/2021 4:30:00 PM 12.26 54.068 7.64 380.5 493.2 89.5
11/12/2021 4:45:00 PM 12.24 54.032 7.62 369.2 391.3 88.9
11/12/2021 5:00:00 PM 12.21 53.978 7.61 359.7 381.2 89.4
11/12/2021 5:15:00 PM 12.16 53.888 7.59 354 398.4 90.4
11/12/2021 5:30:00 PM 12.11 53.798 7.44 347.3 259.7 89.3
11/12/2021 5:45:00 PM 12.06 53.708 7.55 341.2 313.4 88.1
11/12/2021 6:00:00 PM 12.02 53.636 7.55 334.5 279.3 88
11/12/2021 6:15:00 PM 12 53.6 7.54 327 214.8 87.8
11/12/2021 6:30:00 PM 11.99 53.582 7.53 316.8 215.3 87.1
11/12/2021 6:45:00 PM 11.98 53.564 7.52 305.2 621.6 87
11/12/2021 7:00:00 PM 11.99 53.582 7.5 292.8 292.2 86.9
11/12/2021 7:15:00 PM 11.99 53.582 7.48 281.8 237.8 86.5
11/12/2021 7:30:00 PM 11.99 53.582 7.47 271.7 273.3 86.5
11/12/2021 7:45:00 PM 11.98 53.564 7.45 263.4 241.6 86.3
11/12/2021 8:00:00 PM 11.96 53.528 7.45 256.9 275.5 85.7
11/12/2021 8:15:00 PM 11.94 53.492 7.44 251.9 274.1 85.5
11/12/2021 8:30:00 PM 11.92 53.456 7.43 248.4 1155 85.4
11/12/2021 8:45:00 PM 11.89 53.402 7.42 244.7 722.7 84.6
11/12/2021 9:00:00 PM 11.88 53.384 7.42 242 1229 84.8
11/12/2021 9:15:00 PM 11.86 53.348 7.41 240 642.5 84.6
11/12/2021 9:30:00 PM 11.85 53.33 7.41 239.3 464.5 83.3
11/12/2021 9:45:00 PM 11.84 53.312 7.4 235.6 399.3 82.9
11/12/2021 10:00:00 PM 11.82 53.276 7.4 232.1 433.1 82.9
11/12/2021 10:15:00 PM 11.81 53.258 7.39 227.8 436.8 83.2
11/12/2021 10:30:00 PM 11.8 53.24 7.39 225.2 446.1 83.3
11/12/2021 10:45:00 PM 11.79 53.222 7.4 223.1 467 83.2
11/12/2021 11:00:00 PM 11.78 53.204 7.38 220.5 422 83.7
11/12/2021 11:15:00 PM 11.77 53.186 7.38 219.2 439.6 83.3
11/12/2021 11:30:00 PM 11.76 53.168 7.37 219.2 431.7 83.2
11/12/2021 11:45:00 PM 11.75 53.15 7.37 219.5 430.5 83.2
11/13/2021 12:00:00 AM 11.74 53.132 7.37 219.5 461.7 83
11/13/2021 12:15:00 AM 11.73 53.114 7.36 218.3 461.7 83.5
11/13/2021 12:30:00 AM 11.72 53.096 7.36 217.8 506.5 83.9
11/13/2021 12:45:00 AM 11.7 53.06 7.36 217.7 487.7 84
11/13/2021 1:00:00 AM 11.69 53.042 7.36 217.6 515.4 83.4
11/13/2021 1:15:00 AM 11.67 53.006 7.36 216.2 452.7 83.8
11/13/2021 1:30:00 AM 11.65 52.97 7.35 216.9 492.9 83.2
11/13/2021 1:45:00 AM 11.63 52.934 7.35 217 501.8 82.5
11/13/2021 2:00:00 AM 11.61 52.898 7.35 213.8 487.2 83.6
11/13/2021 2:15:00 AM 11.59 52.862 7.35 213.9 491 83.3
11/13/2021 2:30:00 AM 11.57 52.826 7.35 213.5 532.1 83
11/13/2021 2:45:00 AM 11.55 52.79 7.35 211.4 541.9 82.5
11/13/2021 3:00:00 AM 11.53 52.754 7.35 210.1 498.9 84.6
11/13/2021 3:15:00 AM 11.51 52.718 7.35 206.2 576.9 85.5
11/13/2021 3:30:00 AM 11.49 52.682 7.34 205.8 482.1 84.8
11/13/2021 3:45:00 AM 11.48 52.664 7.34 205.1 569.8 83.8
11/13/2021 4:00:00 AM 11.46 52.628 7.34 203.2 659.2 81.9
11/13/2021 4:15:00 AM 11.44 52.592 7.33 202.4 478.5 81.5
11/13/2021 4:30:00 AM 11.42 52.556 7.33 202 541.8 81
11/13/2021 4:45:00 AM 11.39 52.502 7.33 200.5 469 81.3
11/13/2021 5:00:00 AM 11.37 52.466 7.33 199.2 461.3 81.8
11/13/2021 5:15:00 AM 11.35 52.43 7.33 198.6 475.1 82.4
11/13/2021 5:30:00 AM 11.33 52.394 7.33 197.3 483.4 83.2
11/13/2021 5:45:00 AM 11.3 52.34 7.33 195.7 472.8 83.1
11/13/2021 6:00:00 AM 11.28 52.304 7.32 194.9 481.2 82.4
11/13/2021 6:15:00 AM 11.25 52.25 7.33 194.4 433.5 80.5
11/13/2021 6:30:00 AM 11.22 52.196 7.33 195.2 477.1 78.2
11/13/2021 6:45:00 AM 11.2 52.16 7.33 195.9 470.9 78
11/13/2021 7:00:00 AM 11.17 52.106 7.33 197.3 501.4 77
11/13/2021 7:15:00 AM 11.14 52.052 7.33 197.7 498.1 77.1
11/13/2021 7:30:00 AM 11.12 52.016 7.34 197.5 509.7 78.9
11/13/2021 7:45:00 AM 11.09 51.962 7.34 196.5 512.9 80.2
11/13/2021 8:00:00 AM 11.07 51.926 7.33 196.3 547.4 81.1
11/13/2021 8:15:00 AM 11.04 51.872 7.33 194.8 516.7 81.1
11/13/2021 8:30:00 AM 11.02 51.836 7.33 194.9 640.8 81.3
11/13/2021 8:45:00 AM 11.01 51.818 7.34 194.8 470.1 82.1
11/13/2021 9:00:00 AM 10.99 51.782 7.34 195 453.1 82.6
11/13/2021 9:15:00 AM 10.98 51.764 7.35 195.7 542.2 82.5
11/13/2021 9:30:00 AM 10.96 51.728 7.35 195.2 480.9 82.9
11/13/2021 9:45:00 AM 10.94 51.692 7.35 196.7 569.8 82.7
11/13/2021 10:00:00 AM 10.92 51.656 7.35 196.5 466.2 83.8
11/13/2021 10:15:00 AM 10.9 51.62 7.35 197.1 461.3 84.2
11/13/2021 10:30:00 AM 10.87 51.566 7.35 197 447.2 84.8
11/13/2021 10:45:00 AM 10.85 51.53 7.36 197.9 508.3 85
11/13/2021 11:00:00 AM 10.83 51.494 7.36 196.3 498.9 86.1
11/13/2021 11:15:00 AM 10.79 51.422 7.36 195.7 589.5 86.4
11/13/2021 11:30:00 AM 10.76 51.368 7.36 195.1 430.6 87.7
11/13/2021 11:45:00 AM 10.73 51.314 7.36 195.4 406.6 88
11/13/2021 12:00:00 PM 10.7 51.26 7.36 195.9 554.2 88.2
11/13/2021 12:15:00 PM 10.67 51.206 7.36 196.3 444.7 88
11/13/2021 12:30:00 PM 10.64 51.152 7.38 196.9 563.2 88.3
11/13/2021 12:45:00 PM 10.63 51.134 7.4 197.2 571.2 88.5
11/13/2021 1:00:00 PM 10.64 51.152 7.43 197.9 722.9 88.8
11/13/2021 1:15:00 PM 10.66 51.188 7.43 198.6 1486 88.9
11/13/2021 1:30:00 PM 10.65 51.17 7.42 199.3 1028 88.9
11/13/2021 1:45:00 PM 10.64 51.152 7.43 200.6 521.3 88.5
11/13/2021 2:00:00 PM 10.63 51.134 7.42 201.4 711.8 88.8
11/13/2021 2:15:00 PM 10.6 51.08 7.42 201.6 616.9 88.7
11/13/2021 2:30:00 PM 10.59 51.062 7.11 203.1 580.9 88.4
11/13/2021 2:45:00 PM 10.57 51.026 7.33 203.2 588.8 88.7
11/13/2021 3:00:00 PM 10.56 51.008 7.37 203.2 637.1 88.8
11/13/2021 3:15:00 PM 10.53 50.954 7.41 204.3 509.6 88.6
11/13/2021 3:30:00 PM 10.5 50.9 7.41 205.3 1589 88.5
11/13/2021 3:45:00 PM 10.46 50.828 7.43 206 893 88.5
11/13/2021 4:00:00 PM 10.43 50.774 7.43 206.8 661.7 88.5
11/13/2021 4:15:00 PM 10.38 50.684 7.44 207.3 594 88.6
11/13/2021 4:30:00 PM 10.32 50.576 7.44 207.5 499.4 88.8
11/13/2021 4:45:00 PM 10.28 50.504 7.44 208.1 1284 88.8
11/13/2021 5:00:00 PM 10.23 50.414 7.42 208.7 541.9 88.7
11/13/2021 5:15:00 PM 10.19 50.342 7.43 209.2 545.9 88.7
11/13/2021 5:30:00 PM 10.16 50.288 7.43 209.5 535.6 88.7
11/13/2021 5:45:00 PM 10.13 50.234 7.43 209.2 452.8 88.7
11/13/2021 6:00:00 PM 10.1 50.18 7.47 209.3 546.5 88.8
11/13/2021 6:15:00 PM 10.07 50.126 7.45 209.7 540.9 88.6
11/13/2021 6:30:00 PM 10.03 50.054 7.44 210.3 509.8 88.8
11/13/2021 6:45:00 PM 9.99 49.982 7.44 211 497.5 88.6
11/13/2021 7:00:00 PM 9.94 49.892 7.45 211.5 598.4 88.7
11/13/2021 7:15:00 PM 9.9 49.82 7.44 212.2 901.7 88.6
11/13/2021 7:30:00 PM 9.86 49.748 7.44 212.7 530.5 88.7
11/13/2021 7:45:00 PM 9.81 49.658 7.44 212.1 561.3 89.3
11/13/2021 8:00:00 PM 9.78 49.604 7.43 212.3 538.9 89.4
11/13/2021 8:15:00 PM 9.75 49.55 7.44 213.1 695.7 89.4
11/13/2021 8:30:00 PM 9.72 49.496 7.41 213.6 711.6 89.4
11/13/2021 8:45:00 PM 9.69 49.442 7.44 214.3 807.1 89.4
11/13/2021 9:00:00 PM 9.66 49.388 7.44 215.2 872.9 89.5
11/13/2021 9:15:00 PM 9.62 49.316 7.44 216.1 1488 89.2
11/13/2021 9:30:00 PM 9.59 49.262 7.45 217.1 1119 89.1
11/13/2021 9:45:00 PM 9.56 49.208 7.43 218.3 767.7 89.1
11/13/2021 10:00:00 PM 9.54 49.172 7.44 218.3 866.5 88.8
11/13/2021 10:15:00 PM 9.51 49.118 7.31 218.6 822.9 88.3
11/13/2021 10:30:00 PM 9.49 49.082 7.44 219.2 770 88.1
11/13/2021 10:45:00 PM 9.46 49.028 7.45 219.6 939.9 88.3
11/13/2021 11:00:00 PM 9.44 48.992 7.42 220 876.6 88.6
11/13/2021 11:15:00 PM 9.41 48.938 7.14 219.6 717.8 87.8
11/13/2021 11:30:00 PM 9.38 48.884 7.44 219.4 725.3 90.1
11/13/2021 11:45:00 PM 9.36 48.848 7.41 220 1189 88
11/14/2021 12:00:00 AM 9.33 48.794 6.89 220.4 1164 88.8
11/14/2021 12:15:00 AM 9.3 48.74 7.43 220.6 1444 90.3
11/14/2021 12:30:00 AM 9.27 48.686 7.46 221.2 1406 90.8
11/14/2021 12:45:00 AM 9.24 48.632 7.42 222.1 1378 91.4
11/14/2021 1:00:00 AM 9.21 48.578 7.44 222.8 1382 91.5
11/14/2021 1:15:00 AM 9.18 48.524 7.43 223.7 1433 91.6
11/14/2021 1:30:00 AM 9.16 48.488 7.46 224.3 1445 91.4
11/14/2021 1:45:00 AM 9.13 48.434 7.43 224.9 847.7 91.4
11/14/2021 2:00:00 AM 9.1 48.38 7.47 225.5 1296 91.8
11/14/2021 2:15:00 AM 9.07 48.326 7.24 225.4 1321 91.4
11/14/2021 2:30:00 AM 9.04 48.272 7.46 225.7 886.5 91.8
11/14/2021 2:45:00 AM 9.01 48.218 7.47 225.9 1140 91.9
11/14/2021 3:00:00 AM 8.98 48.164 7.48 227.2 1374 91.8
11/14/2021 3:15:00 AM 8.95 48.11 7.47 228 1354 91.6
11/14/2021 3:30:00 AM 8.92 48.056 7.47 228.3 1499 91.9
11/14/2021 3:45:00 AM 8.9 48.02 7.47 228.7 1597 91.8
11/14/2021 4:00:00 AM 8.87 47.966 7.48 229.3 1393 91.9
11/14/2021 4:15:00 AM 8.84 47.912 7.47 230.2 1547 91.7
11/14/2021 4:30:00 AM 8.81 47.858 7.28 230.8 1869 91.7
11/14/2021 4:45:00 AM 8.78 47.804 7.45 231.5 1129 92
11/14/2021 5:00:00 AM 8.75 47.75 7.45 232.4 1236 92.1
11/14/2021 5:15:00 AM 8.73 47.714 7.44 232.9 1309 91.9
11/14/2021 5:30:00 AM 8.7 47.66 7.45 233.1 1116 91.9
11/14/2021 5:45:00 AM 8.67 47.606 7.48 233.2 1272 92
11/14/2021 6:00:00 AM 8.66 47.588 7.48 233.5 520.2 92
11/14/2021 6:15:00 AM 8.64 47.552 7.49 234 963.1 92.1
11/14/2021 6:30:00 AM 8.62 47.516 7.49 234.7 4191 92.1
11/14/2021 6:45:00 AM 8.6 47.48 7.49 235.5 4758 92.1
11/14/2021 7:00:00 AM 8.58 47.444 7.5 237.4 54.92 91.7
11/14/2021 7:15:00 AM 8.56 47.408 7.45 238.7 51.85 92.1
11/14/2021 7:30:00 AM 8.54 47.372 7.25 239.1 51.17 92.2
11/14/2021 7:45:00 AM 8.52 47.336 7.06 239.6 56.19 92.1
11/14/2021 8:00:00 AM 8.51 47.318 7.34 238.5 56.23 92.4
11/14/2021 8:15:00 AM 8.49 47.282 7.31 239.8 56.67 92.4
11/14/2021 8:30:00 AM 8.49 47.282 7.14 240.3 78.64 92.6
11/14/2021 8:45:00 AM 8.49 47.282 7.21 240.4 64.76 92.8
11/14/2021 9:00:00 AM 8.49 47.282 7.34 239.1 69.22 92.9
11/14/2021 9:15:00 AM 8.49 47.282 7.43 238.2 68.91 93
11/14/2021 9:30:00 AM 8.5 47.3 7.49 237.5 600.1 93.4
11/14/2021 9:45:00 AM 8.51 47.318 7.5 237.8 65.98 93.5
11/14/2021 10:00:00 AM 8.53 47.354 7.51 238 68.18 93.7
11/14/2021 10:15:00 AM 8.55 47.39 7.52 237.9 67.33 93.9
11/14/2021 10:30:00 AM 8.56 47.408 7.52 237.8 68.36 94.1
11/14/2021 10:45:00 AM 8.56 47.408 7.52 237.7 75.62 94.2
11/14/2021 11:00:00 AM 8.57 47.426 7.53 237.8 87.38 94.1
11/14/2021 11:15:00 AM 8.57 47.426 7.52 237.8 68.07 94.1
11/14/2021 11:30:00 AM 8.57 47.426 7.53 238 85.54 94
11/14/2021 11:45:00 AM 8.58 47.444 7.53 238.1 85.37 94.1
11/14/2021 12:00:00 PM 8.57 47.426 7.52 238.6 91.85 94.2
11/14/2021 12:15:00 PM 8.58 47.444 7.53 238.9 319.3 94.3
11/14/2021 12:30:00 PM 8.61 47.498 7.53 239.6 67.96 94.5
11/14/2021 12:45:00 PM 8.64 47.552 7.54 240.1 62.17 94.2
11/14/2021 1:00:00 PM 8.7 47.66 7.54 240.2 69.82 94.7
11/14/2021 1:15:00 PM 8.72 47.696 7.54 240.4 68.66 95
11/14/2021 1:30:00 PM 8.74 47.732 7.53 240.6 65.82 95.1
11/14/2021 1:45:00 PM 8.74 47.732 7.53 241.2 69.14 95.2
11/14/2021 2:00:00 PM 8.74 47.732 7.53 242.1 70.9 95.2
11/14/2021 2:15:00 PM 8.75 47.75 7.53 242.8 72.26 95.2
11/14/2021 2:30:00 PM 8.75 47.75 7.53 243.3 70.62 95.1
11/14/2021 2:45:00 PM 8.76 47.768 7.53 243 63.93 95.2
11/14/2021 3:00:00 PM 8.76 47.768 7.54 242.5 70.7 95.3
11/14/2021 3:15:00 PM 8.76 47.768 7.55 242.7 72.92 95.3
11/14/2021 3:30:00 PM 8.75 47.75 7.55 243.2 78.26 95.4
11/14/2021 3:45:00 PM 8.74 47.732 7.55 243.3 101.3 95.2
11/14/2021 4:00:00 PM 8.73 47.714 7.55 243.2 104.9 94.9
11/14/2021 4:15:00 PM 8.71 47.678 7.54 243.2 52.54 95
11/14/2021 4:30:00 PM 8.7 47.66 7.51 243.3 55.73 94.6
11/14/2021 4:45:00 PM 8.69 47.642 7.49 243.4 68.55 94.8
11/14/2021 5:00:00 PM 8.68 47.624 7.51 243.5 54.6 94.7
11/14/2021 5:15:00 PM 8.67 47.606 7.53 243.6 62.77 94.5
11/14/2021 5:30:00 PM 8.67 47.606 7.52 243.7 58.89 94.8
11/14/2021 5:45:00 PM 8.66 47.588 7.52 245.1 52.89 94.1
11/14/2021 6:00:00 PM 8.65 47.57 7.52 247.2 52.17 94.2
11/14/2021 6:15:00 PM 8.64 47.552 7.52 249.6 54.01 94.2
11/14/2021 6:30:00 PM 8.63 47.534 7.52 250.3 55.97 94.2
11/14/2021 6:45:00 PM 8.61 47.498 7.53 252.7 80.07 94.5
11/14/2021 7:00:00 PM 8.6 47.48 7.52 254 334.9 94.3
11/14/2021 7:15:00 PM 8.59 47.462 7.52 250.1 408.1 94.6
11/14/2021 7:30:00 PM 8.58 47.444 7.48 249 333.3 94.7
11/14/2021 7:45:00 PM 8.57 47.426 7.48 249 362.4 94.5
11/14/2021 8:00:00 PM 8.56 47.408 7.48 249.7 432.6 94.4
11/14/2021 8:15:00 PM 8.55 47.39 7.54 251.2 477.2 94.5
11/14/2021 8:30:00 PM 8.54 47.372 7.56 253.2 552.3 94.4
11/14/2021 8:45:00 PM 8.53 47.354 7.56 255.1 406.7 94.3
11/14/2021 9:00:00 PM 8.52 47.336 7.56 256.5 440.9 94.3
11/14/2021 9:15:00 PM 8.51 47.318 7.56 257.7 493.8 94
11/14/2021 9:30:00 PM 8.5 47.3 7.48 258.7 547.8 94.2
11/14/2021 9:45:00 PM 8.48 47.264 7.53 260 527.7 94.1
11/14/2021 10:00:00 PM 8.47 47.246 7.51 260.9 1440 88.7
11/14/2021 10:15:00 PM 8.45 47.21 7.51 262.2 501.6 94
11/14/2021 10:30:00 PM 8.44 47.192 7.51 264.2 609 94.1
11/14/2021 10:45:00 PM 8.42 47.156 7.51 264.1 697.5 94
11/14/2021 11:00:00 PM 8.4 47.12 7.52 269.2 548.4 93.3
11/14/2021 11:15:00 PM 8.37 47.066 7.51 267.5 676.9 93.9
11/14/2021 11:30:00 PM 8.34 47.012 7.55 268.3 638.4 93.9
11/14/2021 11:45:00 PM 8.31 46.958 7.6 269.1 515 93.6
11/15/2021 12:00:00 AM 8.29 46.922 7.59 268.5 455.1 93.7
11/15/2021 12:15:00 AM 8.27 46.886 7.57 269.3 429.5 93.7
11/15/2021 12:30:00 AM 8.26 46.868 7.59 270.1 337.9 93.6
11/15/2021 12:45:00 AM 8.25 46.85 7.58 270.2 340 93.5
11/15/2021 1:00:00 AM 8.23 46.814 7.57 270.4 190.2 93.4
11/15/2021 1:15:00 AM 8.22 46.796 7.56 270.2 181.2 93.4
11/15/2021 1:30:00 AM 8.21 46.778 7.54 270.1 366.8 93.2
11/15/2021 1:45:00 AM 8.2 46.76 7.54 269.2 514.5 93.5
11/15/2021 2:00:00 AM 8.19 46.742 7.53 269.3 417 93.4
11/15/2021 2:15:00 AM 8.17 46.706 7.49 268.6 281.5 93.3
11/15/2021 2:30:00 AM 8.16 46.688 7.38 267.8 285.5 93.2
11/15/2021 2:45:00 AM 8.15 46.67 7.5 267.7 502.7 93.4
11/15/2021 3:00:00 AM 8.13 46.634 7.52 267.8 183 93.2
11/15/2021 3:15:00 AM 8.12 46.616 7.52 269.8 529.4 93.2
11/15/2021 3:30:00 AM 8.1 46.58 7.52 269.6 422.1 93.3
11/15/2021 3:45:00 AM 8.08 46.544 7.52 271 308.7 93.2
11/15/2021 4:00:00 AM 8.05 46.49 7.52 271.6 464.6 93
11/15/2021 4:15:00 AM 8.02 46.436 7.53 272.1 366.8 93.1
11/15/2021 4:30:00 AM 8 46.4 7.52 274.4 293.2 92.9
11/15/2021 4:45:00 AM 7.98 46.364 7.51 274.5 487.3 93.1
11/15/2021 5:00:00 AM 7.97 46.346 7.52 274 242.1 93
11/15/2021 5:15:00 AM 7.96 46.328 7.52 274 233 93.2
11/15/2021 5:30:00 AM 7.96 46.328 7.52 273.8 283.2 93.3
11/15/2021 5:45:00 AM 7.95 46.31 7.51 273.8 246.7 93.3
11/15/2021 6:00:00 AM 7.94 46.292 7.52 273.4 170.8 93.1
11/15/2021 6:15:00 AM 7.93 46.274 7.52 273.5 386.8 93.1
11/15/2021 6:30:00 AM 7.92 46.256 7.52 276.1 401.3 93.5
11/15/2021 6:45:00 AM 7.92 46.256 7.52 275 170.4 93.3
11/15/2021 7:00:00 AM 7.91 46.238 7.52 274.8 216.2 93.1
11/15/2021 7:15:00 AM 7.9 46.22 7.52 274 362.1 93.3
11/15/2021 7:30:00 AM 7.89 46.202 7.51 273.9 341.7 93.3
11/15/2021 7:45:00 AM 7.88 46.184 7.52 273.5 290.2 93.3
11/15/2021 8:00:00 AM 7.88 46.184 7.51 272.4 292.5 93.5
11/15/2021 8:15:00 AM 7.89 46.202 7.51 277.3 278.2 93.5
11/15/2021 8:30:00 AM 7.89 46.202 7.5 268.7 276.2 93.5
11/15/2021 8:45:00 AM 7.89 46.202 7.5 266.3 222.1 93.7
11/15/2021 9:00:00 AM 7.9 46.22 7.5 262.9 311.4 94